<?xml version="1.0" encoding="UTF-8" standalone="no" ?>
<gpx xmlns="http://www.topografix.com/GPX/1/1" xmlns:xsi="http://www.w3.org/2001/XMLSchema-instance" xsi:schemaLocation="http://www.topografix.com/GPX/1/1 http://www.topografix.com/GPX/1/1/gpx.xsd" version="1.1" creator="VisuGPX - https://www.visugpx.com">
  <metadata>
    <name>La peyrouse</name>
  </metadata>
  <trk>
    <name><![CDATA[La Peyrouse H&F - Randonnée]]></name>
    <trkseg>
      <trkpt lat="44.9871" lon="5.74539">
        <ele>1002.799987793</ele>
        <time>2025-08-31T07:03:52.000Z</time>
      </trkpt>
      <trkpt lat="44.98704" lon="5.74536">
        <ele>1002.5999755859</ele>
        <time>2025-08-31T07:03:53.000Z</time>
      </trkpt>
      <trkpt lat="44.98703" lon="5.74534">
        <ele>1003.200012207</ele>
        <time>2025-08-31T07:03:59.000Z</time>
      </trkpt>
      <trkpt lat="44.98702" lon="5.74531">
        <ele>1003.4000244141</ele>
        <time>2025-08-31T07:04:02.000Z</time>
      </trkpt>
      <trkpt lat="44.98701" lon="5.74529">
        <ele>1003.4000244141</ele>
        <time>2025-08-31T07:04:04.000Z</time>
      </trkpt>
      <trkpt lat="44.987" lon="5.74529">
        <ele>1003.5999755859</ele>
        <time>2025-08-31T07:04:06.000Z</time>
      </trkpt>
      <trkpt lat="44.98697" lon="5.74526">
        <ele>1003.799987793</ele>
        <time>2025-08-31T07:04:11.000Z</time>
      </trkpt>
      <trkpt lat="44.98697" lon="5.74525">
        <ele>1003.799987793</ele>
        <time>2025-08-31T07:04:12.000Z</time>
      </trkpt>
      <trkpt lat="44.98696" lon="5.74523">
        <ele>1004</ele>
        <time>2025-08-31T07:04:13.000Z</time>
      </trkpt>
      <trkpt lat="44.98692" lon="5.74519">
        <ele>1004.4000244141</ele>
        <time>2025-08-31T07:04:19.000Z</time>
      </trkpt>
      <trkpt lat="44.98689" lon="5.74516">
        <ele>1004.5999755859</ele>
        <time>2025-08-31T07:04:23.000Z</time>
      </trkpt>
      <trkpt lat="44.98686" lon="5.74512">
        <ele>1005</ele>
        <time>2025-08-31T07:04:27.000Z</time>
      </trkpt>
      <trkpt lat="44.98685" lon="5.7451">
        <ele>1005</ele>
        <time>2025-08-31T07:04:28.000Z</time>
      </trkpt>
      <trkpt lat="44.9868" lon="5.74503">
        <ele>1005.799987793</ele>
        <time>2025-08-31T07:04:35.000Z</time>
      </trkpt>
      <trkpt lat="44.98677" lon="5.745">
        <ele>1005.799987793</ele>
        <time>2025-08-31T07:04:37.000Z</time>
      </trkpt>
      <trkpt lat="44.98677" lon="5.74499">
        <ele>1006</ele>
        <time>2025-08-31T07:04:38.000Z</time>
      </trkpt>
      <trkpt lat="44.98674" lon="5.74495">
        <ele>1006.4000244141</ele>
        <time>2025-08-31T07:04:42.000Z</time>
      </trkpt>
      <trkpt lat="44.98669" lon="5.74488">
        <ele>1007</ele>
        <time>2025-08-31T07:04:48.000Z</time>
      </trkpt>
      <trkpt lat="44.98668" lon="5.74487">
        <ele>1007</ele>
        <time>2025-08-31T07:04:49.000Z</time>
      </trkpt>
      <trkpt lat="44.98662" lon="5.7448">
        <ele>1007.5999755859</ele>
        <time>2025-08-31T07:04:55.000Z</time>
      </trkpt>
      <trkpt lat="44.9866" lon="5.74476">
        <ele>1008.200012207</ele>
        <time>2025-08-31T07:04:59.000Z</time>
      </trkpt>
      <trkpt lat="44.98658" lon="5.74474">
        <ele>1008.4000244141</ele>
        <time>2025-08-31T07:05:01.000Z</time>
      </trkpt>
      <trkpt lat="44.98652" lon="5.74465">
        <ele>1009.200012207</ele>
        <time>2025-08-31T07:05:08.000Z</time>
      </trkpt>
      <trkpt lat="44.98648" lon="5.74458">
        <ele>1009.799987793</ele>
        <time>2025-08-31T07:05:13.000Z</time>
      </trkpt>
      <trkpt lat="44.98646" lon="5.74454">
        <ele>1010.200012207</ele>
        <time>2025-08-31T07:05:16.000Z</time>
      </trkpt>
      <trkpt lat="44.98642" lon="5.7444">
        <ele>1011.4000244141</ele>
        <time>2025-08-31T07:05:25.000Z</time>
      </trkpt>
      <trkpt lat="44.98642" lon="5.74438">
        <ele>1011.4000244141</ele>
        <time>2025-08-31T07:05:26.000Z</time>
      </trkpt>
      <trkpt lat="44.98638" lon="5.74423">
        <ele>1012.4000244141</ele>
        <time>2025-08-31T07:05:35.000Z</time>
      </trkpt>
      <trkpt lat="44.98637" lon="5.74414">
        <ele>1013</ele>
        <time>2025-08-31T07:05:40.000Z</time>
      </trkpt>
      <trkpt lat="44.98636" lon="5.74409">
        <ele>1013.4000244141</ele>
        <time>2025-08-31T07:05:43.000Z</time>
      </trkpt>
      <trkpt lat="44.98634" lon="5.74396">
        <ele>1014.4000244141</ele>
        <time>2025-08-31T07:05:52.000Z</time>
      </trkpt>
      <trkpt lat="44.98634" lon="5.74395">
        <ele>1014.4000244141</ele>
        <time>2025-08-31T07:05:53.000Z</time>
      </trkpt>
      <trkpt lat="44.98631" lon="5.74386">
        <ele>1015.200012207</ele>
        <time>2025-08-31T07:05:59.000Z</time>
      </trkpt>
      <trkpt lat="44.9863" lon="5.74383">
        <ele>1015.5999755859</ele>
        <time>2025-08-31T07:06:01.000Z</time>
      </trkpt>
      <trkpt lat="44.98629" lon="5.74375">
        <ele>1016.200012207</ele>
        <time>2025-08-31T07:06:06.000Z</time>
      </trkpt>
      <trkpt lat="44.98629" lon="5.7437">
        <ele>1016.5999755859</ele>
        <time>2025-08-31T07:06:09.000Z</time>
      </trkpt>
      <trkpt lat="44.98629" lon="5.74365">
        <ele>1017.200012207</ele>
        <time>2025-08-31T07:06:12.000Z</time>
      </trkpt>
      <trkpt lat="44.9863" lon="5.74355">
        <ele>1017.5999755859</ele>
        <time>2025-08-31T07:06:17.000Z</time>
      </trkpt>
      <trkpt lat="44.98631" lon="5.74352">
        <ele>1018</ele>
        <time>2025-08-31T07:06:19.000Z</time>
      </trkpt>
      <trkpt lat="44.98632" lon="5.74349">
        <ele>1018.200012207</ele>
        <time>2025-08-31T07:06:21.000Z</time>
      </trkpt>
      <trkpt lat="44.98633" lon="5.74342">
        <ele>1018.5999755859</ele>
        <time>2025-08-31T07:06:25.000Z</time>
      </trkpt>
      <trkpt lat="44.98635" lon="5.74339">
        <ele>1018.5999755859</ele>
        <time>2025-08-31T07:06:27.000Z</time>
      </trkpt>
      <trkpt lat="44.98638" lon="5.74326">
        <ele>1019.5999755859</ele>
        <time>2025-08-31T07:06:35.000Z</time>
      </trkpt>
      <trkpt lat="44.98638" lon="5.74324">
        <ele>1019.5999755859</ele>
        <time>2025-08-31T07:06:36.000Z</time>
      </trkpt>
      <trkpt lat="44.98639" lon="5.74322">
        <ele>1019.799987793</ele>
        <time>2025-08-31T07:06:37.000Z</time>
      </trkpt>
      <trkpt lat="44.98639" lon="5.74317">
        <ele>1020</ele>
        <time>2025-08-31T07:06:40.000Z</time>
      </trkpt>
      <trkpt lat="44.98639" lon="5.74311">
        <ele>1020.4000244141</ele>
        <time>2025-08-31T07:06:44.000Z</time>
      </trkpt>
      <trkpt lat="44.9864" lon="5.74299">
        <ele>1020.799987793</ele>
        <time>2025-08-31T07:06:51.000Z</time>
      </trkpt>
      <trkpt lat="44.9864" lon="5.74296">
        <ele>1021</ele>
        <time>2025-08-31T07:06:53.000Z</time>
      </trkpt>
      <trkpt lat="44.9864" lon="5.74293">
        <ele>1021.200012207</ele>
        <time>2025-08-31T07:06:55.000Z</time>
      </trkpt>
      <trkpt lat="44.98646" lon="5.74281">
        <ele>1021.4000244141</ele>
        <time>2025-08-31T07:07:03.000Z</time>
      </trkpt>
      <trkpt lat="44.98647" lon="5.74279">
        <ele>1021.4000244141</ele>
        <time>2025-08-31T07:07:07.000Z</time>
      </trkpt>
      <trkpt lat="44.98648" lon="5.74277">
        <ele>1021.5999755859</ele>
        <time>2025-08-31T07:07:20.000Z</time>
      </trkpt>
      <trkpt lat="44.98649" lon="5.74277">
        <ele>1021.5999755859</ele>
        <time>2025-08-31T07:07:21.000Z</time>
      </trkpt>
      <trkpt lat="44.98651" lon="5.74278">
        <ele>1021.799987793</ele>
        <time>2025-08-31T07:07:26.000Z</time>
      </trkpt>
      <trkpt lat="44.98652" lon="5.74278">
        <ele>1021.799987793</ele>
        <time>2025-08-31T07:07:27.000Z</time>
      </trkpt>
      <trkpt lat="44.98652" lon="5.74279">
        <ele>1021.799987793</ele>
        <time>2025-08-31T07:07:33.000Z</time>
      </trkpt>
      <trkpt lat="44.9865" lon="5.74281">
        <ele>1021.5999755859</ele>
        <time>2025-08-31T07:07:42.000Z</time>
      </trkpt>
      <trkpt lat="44.98649" lon="5.74281">
        <ele>1021.200012207</ele>
        <time>2025-08-31T07:07:50.000Z</time>
      </trkpt>
      <trkpt lat="44.9865" lon="5.74281">
        <ele>1021</ele>
        <time>2025-08-31T07:07:58.000Z</time>
      </trkpt>
      <trkpt lat="44.9865" lon="5.74281">
        <ele>1020.799987793</ele>
        <time>2025-08-31T07:08:02.000Z</time>
      </trkpt>
      <trkpt lat="44.9865" lon="5.74281">
        <ele>1020.799987793</ele>
        <time>2025-08-31T07:08:03.000Z</time>
      </trkpt>
      <trkpt lat="44.9865" lon="5.74281">
        <ele>1020.799987793</ele>
        <time>2025-08-31T07:08:04.000Z</time>
      </trkpt>
      <trkpt lat="44.98649" lon="5.74281">
        <ele>1020.200012207</ele>
        <time>2025-08-31T07:08:22.000Z</time>
      </trkpt>
      <trkpt lat="44.98649" lon="5.74281">
        <ele>1020.200012207</ele>
        <time>2025-08-31T07:08:25.000Z</time>
      </trkpt>
      <trkpt lat="44.98649" lon="5.74281">
        <ele>1020</ele>
        <time>2025-08-31T07:08:37.000Z</time>
      </trkpt>
      <trkpt lat="44.98649" lon="5.74281">
        <ele>1020</ele>
        <time>2025-08-31T07:08:40.000Z</time>
      </trkpt>
      <trkpt lat="44.98649" lon="5.74281">
        <ele>1020</ele>
        <time>2025-08-31T07:08:41.000Z</time>
      </trkpt>
      <trkpt lat="44.98649" lon="5.74281">
        <ele>1020</ele>
        <time>2025-08-31T07:08:42.000Z</time>
      </trkpt>
      <trkpt lat="44.98649" lon="5.74281">
        <ele>1020</ele>
        <time>2025-08-31T07:08:43.000Z</time>
      </trkpt>
      <trkpt lat="44.98649" lon="5.74281">
        <ele>1020</ele>
        <time>2025-08-31T07:08:47.000Z</time>
      </trkpt>
      <trkpt lat="44.98654" lon="5.7428">
        <ele>1020</ele>
        <time>2025-08-31T07:08:53.000Z</time>
      </trkpt>
      <trkpt lat="44.9866" lon="5.7428">
        <ele>1020.200012207</ele>
        <time>2025-08-31T07:08:58.000Z</time>
      </trkpt>
      <trkpt lat="44.98666" lon="5.74273">
        <ele>1020.799987793</ele>
        <time>2025-08-31T07:09:05.000Z</time>
      </trkpt>
      <trkpt lat="44.98672" lon="5.74274">
        <ele>1021.4000244141</ele>
        <time>2025-08-31T07:09:12.000Z</time>
      </trkpt>
      <trkpt lat="44.98675" lon="5.74274">
        <ele>1021.799987793</ele>
        <time>2025-08-31T07:09:15.000Z</time>
      </trkpt>
      <trkpt lat="44.98678" lon="5.74274">
        <ele>1022</ele>
        <time>2025-08-31T07:09:17.000Z</time>
      </trkpt>
      <trkpt lat="44.98683" lon="5.74271">
        <ele>1023</ele>
        <time>2025-08-31T07:09:23.000Z</time>
      </trkpt>
      <trkpt lat="44.98688" lon="5.7427">
        <ele>1023.799987793</ele>
        <time>2025-08-31T07:09:29.000Z</time>
      </trkpt>
      <trkpt lat="44.98688" lon="5.7427">
        <ele>1024</ele>
        <time>2025-08-31T07:09:30.000Z</time>
      </trkpt>
      <trkpt lat="44.98689" lon="5.74268">
        <ele>1024.8000488281</ele>
        <time>2025-08-31T07:09:35.000Z</time>
      </trkpt>
      <trkpt lat="44.9869" lon="5.74267">
        <ele>1025</ele>
        <time>2025-08-31T07:09:37.000Z</time>
      </trkpt>
      <trkpt lat="44.98694" lon="5.74265">
        <ele>1025.8000488281</ele>
        <time>2025-08-31T07:09:41.000Z</time>
      </trkpt>
      <trkpt lat="44.98697" lon="5.74262">
        <ele>1026.5999755859</ele>
        <time>2025-08-31T07:09:45.000Z</time>
      </trkpt>
      <trkpt lat="44.98699" lon="5.7426">
        <ele>1027.1999511719</ele>
        <time>2025-08-31T07:09:48.000Z</time>
      </trkpt>
      <trkpt lat="44.98699" lon="5.74259">
        <ele>1027.4000244141</ele>
        <time>2025-08-31T07:09:49.000Z</time>
      </trkpt>
      <trkpt lat="44.987" lon="5.74258">
        <ele>1027.8000488281</ele>
        <time>2025-08-31T07:09:50.000Z</time>
      </trkpt>
      <trkpt lat="44.98701" lon="5.74256">
        <ele>1028.1999511719</ele>
        <time>2025-08-31T07:09:53.000Z</time>
      </trkpt>
      <trkpt lat="44.98704" lon="5.74252">
        <ele>1028.8000488281</ele>
        <time>2025-08-31T07:09:56.000Z</time>
      </trkpt>
      <trkpt lat="44.98707" lon="5.7425">
        <ele>1029.4000244141</ele>
        <time>2025-08-31T07:09:58.000Z</time>
      </trkpt>
      <trkpt lat="44.98709" lon="5.74248">
        <ele>1030</ele>
        <time>2025-08-31T07:10:01.000Z</time>
      </trkpt>
      <trkpt lat="44.98711" lon="5.74244">
        <ele>1030.5999755859</ele>
        <time>2025-08-31T07:10:04.000Z</time>
      </trkpt>
      <trkpt lat="44.98712" lon="5.74242">
        <ele>1030.8000488281</ele>
        <time>2025-08-31T07:10:05.000Z</time>
      </trkpt>
      <trkpt lat="44.98713" lon="5.74241">
        <ele>1031.1999511719</ele>
        <time>2025-08-31T07:10:06.000Z</time>
      </trkpt>
      <trkpt lat="44.98717" lon="5.74235">
        <ele>1032.1999511719</ele>
        <time>2025-08-31T07:10:11.000Z</time>
      </trkpt>
      <trkpt lat="44.9872" lon="5.7423">
        <ele>1033.4000244141</ele>
        <time>2025-08-31T07:10:16.000Z</time>
      </trkpt>
      <trkpt lat="44.98721" lon="5.74227">
        <ele>1033.8000488281</ele>
        <time>2025-08-31T07:10:18.000Z</time>
      </trkpt>
      <trkpt lat="44.98722" lon="5.74225">
        <ele>1034.1999511719</ele>
        <time>2025-08-31T07:10:20.000Z</time>
      </trkpt>
      <trkpt lat="44.98723" lon="5.74222">
        <ele>1034.4000244141</ele>
        <time>2025-08-31T07:10:22.000Z</time>
      </trkpt>
      <trkpt lat="44.98725" lon="5.74218">
        <ele>1035.1999511719</ele>
        <time>2025-08-31T07:10:26.000Z</time>
      </trkpt>
      <trkpt lat="44.98726" lon="5.74216">
        <ele>1035.5999755859</ele>
        <time>2025-08-31T07:10:28.000Z</time>
      </trkpt>
      <trkpt lat="44.98728" lon="5.74212">
        <ele>1036.5999755859</ele>
        <time>2025-08-31T07:10:34.000Z</time>
      </trkpt>
      <trkpt lat="44.9873" lon="5.74206">
        <ele>1037.8000488281</ele>
        <time>2025-08-31T07:10:40.000Z</time>
      </trkpt>
      <trkpt lat="44.98731" lon="5.74202">
        <ele>1038.1999511719</ele>
        <time>2025-08-31T07:10:43.000Z</time>
      </trkpt>
      <trkpt lat="44.98732" lon="5.74201">
        <ele>1039</ele>
        <time>2025-08-31T07:10:46.000Z</time>
      </trkpt>
      <trkpt lat="44.98734" lon="5.74196">
        <ele>1039.5999755859</ele>
        <time>2025-08-31T07:10:50.000Z</time>
      </trkpt>
      <trkpt lat="44.98734" lon="5.74195">
        <ele>1039.8000488281</ele>
        <time>2025-08-31T07:10:51.000Z</time>
      </trkpt>
      <trkpt lat="44.98734" lon="5.74195">
        <ele>1040</ele>
        <time>2025-08-31T07:10:52.000Z</time>
      </trkpt>
      <trkpt lat="44.98737" lon="5.74187">
        <ele>1041</ele>
        <time>2025-08-31T07:10:58.000Z</time>
      </trkpt>
      <trkpt lat="44.98738" lon="5.74186">
        <ele>1041</ele>
        <time>2025-08-31T07:10:59.000Z</time>
      </trkpt>
      <trkpt lat="44.9874" lon="5.74183">
        <ele>1041.8000488281</ele>
        <time>2025-08-31T07:11:03.000Z</time>
      </trkpt>
      <trkpt lat="44.98741" lon="5.7418">
        <ele>1042.1999511719</ele>
        <time>2025-08-31T07:11:05.000Z</time>
      </trkpt>
      <trkpt lat="44.98743" lon="5.74178">
        <ele>1042.5999755859</ele>
        <time>2025-08-31T07:11:09.000Z</time>
      </trkpt>
      <trkpt lat="44.98746" lon="5.74175">
        <ele>1043.4000244141</ele>
        <time>2025-08-31T07:11:13.000Z</time>
      </trkpt>
      <trkpt lat="44.98747" lon="5.74172">
        <ele>1043.8000488281</ele>
        <time>2025-08-31T07:11:17.000Z</time>
      </trkpt>
      <trkpt lat="44.98748" lon="5.7417">
        <ele>1044.4000244141</ele>
        <time>2025-08-31T07:11:20.000Z</time>
      </trkpt>
      <trkpt lat="44.98749" lon="5.74167">
        <ele>1045</ele>
        <time>2025-08-31T07:11:23.000Z</time>
      </trkpt>
      <trkpt lat="44.98751" lon="5.74161">
        <ele>1045.5999755859</ele>
        <time>2025-08-31T07:11:27.000Z</time>
      </trkpt>
      <trkpt lat="44.98754" lon="5.74157">
        <ele>1046.4000244141</ele>
        <time>2025-08-31T07:11:32.000Z</time>
      </trkpt>
      <trkpt lat="44.98755" lon="5.74156">
        <ele>1046.5999755859</ele>
        <time>2025-08-31T07:11:33.000Z</time>
      </trkpt>
      <trkpt lat="44.98758" lon="5.74152">
        <ele>1047.8000488281</ele>
        <time>2025-08-31T07:11:38.000Z</time>
      </trkpt>
      <trkpt lat="44.98758" lon="5.74152">
        <ele>1047.8000488281</ele>
        <time>2025-08-31T07:11:39.000Z</time>
      </trkpt>
      <trkpt lat="44.98761" lon="5.74146">
        <ele>1048.8000488281</ele>
        <time>2025-08-31T07:11:44.000Z</time>
      </trkpt>
      <trkpt lat="44.98761" lon="5.74145">
        <ele>1049</ele>
        <time>2025-08-31T07:11:45.000Z</time>
      </trkpt>
      <trkpt lat="44.98761" lon="5.74141">
        <ele>1049.4000244141</ele>
        <time>2025-08-31T07:11:48.000Z</time>
      </trkpt>
      <trkpt lat="44.98763" lon="5.74139">
        <ele>1049.8000488281</ele>
        <time>2025-08-31T07:11:50.000Z</time>
      </trkpt>
      <trkpt lat="44.98765" lon="5.74134">
        <ele>1050.4000244141</ele>
        <time>2025-08-31T07:11:53.000Z</time>
      </trkpt>
      <trkpt lat="44.98767" lon="5.74127">
        <ele>1051</ele>
        <time>2025-08-31T07:11:57.000Z</time>
      </trkpt>
      <trkpt lat="44.98768" lon="5.74124">
        <ele>1051.1999511719</ele>
        <time>2025-08-31T07:11:59.000Z</time>
      </trkpt>
      <trkpt lat="44.98769" lon="5.74118">
        <ele>1052.1999511719</ele>
        <time>2025-08-31T07:12:03.000Z</time>
      </trkpt>
      <trkpt lat="44.98772" lon="5.7411">
        <ele>1053.1999511719</ele>
        <time>2025-08-31T07:12:09.000Z</time>
      </trkpt>
      <trkpt lat="44.98773" lon="5.74107">
        <ele>1053.5999755859</ele>
        <time>2025-08-31T07:12:11.000Z</time>
      </trkpt>
      <trkpt lat="44.98775" lon="5.74105">
        <ele>1054.4000244141</ele>
        <time>2025-08-31T07:12:15.000Z</time>
      </trkpt>
      <trkpt lat="44.98775" lon="5.74102">
        <ele>1054.8000488281</ele>
        <time>2025-08-31T07:12:17.000Z</time>
      </trkpt>
      <trkpt lat="44.98777" lon="5.74098">
        <ele>1055.5999755859</ele>
        <time>2025-08-31T07:12:21.000Z</time>
      </trkpt>
      <trkpt lat="44.98778" lon="5.74094">
        <ele>1056.1999511719</ele>
        <time>2025-08-31T07:12:24.000Z</time>
      </trkpt>
      <trkpt lat="44.98778" lon="5.74093">
        <ele>1056.4000244141</ele>
        <time>2025-08-31T07:12:25.000Z</time>
      </trkpt>
      <trkpt lat="44.9878" lon="5.7409">
        <ele>1056.8000488281</ele>
        <time>2025-08-31T07:12:27.000Z</time>
      </trkpt>
      <trkpt lat="44.98782" lon="5.74082">
        <ele>1057.5999755859</ele>
        <time>2025-08-31T07:12:32.000Z</time>
      </trkpt>
      <trkpt lat="44.98782" lon="5.74082">
        <ele>1057.8000488281</ele>
        <time>2025-08-31T07:12:33.000Z</time>
      </trkpt>
      <trkpt lat="44.98783" lon="5.74079">
        <ele>1058.8000488281</ele>
        <time>2025-08-31T07:12:37.000Z</time>
      </trkpt>
      <trkpt lat="44.98783" lon="5.74078">
        <ele>1059</ele>
        <time>2025-08-31T07:12:38.000Z</time>
      </trkpt>
      <trkpt lat="44.98784" lon="5.74073">
        <ele>1059.5999755859</ele>
        <time>2025-08-31T07:12:41.000Z</time>
      </trkpt>
      <trkpt lat="44.98784" lon="5.74072">
        <ele>1060</ele>
        <time>2025-08-31T07:12:43.000Z</time>
      </trkpt>
      <trkpt lat="44.98784" lon="5.74071">
        <ele>1060.1999511719</ele>
        <time>2025-08-31T07:12:44.000Z</time>
      </trkpt>
      <trkpt lat="44.98786" lon="5.74065">
        <ele>1061.1999511719</ele>
        <time>2025-08-31T07:12:49.000Z</time>
      </trkpt>
      <trkpt lat="44.98787" lon="5.74063">
        <ele>1062.4000244141</ele>
        <time>2025-08-31T07:12:54.000Z</time>
      </trkpt>
      <trkpt lat="44.98787" lon="5.74062">
        <ele>1062.5999755859</ele>
        <time>2025-08-31T07:12:55.000Z</time>
      </trkpt>
      <trkpt lat="44.98788" lon="5.74058">
        <ele>1063.4000244141</ele>
        <time>2025-08-31T07:12:59.000Z</time>
      </trkpt>
      <trkpt lat="44.98788" lon="5.74055">
        <ele>1063.8000488281</ele>
        <time>2025-08-31T07:13:01.000Z</time>
      </trkpt>
      <trkpt lat="44.98788" lon="5.74054">
        <ele>1064</ele>
        <time>2025-08-31T07:13:02.000Z</time>
      </trkpt>
      <trkpt lat="44.98789" lon="5.74052">
        <ele>1064.1999511719</ele>
        <time>2025-08-31T07:13:03.000Z</time>
      </trkpt>
      <trkpt lat="44.98789" lon="5.7405">
        <ele>1064.4000244141</ele>
        <time>2025-08-31T07:13:04.000Z</time>
      </trkpt>
      <trkpt lat="44.98791" lon="5.74044">
        <ele>1065.1999511719</ele>
        <time>2025-08-31T07:13:08.000Z</time>
      </trkpt>
      <trkpt lat="44.98792" lon="5.74043">
        <ele>1065.4000244141</ele>
        <time>2025-08-31T07:13:09.000Z</time>
      </trkpt>
      <trkpt lat="44.98795" lon="5.74034">
        <ele>1066.5999755859</ele>
        <time>2025-08-31T07:13:14.000Z</time>
      </trkpt>
      <trkpt lat="44.98795" lon="5.74033">
        <ele>1066.8000488281</ele>
        <time>2025-08-31T07:13:15.000Z</time>
      </trkpt>
      <trkpt lat="44.98799" lon="5.74027">
        <ele>1067.5999755859</ele>
        <time>2025-08-31T07:13:20.000Z</time>
      </trkpt>
      <trkpt lat="44.988" lon="5.74025">
        <ele>1067.8000488281</ele>
        <time>2025-08-31T07:13:21.000Z</time>
      </trkpt>
      <trkpt lat="44.98801" lon="5.74023">
        <ele>1068.1999511719</ele>
        <time>2025-08-31T07:13:23.000Z</time>
      </trkpt>
      <trkpt lat="44.98802" lon="5.74022">
        <ele>1068.4000244141</ele>
        <time>2025-08-31T07:13:24.000Z</time>
      </trkpt>
      <trkpt lat="44.98802" lon="5.74021">
        <ele>1068.5999755859</ele>
        <time>2025-08-31T07:13:25.000Z</time>
      </trkpt>
      <trkpt lat="44.98805" lon="5.74017">
        <ele>1069.4000244141</ele>
        <time>2025-08-31T07:13:29.000Z</time>
      </trkpt>
      <trkpt lat="44.98805" lon="5.74015">
        <ele>1069.8000488281</ele>
        <time>2025-08-31T07:13:31.000Z</time>
      </trkpt>
      <trkpt lat="44.98808" lon="5.74012">
        <ele>1070.5999755859</ele>
        <time>2025-08-31T07:13:35.000Z</time>
      </trkpt>
      <trkpt lat="44.9881" lon="5.7401">
        <ele>1071</ele>
        <time>2025-08-31T07:13:37.000Z</time>
      </trkpt>
      <trkpt lat="44.98811" lon="5.74004">
        <ele>1071.8000488281</ele>
        <time>2025-08-31T07:13:42.000Z</time>
      </trkpt>
      <trkpt lat="44.98812" lon="5.74003">
        <ele>1072.1999511719</ele>
        <time>2025-08-31T07:13:43.000Z</time>
      </trkpt>
      <trkpt lat="44.98814" lon="5.73996">
        <ele>1073</ele>
        <time>2025-08-31T07:13:50.000Z</time>
      </trkpt>
      <trkpt lat="44.98816" lon="5.73988">
        <ele>1074.4000244141</ele>
        <time>2025-08-31T07:13:57.000Z</time>
      </trkpt>
      <trkpt lat="44.98816" lon="5.73984">
        <ele>1075</ele>
        <time>2025-08-31T07:14:00.000Z</time>
      </trkpt>
      <trkpt lat="44.98816" lon="5.73981">
        <ele>1075.1999511719</ele>
        <time>2025-08-31T07:14:03.000Z</time>
      </trkpt>
      <trkpt lat="44.98818" lon="5.73976">
        <ele>1076.1999511719</ele>
        <time>2025-08-31T07:14:08.000Z</time>
      </trkpt>
      <trkpt lat="44.98818" lon="5.73975">
        <ele>1076.1999511719</ele>
        <time>2025-08-31T07:14:09.000Z</time>
      </trkpt>
      <trkpt lat="44.98818" lon="5.73974">
        <ele>1076.4000244141</ele>
        <time>2025-08-31T07:14:10.000Z</time>
      </trkpt>
      <trkpt lat="44.98819" lon="5.73968">
        <ele>1077.5999755859</ele>
        <time>2025-08-31T07:14:16.000Z</time>
      </trkpt>
      <trkpt lat="44.98819" lon="5.73967">
        <ele>1077.5999755859</ele>
        <time>2025-08-31T07:14:17.000Z</time>
      </trkpt>
      <trkpt lat="44.98821" lon="5.73963">
        <ele>1078.8000488281</ele>
        <time>2025-08-31T07:14:23.000Z</time>
      </trkpt>
      <trkpt lat="44.98823" lon="5.73958">
        <ele>1079.5999755859</ele>
        <time>2025-08-31T07:14:28.000Z</time>
      </trkpt>
      <trkpt lat="44.98823" lon="5.73956">
        <ele>1080</ele>
        <time>2025-08-31T07:14:29.000Z</time>
      </trkpt>
      <trkpt lat="44.98825" lon="5.73952">
        <ele>1080.1999511719</ele>
        <time>2025-08-31T07:14:32.000Z</time>
      </trkpt>
      <trkpt lat="44.98826" lon="5.73949">
        <ele>1080.8000488281</ele>
        <time>2025-08-31T07:14:36.000Z</time>
      </trkpt>
      <trkpt lat="44.98829" lon="5.73945">
        <ele>1082</ele>
        <time>2025-08-31T07:14:42.000Z</time>
      </trkpt>
      <trkpt lat="44.98831" lon="5.73943">
        <ele>1082.4000244141</ele>
        <time>2025-08-31T07:14:44.000Z</time>
      </trkpt>
      <trkpt lat="44.98832" lon="5.73939">
        <ele>1083.1999511719</ele>
        <time>2025-08-31T07:14:48.000Z</time>
      </trkpt>
      <trkpt lat="44.98833" lon="5.73936">
        <ele>1083.5999755859</ele>
        <time>2025-08-31T07:14:51.000Z</time>
      </trkpt>
      <trkpt lat="44.98833" lon="5.73933">
        <ele>1084.1999511719</ele>
        <time>2025-08-31T07:14:56.000Z</time>
      </trkpt>
      <trkpt lat="44.98834" lon="5.7393">
        <ele>1085.1999511719</ele>
        <time>2025-08-31T07:15:01.000Z</time>
      </trkpt>
      <trkpt lat="44.98835" lon="5.73927">
        <ele>1085.4000244141</ele>
        <time>2025-08-31T07:15:03.000Z</time>
      </trkpt>
      <trkpt lat="44.98837" lon="5.73922">
        <ele>1086</ele>
        <time>2025-08-31T07:15:07.000Z</time>
      </trkpt>
      <trkpt lat="44.98838" lon="5.73918">
        <ele>1086.4000244141</ele>
        <time>2025-08-31T07:15:10.000Z</time>
      </trkpt>
      <trkpt lat="44.98839" lon="5.73915">
        <ele>1087.1999511719</ele>
        <time>2025-08-31T07:15:14.000Z</time>
      </trkpt>
      <trkpt lat="44.9884" lon="5.73914">
        <ele>1087.4000244141</ele>
        <time>2025-08-31T07:15:15.000Z</time>
      </trkpt>
      <trkpt lat="44.9884" lon="5.73913">
        <ele>1087.5999755859</ele>
        <time>2025-08-31T07:15:16.000Z</time>
      </trkpt>
      <trkpt lat="44.98842" lon="5.73909">
        <ele>1088</ele>
        <time>2025-08-31T07:15:19.000Z</time>
      </trkpt>
      <trkpt lat="44.98843" lon="5.73908">
        <ele>1088.1999511719</ele>
        <time>2025-08-31T07:15:20.000Z</time>
      </trkpt>
      <trkpt lat="44.98844" lon="5.73905">
        <ele>1088.8000488281</ele>
        <time>2025-08-31T07:15:23.000Z</time>
      </trkpt>
      <trkpt lat="44.98845" lon="5.73901">
        <ele>1089.4000244141</ele>
        <time>2025-08-31T07:15:26.000Z</time>
      </trkpt>
      <trkpt lat="44.98846" lon="5.73899">
        <ele>1089.8000488281</ele>
        <time>2025-08-31T07:15:28.000Z</time>
      </trkpt>
      <trkpt lat="44.98846" lon="5.73897">
        <ele>1090.1999511719</ele>
        <time>2025-08-31T07:15:31.000Z</time>
      </trkpt>
      <trkpt lat="44.98846" lon="5.73897">
        <ele>1090.1999511719</ele>
        <time>2025-08-31T07:15:32.000Z</time>
      </trkpt>
      <trkpt lat="44.98847" lon="5.73895">
        <ele>1090.4000244141</ele>
        <time>2025-08-31T07:15:37.000Z</time>
      </trkpt>
      <trkpt lat="44.98847" lon="5.73895">
        <ele>1090.4000244141</ele>
        <time>2025-08-31T07:15:38.000Z</time>
      </trkpt>
      <trkpt lat="44.98847" lon="5.73894">
        <ele>1090.4000244141</ele>
        <time>2025-08-31T07:15:39.000Z</time>
      </trkpt>
      <trkpt lat="44.98848" lon="5.73893">
        <ele>1090.5999755859</ele>
        <time>2025-08-31T07:15:41.000Z</time>
      </trkpt>
      <trkpt lat="44.98848" lon="5.73892">
        <ele>1090.8000488281</ele>
        <time>2025-08-31T07:15:42.000Z</time>
      </trkpt>
      <trkpt lat="44.9885" lon="5.73887">
        <ele>1091.5999755859</ele>
        <time>2025-08-31T07:15:46.000Z</time>
      </trkpt>
      <trkpt lat="44.98851" lon="5.73885">
        <ele>1092</ele>
        <time>2025-08-31T07:15:48.000Z</time>
      </trkpt>
      <trkpt lat="44.98853" lon="5.73881">
        <ele>1093</ele>
        <time>2025-08-31T07:15:52.000Z</time>
      </trkpt>
      <trkpt lat="44.98853" lon="5.73878">
        <ele>1094</ele>
        <time>2025-08-31T07:15:57.000Z</time>
      </trkpt>
      <trkpt lat="44.98854" lon="5.73874">
        <ele>1094.5999755859</ele>
        <time>2025-08-31T07:16:00.000Z</time>
      </trkpt>
      <trkpt lat="44.98855" lon="5.73871">
        <ele>1095.1999511719</ele>
        <time>2025-08-31T07:16:03.000Z</time>
      </trkpt>
      <trkpt lat="44.98856" lon="5.73867">
        <ele>1096.1999511719</ele>
        <time>2025-08-31T07:16:07.000Z</time>
      </trkpt>
      <trkpt lat="44.98857" lon="5.73865">
        <ele>1096.5999755859</ele>
        <time>2025-08-31T07:16:10.000Z</time>
      </trkpt>
      <trkpt lat="44.9886" lon="5.73863">
        <ele>1097.4000244141</ele>
        <time>2025-08-31T07:16:15.000Z</time>
      </trkpt>
      <trkpt lat="44.98862" lon="5.73864">
        <ele>1097.8000488281</ele>
        <time>2025-08-31T07:16:17.000Z</time>
      </trkpt>
      <trkpt lat="44.98864" lon="5.73865">
        <ele>1098.1999511719</ele>
        <time>2025-08-31T07:16:19.000Z</time>
      </trkpt>
      <trkpt lat="44.98865" lon="5.73866">
        <ele>1098.5999755859</ele>
        <time>2025-08-31T07:16:20.000Z</time>
      </trkpt>
      <trkpt lat="44.98867" lon="5.73866">
        <ele>1099</ele>
        <time>2025-08-31T07:16:22.000Z</time>
      </trkpt>
      <trkpt lat="44.98868" lon="5.73865">
        <ele>1099.4000244141</ele>
        <time>2025-08-31T07:16:24.000Z</time>
      </trkpt>
      <trkpt lat="44.98868" lon="5.73865">
        <ele>1099.5999755859</ele>
        <time>2025-08-31T07:16:25.000Z</time>
      </trkpt>
      <trkpt lat="44.98869" lon="5.73864">
        <ele>1099.8000488281</ele>
        <time>2025-08-31T07:16:26.000Z</time>
      </trkpt>
      <trkpt lat="44.98868" lon="5.73856">
        <ele>1100.4000244141</ele>
        <time>2025-08-31T07:16:32.000Z</time>
      </trkpt>
      <trkpt lat="44.98867" lon="5.73853">
        <ele>1100.5999755859</ele>
        <time>2025-08-31T07:16:35.000Z</time>
      </trkpt>
      <trkpt lat="44.98867" lon="5.73852">
        <ele>1100.5999755859</ele>
        <time>2025-08-31T07:16:36.000Z</time>
      </trkpt>
      <trkpt lat="44.98866" lon="5.73848">
        <ele>1101</ele>
        <time>2025-08-31T07:16:38.000Z</time>
      </trkpt>
      <trkpt lat="44.98866" lon="5.73847">
        <ele>1101</ele>
        <time>2025-08-31T07:16:39.000Z</time>
      </trkpt>
      <trkpt lat="44.98866" lon="5.73845">
        <ele>1101</ele>
        <time>2025-08-31T07:16:41.000Z</time>
      </trkpt>
      <trkpt lat="44.98866" lon="5.73843">
        <ele>1101.4000244141</ele>
        <time>2025-08-31T07:16:46.000Z</time>
      </trkpt>
      <trkpt lat="44.98866" lon="5.73843">
        <ele>1101.4000244141</ele>
        <time>2025-08-31T07:16:54.000Z</time>
      </trkpt>
      <trkpt lat="44.98866" lon="5.73843">
        <ele>1101</ele>
        <time>2025-08-31T07:17:02.000Z</time>
      </trkpt>
      <trkpt lat="44.98865" lon="5.73844">
        <ele>1099.8000488281</ele>
        <time>2025-08-31T07:17:30.000Z</time>
      </trkpt>
      <trkpt lat="44.98865" lon="5.73844">
        <ele>1099.5999755859</ele>
        <time>2025-08-31T07:17:35.000Z</time>
      </trkpt>
      <trkpt lat="44.98865" lon="5.73844">
        <ele>1099.8000488281</ele>
        <time>2025-08-31T07:17:41.000Z</time>
      </trkpt>
      <trkpt lat="44.98866" lon="5.73846">
        <ele>1100.4000244141</ele>
        <time>2025-08-31T07:18:11.000Z</time>
      </trkpt>
      <trkpt lat="44.98865" lon="5.73846">
        <ele>1100.1999511719</ele>
        <time>2025-08-31T07:18:31.000Z</time>
      </trkpt>
      <trkpt lat="44.98861" lon="5.73846">
        <ele>1100.5999755859</ele>
        <time>2025-08-31T07:18:52.000Z</time>
      </trkpt>
      <trkpt lat="44.98855" lon="5.73841">
        <ele>1101.1999511719</ele>
        <time>2025-08-31T07:19:01.000Z</time>
      </trkpt>
      <trkpt lat="44.9885" lon="5.7384">
        <ele>1101.5999755859</ele>
        <time>2025-08-31T07:19:04.000Z</time>
      </trkpt>
      <trkpt lat="44.98841" lon="5.73838">
        <ele>1102.4000244141</ele>
        <time>2025-08-31T07:19:11.000Z</time>
      </trkpt>
      <trkpt lat="44.98838" lon="5.73836">
        <ele>1102.8000488281</ele>
        <time>2025-08-31T07:19:14.000Z</time>
      </trkpt>
      <trkpt lat="44.98834" lon="5.73835">
        <ele>1103.4000244141</ele>
        <time>2025-08-31T07:19:17.000Z</time>
      </trkpt>
      <trkpt lat="44.98831" lon="5.73832">
        <ele>1103.8000488281</ele>
        <time>2025-08-31T07:19:21.000Z</time>
      </trkpt>
      <trkpt lat="44.98829" lon="5.73831">
        <ele>1103.8000488281</ele>
        <time>2025-08-31T07:19:23.000Z</time>
      </trkpt>
      <trkpt lat="44.98827" lon="5.73829">
        <ele>1104</ele>
        <time>2025-08-31T07:19:25.000Z</time>
      </trkpt>
      <trkpt lat="44.98821" lon="5.73823">
        <ele>1104.8000488281</ele>
        <time>2025-08-31T07:19:32.000Z</time>
      </trkpt>
      <trkpt lat="44.98819" lon="5.73821">
        <ele>1105</ele>
        <time>2025-08-31T07:19:34.000Z</time>
      </trkpt>
      <trkpt lat="44.98814" lon="5.73815">
        <ele>1105.1999511719</ele>
        <time>2025-08-31T07:19:40.000Z</time>
      </trkpt>
      <trkpt lat="44.98804" lon="5.73803">
        <ele>1106</ele>
        <time>2025-08-31T07:19:50.000Z</time>
      </trkpt>
      <trkpt lat="44.988" lon="5.73798">
        <ele>1106.4000244141</ele>
        <time>2025-08-31T07:19:55.000Z</time>
      </trkpt>
      <trkpt lat="44.98796" lon="5.73794">
        <ele>1106.8000488281</ele>
        <time>2025-08-31T07:19:59.000Z</time>
      </trkpt>
      <trkpt lat="44.98794" lon="5.7379">
        <ele>1107.1999511719</ele>
        <time>2025-08-31T07:20:02.000Z</time>
      </trkpt>
      <trkpt lat="44.9879" lon="5.73786">
        <ele>1107.8000488281</ele>
        <time>2025-08-31T07:20:07.000Z</time>
      </trkpt>
      <trkpt lat="44.98784" lon="5.73781">
        <ele>1108.4000244141</ele>
        <time>2025-08-31T07:20:13.000Z</time>
      </trkpt>
      <trkpt lat="44.98783" lon="5.7378">
        <ele>1108.4000244141</ele>
        <time>2025-08-31T07:20:14.000Z</time>
      </trkpt>
      <trkpt lat="44.98775" lon="5.73771">
        <ele>1109.4000244141</ele>
        <time>2025-08-31T07:20:23.000Z</time>
      </trkpt>
      <trkpt lat="44.98774" lon="5.7377">
        <ele>1109.4000244141</ele>
        <time>2025-08-31T07:20:24.000Z</time>
      </trkpt>
      <trkpt lat="44.98771" lon="5.73766">
        <ele>1109.8000488281</ele>
        <time>2025-08-31T07:20:28.000Z</time>
      </trkpt>
      <trkpt lat="44.98769" lon="5.73764">
        <ele>1110</ele>
        <time>2025-08-31T07:20:30.000Z</time>
      </trkpt>
      <trkpt lat="44.98768" lon="5.73762">
        <ele>1110.4000244141</ele>
        <time>2025-08-31T07:20:32.000Z</time>
      </trkpt>
      <trkpt lat="44.98767" lon="5.73761">
        <ele>1110.4000244141</ele>
        <time>2025-08-31T07:20:33.000Z</time>
      </trkpt>
      <trkpt lat="44.98761" lon="5.73754">
        <ele>1111</ele>
        <time>2025-08-31T07:20:40.000Z</time>
      </trkpt>
      <trkpt lat="44.98757" lon="5.7375">
        <ele>1111</ele>
        <time>2025-08-31T07:20:44.000Z</time>
      </trkpt>
      <trkpt lat="44.98753" lon="5.73748">
        <ele>1111.4000244141</ele>
        <time>2025-08-31T07:20:48.000Z</time>
      </trkpt>
      <trkpt lat="44.98748" lon="5.73745">
        <ele>1112</ele>
        <time>2025-08-31T07:20:54.000Z</time>
      </trkpt>
      <trkpt lat="44.98744" lon="5.73742">
        <ele>1112.4000244141</ele>
        <time>2025-08-31T07:20:58.000Z</time>
      </trkpt>
      <trkpt lat="44.98741" lon="5.7374">
        <ele>1112.5999755859</ele>
        <time>2025-08-31T07:21:01.000Z</time>
      </trkpt>
      <trkpt lat="44.98733" lon="5.73737">
        <ele>1113</ele>
        <time>2025-08-31T07:21:07.000Z</time>
      </trkpt>
      <trkpt lat="44.9873" lon="5.73735">
        <ele>1113.4000244141</ele>
        <time>2025-08-31T07:21:10.000Z</time>
      </trkpt>
      <trkpt lat="44.98729" lon="5.73735">
        <ele>1113.4000244141</ele>
        <time>2025-08-31T07:21:11.000Z</time>
      </trkpt>
      <trkpt lat="44.98722" lon="5.73731">
        <ele>1114.1999511719</ele>
        <time>2025-08-31T07:21:18.000Z</time>
      </trkpt>
      <trkpt lat="44.98718" lon="5.73729">
        <ele>1114.4000244141</ele>
        <time>2025-08-31T07:21:21.000Z</time>
      </trkpt>
      <trkpt lat="44.98714" lon="5.73727">
        <ele>1114.8000488281</ele>
        <time>2025-08-31T07:21:24.000Z</time>
      </trkpt>
      <trkpt lat="44.98707" lon="5.73725">
        <ele>1115.4000244141</ele>
        <time>2025-08-31T07:21:31.000Z</time>
      </trkpt>
      <trkpt lat="44.98706" lon="5.73725">
        <ele>1115.5999755859</ele>
        <time>2025-08-31T07:21:32.000Z</time>
      </trkpt>
      <trkpt lat="44.98699" lon="5.73722">
        <ele>1116</ele>
        <time>2025-08-31T07:21:38.000Z</time>
      </trkpt>
      <trkpt lat="44.98695" lon="5.7372">
        <ele>1116.5999755859</ele>
        <time>2025-08-31T07:21:41.000Z</time>
      </trkpt>
      <trkpt lat="44.98691" lon="5.73718">
        <ele>1116.5999755859</ele>
        <time>2025-08-31T07:21:45.000Z</time>
      </trkpt>
      <trkpt lat="44.9869" lon="5.73717">
        <ele>1116.8000488281</ele>
        <time>2025-08-31T07:21:46.000Z</time>
      </trkpt>
      <trkpt lat="44.9868" lon="5.73714">
        <ele>1117.4000244141</ele>
        <time>2025-08-31T07:21:54.000Z</time>
      </trkpt>
      <trkpt lat="44.98677" lon="5.73713">
        <ele>1117.5999755859</ele>
        <time>2025-08-31T07:21:57.000Z</time>
      </trkpt>
      <trkpt lat="44.98674" lon="5.73712">
        <ele>1117.8000488281</ele>
        <time>2025-08-31T07:21:59.000Z</time>
      </trkpt>
      <trkpt lat="44.98669" lon="5.7371">
        <ele>1118</ele>
        <time>2025-08-31T07:22:03.000Z</time>
      </trkpt>
      <trkpt lat="44.98662" lon="5.73708">
        <ele>1118.8000488281</ele>
        <time>2025-08-31T07:22:09.000Z</time>
      </trkpt>
      <trkpt lat="44.98661" lon="5.73708">
        <ele>1118.8000488281</ele>
        <time>2025-08-31T07:22:10.000Z</time>
      </trkpt>
      <trkpt lat="44.98651" lon="5.73706">
        <ele>1119.4000244141</ele>
        <time>2025-08-31T07:22:20.000Z</time>
      </trkpt>
      <trkpt lat="44.9865" lon="5.73705">
        <ele>1119.5999755859</ele>
        <time>2025-08-31T07:22:21.000Z</time>
      </trkpt>
      <trkpt lat="44.98646" lon="5.73705">
        <ele>1119.8000488281</ele>
        <time>2025-08-31T07:22:24.000Z</time>
      </trkpt>
      <trkpt lat="44.98643" lon="5.73705">
        <ele>1120</ele>
        <time>2025-08-31T07:22:27.000Z</time>
      </trkpt>
      <trkpt lat="44.9863" lon="5.73704">
        <ele>1120.8000488281</ele>
        <time>2025-08-31T07:22:38.000Z</time>
      </trkpt>
      <trkpt lat="44.98628" lon="5.73704">
        <ele>1121</ele>
        <time>2025-08-31T07:22:40.000Z</time>
      </trkpt>
      <trkpt lat="44.98617" lon="5.73705">
        <ele>1121.5999755859</ele>
        <time>2025-08-31T07:22:49.000Z</time>
      </trkpt>
      <trkpt lat="44.98613" lon="5.73706">
        <ele>1122</ele>
        <time>2025-08-31T07:22:52.000Z</time>
      </trkpt>
      <trkpt lat="44.98607" lon="5.73706">
        <ele>1122.4000244141</ele>
        <time>2025-08-31T07:22:57.000Z</time>
      </trkpt>
      <trkpt lat="44.98605" lon="5.73707">
        <ele>1122.4000244141</ele>
        <time>2025-08-31T07:22:59.000Z</time>
      </trkpt>
      <trkpt lat="44.98596" lon="5.7371">
        <ele>1123</ele>
        <time>2025-08-31T07:23:06.000Z</time>
      </trkpt>
      <trkpt lat="44.98592" lon="5.7371">
        <ele>1123.5999755859</ele>
        <time>2025-08-31T07:23:09.000Z</time>
      </trkpt>
      <trkpt lat="44.98586" lon="5.73711">
        <ele>1124</ele>
        <time>2025-08-31T07:23:14.000Z</time>
      </trkpt>
      <trkpt lat="44.98585" lon="5.73711">
        <ele>1124.1999511719</ele>
        <time>2025-08-31T07:23:15.000Z</time>
      </trkpt>
      <trkpt lat="44.98582" lon="5.73712">
        <ele>1124.4000244141</ele>
        <time>2025-08-31T07:23:18.000Z</time>
      </trkpt>
      <trkpt lat="44.9858" lon="5.73712">
        <ele>1124.5999755859</ele>
        <time>2025-08-31T07:23:19.000Z</time>
      </trkpt>
      <trkpt lat="44.98572" lon="5.7371">
        <ele>1125.4000244141</ele>
        <time>2025-08-31T07:23:26.000Z</time>
      </trkpt>
      <trkpt lat="44.98567" lon="5.73709">
        <ele>1126</ele>
        <time>2025-08-31T07:23:30.000Z</time>
      </trkpt>
      <trkpt lat="44.98562" lon="5.73706">
        <ele>1126.4000244141</ele>
        <time>2025-08-31T07:23:34.000Z</time>
      </trkpt>
      <trkpt lat="44.98558" lon="5.73702">
        <ele>1126.8000488281</ele>
        <time>2025-08-31T07:23:38.000Z</time>
      </trkpt>
      <trkpt lat="44.98553" lon="5.73695">
        <ele>1127.5999755859</ele>
        <time>2025-08-31T07:23:44.000Z</time>
      </trkpt>
      <trkpt lat="44.98548" lon="5.73688">
        <ele>1128.1999511719</ele>
        <time>2025-08-31T07:23:50.000Z</time>
      </trkpt>
      <trkpt lat="44.98545" lon="5.73684">
        <ele>1128.5999755859</ele>
        <time>2025-08-31T07:23:54.000Z</time>
      </trkpt>
      <trkpt lat="44.98538" lon="5.73674">
        <ele>1129.8000488281</ele>
        <time>2025-08-31T07:24:03.000Z</time>
      </trkpt>
      <trkpt lat="44.98533" lon="5.73665">
        <ele>1130.8000488281</ele>
        <time>2025-08-31T07:24:10.000Z</time>
      </trkpt>
      <trkpt lat="44.98531" lon="5.7366">
        <ele>1131.4000244141</ele>
        <time>2025-08-31T07:24:14.000Z</time>
      </trkpt>
      <trkpt lat="44.9853" lon="5.73659">
        <ele>1131.5999755859</ele>
        <time>2025-08-31T07:24:15.000Z</time>
      </trkpt>
      <trkpt lat="44.98529" lon="5.73656">
        <ele>1131.8000488281</ele>
        <time>2025-08-31T07:24:17.000Z</time>
      </trkpt>
      <trkpt lat="44.98527" lon="5.73655">
        <ele>1132.1999511719</ele>
        <time>2025-08-31T07:24:19.000Z</time>
      </trkpt>
      <trkpt lat="44.98526" lon="5.73652">
        <ele>1132.5999755859</ele>
        <time>2025-08-31T07:24:22.000Z</time>
      </trkpt>
      <trkpt lat="44.98525" lon="5.73649">
        <ele>1132.8000488281</ele>
        <time>2025-08-31T07:24:25.000Z</time>
      </trkpt>
      <trkpt lat="44.9852" lon="5.73641">
        <ele>1134</ele>
        <time>2025-08-31T07:24:32.000Z</time>
      </trkpt>
      <trkpt lat="44.98519" lon="5.73639">
        <ele>1134</ele>
        <time>2025-08-31T07:24:33.000Z</time>
      </trkpt>
      <trkpt lat="44.98512" lon="5.7363">
        <ele>1135.1999511719</ele>
        <time>2025-08-31T07:24:41.000Z</time>
      </trkpt>
      <trkpt lat="44.98509" lon="5.73628">
        <ele>1135.5999755859</ele>
        <time>2025-08-31T07:24:44.000Z</time>
      </trkpt>
      <trkpt lat="44.98505" lon="5.73624">
        <ele>1136.4000244141</ele>
        <time>2025-08-31T07:24:48.000Z</time>
      </trkpt>
      <trkpt lat="44.98502" lon="5.73622">
        <ele>1136.8000488281</ele>
        <time>2025-08-31T07:24:51.000Z</time>
      </trkpt>
      <trkpt lat="44.98499" lon="5.73621">
        <ele>1137.1999511719</ele>
        <time>2025-08-31T07:24:55.000Z</time>
      </trkpt>
      <trkpt lat="44.98497" lon="5.7362">
        <ele>1137.4000244141</ele>
        <time>2025-08-31T07:24:57.000Z</time>
      </trkpt>
      <trkpt lat="44.98494" lon="5.73619">
        <ele>1137.8000488281</ele>
        <time>2025-08-31T07:25:00.000Z</time>
      </trkpt>
      <trkpt lat="44.98491" lon="5.73618">
        <ele>1138.1999511719</ele>
        <time>2025-08-31T07:25:03.000Z</time>
      </trkpt>
      <trkpt lat="44.9849" lon="5.73618">
        <ele>1138.4000244141</ele>
        <time>2025-08-31T07:25:04.000Z</time>
      </trkpt>
      <trkpt lat="44.98482" lon="5.73616">
        <ele>1139.4000244141</ele>
        <time>2025-08-31T07:25:12.000Z</time>
      </trkpt>
      <trkpt lat="44.98481" lon="5.73616">
        <ele>1139.8000488281</ele>
        <time>2025-08-31T07:25:13.000Z</time>
      </trkpt>
      <trkpt lat="44.98474" lon="5.73612">
        <ele>1140.4000244141</ele>
        <time>2025-08-31T07:25:20.000Z</time>
      </trkpt>
      <trkpt lat="44.98472" lon="5.7361">
        <ele>1140.8000488281</ele>
        <time>2025-08-31T07:25:22.000Z</time>
      </trkpt>
      <trkpt lat="44.98464" lon="5.73608">
        <ele>1141.5999755859</ele>
        <time>2025-08-31T07:25:29.000Z</time>
      </trkpt>
      <trkpt lat="44.98461" lon="5.73606">
        <ele>1142</ele>
        <time>2025-08-31T07:25:32.000Z</time>
      </trkpt>
      <trkpt lat="44.98455" lon="5.73604">
        <ele>1142.5999755859</ele>
        <time>2025-08-31T07:25:37.000Z</time>
      </trkpt>
      <trkpt lat="44.98452" lon="5.73603">
        <ele>1143.1999511719</ele>
        <time>2025-08-31T07:25:40.000Z</time>
      </trkpt>
      <trkpt lat="44.98447" lon="5.73599">
        <ele>1143.4000244141</ele>
        <time>2025-08-31T07:25:45.000Z</time>
      </trkpt>
      <trkpt lat="44.98445" lon="5.73597">
        <ele>1144</ele>
        <time>2025-08-31T07:25:47.000Z</time>
      </trkpt>
      <trkpt lat="44.98444" lon="5.73596">
        <ele>1144.1999511719</ele>
        <time>2025-08-31T07:25:48.000Z</time>
      </trkpt>
      <trkpt lat="44.98439" lon="5.73591">
        <ele>1145</ele>
        <time>2025-08-31T07:25:54.000Z</time>
      </trkpt>
      <trkpt lat="44.98436" lon="5.73588">
        <ele>1145.4000244141</ele>
        <time>2025-08-31T07:25:57.000Z</time>
      </trkpt>
      <trkpt lat="44.98431" lon="5.73581">
        <ele>1146.1999511719</ele>
        <time>2025-08-31T07:26:03.000Z</time>
      </trkpt>
      <trkpt lat="44.98428" lon="5.73576">
        <ele>1146.4000244141</ele>
        <time>2025-08-31T07:26:07.000Z</time>
      </trkpt>
      <trkpt lat="44.98424" lon="5.73568">
        <ele>1147.1999511719</ele>
        <time>2025-08-31T07:26:13.000Z</time>
      </trkpt>
      <trkpt lat="44.9842" lon="5.73563">
        <ele>1147.8000488281</ele>
        <time>2025-08-31T07:26:18.000Z</time>
      </trkpt>
      <trkpt lat="44.98417" lon="5.73557">
        <ele>1148.1999511719</ele>
        <time>2025-08-31T07:26:23.000Z</time>
      </trkpt>
      <trkpt lat="44.98412" lon="5.73547">
        <ele>1149.1999511719</ele>
        <time>2025-08-31T07:26:31.000Z</time>
      </trkpt>
      <trkpt lat="44.98411" lon="5.73545">
        <ele>1149.4000244141</ele>
        <time>2025-08-31T07:26:32.000Z</time>
      </trkpt>
      <trkpt lat="44.9841" lon="5.73541">
        <ele>1150</ele>
        <time>2025-08-31T07:26:35.000Z</time>
      </trkpt>
      <trkpt lat="44.98409" lon="5.73537">
        <ele>1150.5999755859</ele>
        <time>2025-08-31T07:26:38.000Z</time>
      </trkpt>
      <trkpt lat="44.98409" lon="5.73534">
        <ele>1150.8000488281</ele>
        <time>2025-08-31T07:26:40.000Z</time>
      </trkpt>
      <trkpt lat="44.98408" lon="5.73532">
        <ele>1151</ele>
        <time>2025-08-31T07:26:41.000Z</time>
      </trkpt>
      <trkpt lat="44.98407" lon="5.73528">
        <ele>1151.5999755859</ele>
        <time>2025-08-31T07:26:44.000Z</time>
      </trkpt>
      <trkpt lat="44.98406" lon="5.73521">
        <ele>1152.5999755859</ele>
        <time>2025-08-31T07:26:49.000Z</time>
      </trkpt>
      <trkpt lat="44.98404" lon="5.73512">
        <ele>1153.4000244141</ele>
        <time>2025-08-31T07:26:54.000Z</time>
      </trkpt>
      <trkpt lat="44.98404" lon="5.73509">
        <ele>1153.5999755859</ele>
        <time>2025-08-31T07:26:56.000Z</time>
      </trkpt>
      <trkpt lat="44.98401" lon="5.73498">
        <ele>1154.8000488281</ele>
        <time>2025-08-31T07:27:03.000Z</time>
      </trkpt>
      <trkpt lat="44.984" lon="5.73495">
        <ele>1155.1999511719</ele>
        <time>2025-08-31T07:27:05.000Z</time>
      </trkpt>
      <trkpt lat="44.98398" lon="5.73488">
        <ele>1156</ele>
        <time>2025-08-31T07:27:10.000Z</time>
      </trkpt>
      <trkpt lat="44.98396" lon="5.73479">
        <ele>1156.8000488281</ele>
        <time>2025-08-31T07:27:16.000Z</time>
      </trkpt>
      <trkpt lat="44.98396" lon="5.73477">
        <ele>1157</ele>
        <time>2025-08-31T07:27:17.000Z</time>
      </trkpt>
      <trkpt lat="44.98393" lon="5.73465">
        <ele>1158.1999511719</ele>
        <time>2025-08-31T07:27:25.000Z</time>
      </trkpt>
      <trkpt lat="44.98392" lon="5.73461">
        <ele>1158.5999755859</ele>
        <time>2025-08-31T07:27:28.000Z</time>
      </trkpt>
      <trkpt lat="44.9839" lon="5.73453">
        <ele>1159.1999511719</ele>
        <time>2025-08-31T07:27:33.000Z</time>
      </trkpt>
      <trkpt lat="44.98388" lon="5.73442">
        <ele>1160.4000244141</ele>
        <time>2025-08-31T07:27:40.000Z</time>
      </trkpt>
      <trkpt lat="44.98385" lon="5.73431">
        <ele>1161.4000244141</ele>
        <time>2025-08-31T07:27:49.000Z</time>
      </trkpt>
      <trkpt lat="44.98385" lon="5.7343">
        <ele>1161.4000244141</ele>
        <time>2025-08-31T07:27:50.000Z</time>
      </trkpt>
      <trkpt lat="44.98382" lon="5.73417">
        <ele>1162.4000244141</ele>
        <time>2025-08-31T07:27:59.000Z</time>
      </trkpt>
      <trkpt lat="44.98381" lon="5.73413">
        <ele>1163</ele>
        <time>2025-08-31T07:28:02.000Z</time>
      </trkpt>
      <trkpt lat="44.9838" lon="5.73408">
        <ele>1163.4000244141</ele>
        <time>2025-08-31T07:28:06.000Z</time>
      </trkpt>
      <trkpt lat="44.98378" lon="5.73399">
        <ele>1164.5999755859</ele>
        <time>2025-08-31T07:28:13.000Z</time>
      </trkpt>
      <trkpt lat="44.98377" lon="5.73396">
        <ele>1164.8000488281</ele>
        <time>2025-08-31T07:28:15.000Z</time>
      </trkpt>
      <trkpt lat="44.98375" lon="5.73393">
        <ele>1165.1999511719</ele>
        <time>2025-08-31T07:28:18.000Z</time>
      </trkpt>
      <trkpt lat="44.98374" lon="5.7339">
        <ele>1165.5999755859</ele>
        <time>2025-08-31T07:28:20.000Z</time>
      </trkpt>
      <trkpt lat="44.98372" lon="5.73385">
        <ele>1166.1999511719</ele>
        <time>2025-08-31T07:28:24.000Z</time>
      </trkpt>
      <trkpt lat="44.9837" lon="5.73382">
        <ele>1166.5999755859</ele>
        <time>2025-08-31T07:28:27.000Z</time>
      </trkpt>
      <trkpt lat="44.98365" lon="5.73371">
        <ele>1167.8000488281</ele>
        <time>2025-08-31T07:28:36.000Z</time>
      </trkpt>
      <trkpt lat="44.98361" lon="5.73362">
        <ele>1168.8000488281</ele>
        <time>2025-08-31T07:28:43.000Z</time>
      </trkpt>
      <trkpt lat="44.98359" lon="5.73358">
        <ele>1169.1999511719</ele>
        <time>2025-08-31T07:28:46.000Z</time>
      </trkpt>
      <trkpt lat="44.98355" lon="5.73352">
        <ele>1170</ele>
        <time>2025-08-31T07:28:51.000Z</time>
      </trkpt>
      <trkpt lat="44.98352" lon="5.73346">
        <ele>1170.4000244141</ele>
        <time>2025-08-31T07:28:57.000Z</time>
      </trkpt>
      <trkpt lat="44.98348" lon="5.73341">
        <ele>1171</ele>
        <time>2025-08-31T07:29:03.000Z</time>
      </trkpt>
      <trkpt lat="44.98346" lon="5.73337">
        <ele>1171.4000244141</ele>
        <time>2025-08-31T07:29:06.000Z</time>
      </trkpt>
      <trkpt lat="44.98342" lon="5.73331">
        <ele>1172</ele>
        <time>2025-08-31T07:29:13.000Z</time>
      </trkpt>
      <trkpt lat="44.9834" lon="5.73326">
        <ele>1172.1999511719</ele>
        <time>2025-08-31T07:29:17.000Z</time>
      </trkpt>
      <trkpt lat="44.98339" lon="5.73325">
        <ele>1172.4000244141</ele>
        <time>2025-08-31T07:29:18.000Z</time>
      </trkpt>
      <trkpt lat="44.98335" lon="5.7332">
        <ele>1173</ele>
        <time>2025-08-31T07:29:23.000Z</time>
      </trkpt>
      <trkpt lat="44.98333" lon="5.73315">
        <ele>1173.4000244141</ele>
        <time>2025-08-31T07:29:27.000Z</time>
      </trkpt>
      <trkpt lat="44.98332" lon="5.73312">
        <ele>1173.5999755859</ele>
        <time>2025-08-31T07:29:30.000Z</time>
      </trkpt>
      <trkpt lat="44.98331" lon="5.73306">
        <ele>1174</ele>
        <time>2025-08-31T07:29:34.000Z</time>
      </trkpt>
      <trkpt lat="44.98328" lon="5.73301">
        <ele>1174.5999755859</ele>
        <time>2025-08-31T07:29:39.000Z</time>
      </trkpt>
      <trkpt lat="44.98325" lon="5.73297">
        <ele>1175.1999511719</ele>
        <time>2025-08-31T07:29:43.000Z</time>
      </trkpt>
      <trkpt lat="44.98321" lon="5.73291">
        <ele>1175.5999755859</ele>
        <time>2025-08-31T07:29:49.000Z</time>
      </trkpt>
      <trkpt lat="44.98318" lon="5.73285">
        <ele>1176.1999511719</ele>
        <time>2025-08-31T07:29:54.000Z</time>
      </trkpt>
      <trkpt lat="44.98314" lon="5.73281">
        <ele>1176.8000488281</ele>
        <time>2025-08-31T07:29:58.000Z</time>
      </trkpt>
      <trkpt lat="44.98312" lon="5.73278">
        <ele>1177.1999511719</ele>
        <time>2025-08-31T07:30:01.000Z</time>
      </trkpt>
      <trkpt lat="44.98306" lon="5.73271">
        <ele>1177.8000488281</ele>
        <time>2025-08-31T07:30:07.000Z</time>
      </trkpt>
      <trkpt lat="44.98304" lon="5.73267">
        <ele>1178.1999511719</ele>
        <time>2025-08-31T07:30:10.000Z</time>
      </trkpt>
      <trkpt lat="44.983" lon="5.73261">
        <ele>1178.8000488281</ele>
        <time>2025-08-31T07:30:15.000Z</time>
      </trkpt>
      <trkpt lat="44.98297" lon="5.73257">
        <ele>1179.4000244141</ele>
        <time>2025-08-31T07:30:19.000Z</time>
      </trkpt>
      <trkpt lat="44.98292" lon="5.73248">
        <ele>1179.8000488281</ele>
        <time>2025-08-31T07:30:25.000Z</time>
      </trkpt>
      <trkpt lat="44.98289" lon="5.73244">
        <ele>1180.4000244141</ele>
        <time>2025-08-31T07:30:29.000Z</time>
      </trkpt>
      <trkpt lat="44.98285" lon="5.73237">
        <ele>1180.8000488281</ele>
        <time>2025-08-31T07:30:34.000Z</time>
      </trkpt>
      <trkpt lat="44.98279" lon="5.73231">
        <ele>1181.4000244141</ele>
        <time>2025-08-31T07:30:40.000Z</time>
      </trkpt>
      <trkpt lat="44.98274" lon="5.73226">
        <ele>1182</ele>
        <time>2025-08-31T07:30:45.000Z</time>
      </trkpt>
      <trkpt lat="44.98272" lon="5.73223">
        <ele>1182.5999755859</ele>
        <time>2025-08-31T07:30:48.000Z</time>
      </trkpt>
      <trkpt lat="44.98269" lon="5.73221">
        <ele>1182.5999755859</ele>
        <time>2025-08-31T07:30:50.000Z</time>
      </trkpt>
      <trkpt lat="44.98265" lon="5.73217">
        <ele>1182.8000488281</ele>
        <time>2025-08-31T07:30:54.000Z</time>
      </trkpt>
      <trkpt lat="44.98257" lon="5.73208">
        <ele>1183.1999511719</ele>
        <time>2025-08-31T07:31:02.000Z</time>
      </trkpt>
      <trkpt lat="44.98255" lon="5.73206">
        <ele>1183.4000244141</ele>
        <time>2025-08-31T07:31:04.000Z</time>
      </trkpt>
      <trkpt lat="44.98254" lon="5.73205">
        <ele>1183.5999755859</ele>
        <time>2025-08-31T07:31:05.000Z</time>
      </trkpt>
      <trkpt lat="44.98251" lon="5.732">
        <ele>1183.8000488281</ele>
        <time>2025-08-31T07:31:08.000Z</time>
      </trkpt>
      <trkpt lat="44.98246" lon="5.73193">
        <ele>1184.1999511719</ele>
        <time>2025-08-31T07:31:14.000Z</time>
      </trkpt>
      <trkpt lat="44.98245" lon="5.7319">
        <ele>1184.1999511719</ele>
        <time>2025-08-31T07:31:16.000Z</time>
      </trkpt>
      <trkpt lat="44.98242" lon="5.73187">
        <ele>1184.4000244141</ele>
        <time>2025-08-31T07:31:20.000Z</time>
      </trkpt>
      <trkpt lat="44.98241" lon="5.73185">
        <ele>1184.4000244141</ele>
        <time>2025-08-31T07:31:22.000Z</time>
      </trkpt>
      <trkpt lat="44.98234" lon="5.73176">
        <ele>1184.1999511719</ele>
        <time>2025-08-31T07:31:31.000Z</time>
      </trkpt>
      <trkpt lat="44.98231" lon="5.73171">
        <ele>1183.8000488281</ele>
        <time>2025-08-31T07:31:35.000Z</time>
      </trkpt>
      <trkpt lat="44.9823" lon="5.73169">
        <ele>1183.8000488281</ele>
        <time>2025-08-31T07:31:38.000Z</time>
      </trkpt>
      <trkpt lat="44.98229" lon="5.73168">
        <ele>1183.5999755859</ele>
        <time>2025-08-31T07:31:40.000Z</time>
      </trkpt>
      <trkpt lat="44.98228" lon="5.73167">
        <ele>1183.5999755859</ele>
        <time>2025-08-31T07:31:41.000Z</time>
      </trkpt>
      <trkpt lat="44.98227" lon="5.73165">
        <ele>1183.8000488281</ele>
        <time>2025-08-31T07:31:48.000Z</time>
      </trkpt>
      <trkpt lat="44.98226" lon="5.73165">
        <ele>1183.8000488281</ele>
        <time>2025-08-31T07:31:53.000Z</time>
      </trkpt>
      <trkpt lat="44.98226" lon="5.73164">
        <ele>1183.8000488281</ele>
        <time>2025-08-31T07:31:55.000Z</time>
      </trkpt>
      <trkpt lat="44.98226" lon="5.73163">
        <ele>1183.5999755859</ele>
        <time>2025-08-31T07:32:11.000Z</time>
      </trkpt>
      <trkpt lat="44.98225" lon="5.73162">
        <ele>1183.4000244141</ele>
        <time>2025-08-31T07:32:21.000Z</time>
      </trkpt>
      <trkpt lat="44.98225" lon="5.73162">
        <ele>1183.4000244141</ele>
        <time>2025-08-31T07:32:22.000Z</time>
      </trkpt>
      <trkpt lat="44.98225" lon="5.73162">
        <ele>1183.8000488281</ele>
        <time>2025-08-31T07:32:27.000Z</time>
      </trkpt>
      <trkpt lat="44.98223" lon="5.73158">
        <ele>1184.8000488281</ele>
        <time>2025-08-31T07:32:40.000Z</time>
      </trkpt>
      <trkpt lat="44.98219" lon="5.73147">
        <ele>1185.4000244141</ele>
        <time>2025-08-31T07:32:47.000Z</time>
      </trkpt>
      <trkpt lat="44.98216" lon="5.73138">
        <ele>1185.8000488281</ele>
        <time>2025-08-31T07:32:51.000Z</time>
      </trkpt>
      <trkpt lat="44.98214" lon="5.73133">
        <ele>1186</ele>
        <time>2025-08-31T07:32:55.000Z</time>
      </trkpt>
      <trkpt lat="44.98213" lon="5.7313">
        <ele>1186.4000244141</ele>
        <time>2025-08-31T07:32:59.000Z</time>
      </trkpt>
      <trkpt lat="44.98212" lon="5.73129">
        <ele>1186.8000488281</ele>
        <time>2025-08-31T07:33:00.000Z</time>
      </trkpt>
      <trkpt lat="44.98212" lon="5.73128">
        <ele>1186.8000488281</ele>
        <time>2025-08-31T07:33:01.000Z</time>
      </trkpt>
      <trkpt lat="44.98211" lon="5.73124">
        <ele>1187.1999511719</ele>
        <time>2025-08-31T07:33:05.000Z</time>
      </trkpt>
      <trkpt lat="44.98209" lon="5.73121">
        <ele>1188</ele>
        <time>2025-08-31T07:33:10.000Z</time>
      </trkpt>
      <trkpt lat="44.98208" lon="5.7312">
        <ele>1188.1999511719</ele>
        <time>2025-08-31T07:33:16.000Z</time>
      </trkpt>
      <trkpt lat="44.98204" lon="5.7312">
        <ele>1187.4000244141</ele>
        <time>2025-08-31T07:33:21.000Z</time>
      </trkpt>
      <trkpt lat="44.98203" lon="5.73118">
        <ele>1187</ele>
        <time>2025-08-31T07:33:23.000Z</time>
      </trkpt>
      <trkpt lat="44.98202" lon="5.73117">
        <ele>1186.8000488281</ele>
        <time>2025-08-31T07:33:24.000Z</time>
      </trkpt>
      <trkpt lat="44.98198" lon="5.73106">
        <ele>1187.4000244141</ele>
        <time>2025-08-31T07:33:33.000Z</time>
      </trkpt>
      <trkpt lat="44.98197" lon="5.73105">
        <ele>1187.5999755859</ele>
        <time>2025-08-31T07:33:34.000Z</time>
      </trkpt>
      <trkpt lat="44.98195" lon="5.73104">
        <ele>1187.8000488281</ele>
        <time>2025-08-31T07:33:36.000Z</time>
      </trkpt>
      <trkpt lat="44.98192" lon="5.73099">
        <ele>1188.4000244141</ele>
        <time>2025-08-31T07:33:41.000Z</time>
      </trkpt>
      <trkpt lat="44.98191" lon="5.73097">
        <ele>1188.5999755859</ele>
        <time>2025-08-31T07:33:42.000Z</time>
      </trkpt>
      <trkpt lat="44.98189" lon="5.73094">
        <ele>1189</ele>
        <time>2025-08-31T07:33:45.000Z</time>
      </trkpt>
      <trkpt lat="44.98186" lon="5.73088">
        <ele>1189.5999755859</ele>
        <time>2025-08-31T07:33:51.000Z</time>
      </trkpt>
      <trkpt lat="44.98186" lon="5.73085">
        <ele>1190</ele>
        <time>2025-08-31T07:33:53.000Z</time>
      </trkpt>
      <trkpt lat="44.98181" lon="5.73079">
        <ele>1191</ele>
        <time>2025-08-31T07:34:00.000Z</time>
      </trkpt>
      <trkpt lat="44.9818" lon="5.73078">
        <ele>1191</ele>
        <time>2025-08-31T07:34:01.000Z</time>
      </trkpt>
      <trkpt lat="44.9818" lon="5.73077">
        <ele>1191</ele>
        <time>2025-08-31T07:34:02.000Z</time>
      </trkpt>
      <trkpt lat="44.98175" lon="5.73069">
        <ele>1191.4000244141</ele>
        <time>2025-08-31T07:34:10.000Z</time>
      </trkpt>
      <trkpt lat="44.98174" lon="5.73069">
        <ele>1191.5999755859</ele>
        <time>2025-08-31T07:34:12.000Z</time>
      </trkpt>
      <trkpt lat="44.98173" lon="5.73065">
        <ele>1191.8000488281</ele>
        <time>2025-08-31T07:34:17.000Z</time>
      </trkpt>
      <trkpt lat="44.98172" lon="5.73064">
        <ele>1191.8000488281</ele>
        <time>2025-08-31T07:34:18.000Z</time>
      </trkpt>
      <trkpt lat="44.9817" lon="5.73061">
        <ele>1192</ele>
        <time>2025-08-31T07:34:21.000Z</time>
      </trkpt>
      <trkpt lat="44.98166" lon="5.73055">
        <ele>1192.5999755859</ele>
        <time>2025-08-31T07:34:26.000Z</time>
      </trkpt>
      <trkpt lat="44.98165" lon="5.73054">
        <ele>1192.5999755859</ele>
        <time>2025-08-31T07:34:27.000Z</time>
      </trkpt>
      <trkpt lat="44.98163" lon="5.73051">
        <ele>1193</ele>
        <time>2025-08-31T07:34:30.000Z</time>
      </trkpt>
      <trkpt lat="44.9816" lon="5.73046">
        <ele>1193.1999511719</ele>
        <time>2025-08-31T07:34:34.000Z</time>
      </trkpt>
      <trkpt lat="44.98156" lon="5.73037">
        <ele>1194.1999511719</ele>
        <time>2025-08-31T07:34:43.000Z</time>
      </trkpt>
      <trkpt lat="44.98155" lon="5.73036">
        <ele>1194.4000244141</ele>
        <time>2025-08-31T07:34:44.000Z</time>
      </trkpt>
      <trkpt lat="44.98147" lon="5.73022">
        <ele>1195.1999511719</ele>
        <time>2025-08-31T07:34:56.000Z</time>
      </trkpt>
      <trkpt lat="44.98145" lon="5.7302">
        <ele>1195.4000244141</ele>
        <time>2025-08-31T07:34:58.000Z</time>
      </trkpt>
      <trkpt lat="44.98141" lon="5.73009">
        <ele>1196.4000244141</ele>
        <time>2025-08-31T07:35:07.000Z</time>
      </trkpt>
      <trkpt lat="44.9814" lon="5.73007">
        <ele>1196.8000488281</ele>
        <time>2025-08-31T07:35:09.000Z</time>
      </trkpt>
      <trkpt lat="44.98138" lon="5.73003">
        <ele>1197.4000244141</ele>
        <time>2025-08-31T07:35:13.000Z</time>
      </trkpt>
      <trkpt lat="44.98136" lon="5.72993">
        <ele>1198.4000244141</ele>
        <time>2025-08-31T07:35:21.000Z</time>
      </trkpt>
      <trkpt lat="44.98136" lon="5.72991">
        <ele>1198.5999755859</ele>
        <time>2025-08-31T07:35:22.000Z</time>
      </trkpt>
      <trkpt lat="44.98135" lon="5.72989">
        <ele>1199</ele>
        <time>2025-08-31T07:35:24.000Z</time>
      </trkpt>
      <trkpt lat="44.98135" lon="5.72986">
        <ele>1199.4000244141</ele>
        <time>2025-08-31T07:35:28.000Z</time>
      </trkpt>
      <trkpt lat="44.98135" lon="5.72982">
        <ele>1199.8000488281</ele>
        <time>2025-08-31T07:35:32.000Z</time>
      </trkpt>
      <trkpt lat="44.98134" lon="5.72976">
        <ele>1200.5999755859</ele>
        <time>2025-08-31T07:35:37.000Z</time>
      </trkpt>
      <trkpt lat="44.98133" lon="5.7297">
        <ele>1201.5999755859</ele>
        <time>2025-08-31T07:35:43.000Z</time>
      </trkpt>
      <trkpt lat="44.98133" lon="5.72967">
        <ele>1202.1999511719</ele>
        <time>2025-08-31T07:35:46.000Z</time>
      </trkpt>
      <trkpt lat="44.98133" lon="5.72963">
        <ele>1202.5999755859</ele>
        <time>2025-08-31T07:35:50.000Z</time>
      </trkpt>
      <trkpt lat="44.98132" lon="5.72959">
        <ele>1203</ele>
        <time>2025-08-31T07:35:53.000Z</time>
      </trkpt>
      <trkpt lat="44.98132" lon="5.72957">
        <ele>1203.1999511719</ele>
        <time>2025-08-31T07:35:55.000Z</time>
      </trkpt>
      <trkpt lat="44.98133" lon="5.72955">
        <ele>1203.5999755859</ele>
        <time>2025-08-31T07:35:57.000Z</time>
      </trkpt>
      <trkpt lat="44.98133" lon="5.72954">
        <ele>1203.8000488281</ele>
        <time>2025-08-31T07:35:58.000Z</time>
      </trkpt>
      <trkpt lat="44.98132" lon="5.72948">
        <ele>1204.8000488281</ele>
        <time>2025-08-31T07:36:04.000Z</time>
      </trkpt>
      <trkpt lat="44.98132" lon="5.72947">
        <ele>1205</ele>
        <time>2025-08-31T07:36:05.000Z</time>
      </trkpt>
      <trkpt lat="44.98132" lon="5.72939">
        <ele>1205.8000488281</ele>
        <time>2025-08-31T07:36:13.000Z</time>
      </trkpt>
      <trkpt lat="44.98131" lon="5.72937">
        <ele>1206.1999511719</ele>
        <time>2025-08-31T07:36:15.000Z</time>
      </trkpt>
      <trkpt lat="44.98132" lon="5.72931">
        <ele>1207</ele>
        <time>2025-08-31T07:36:22.000Z</time>
      </trkpt>
      <trkpt lat="44.98132" lon="5.72926">
        <ele>1207.4000244141</ele>
        <time>2025-08-31T07:36:27.000Z</time>
      </trkpt>
      <trkpt lat="44.98132" lon="5.72924">
        <ele>1208</ele>
        <time>2025-08-31T07:36:30.000Z</time>
      </trkpt>
      <trkpt lat="44.98132" lon="5.7292">
        <ele>1209</ele>
        <time>2025-08-31T07:36:36.000Z</time>
      </trkpt>
      <trkpt lat="44.98132" lon="5.72919">
        <ele>1209.1999511719</ele>
        <time>2025-08-31T07:36:37.000Z</time>
      </trkpt>
      <trkpt lat="44.98132" lon="5.72916">
        <ele>1210</ele>
        <time>2025-08-31T07:36:41.000Z</time>
      </trkpt>
      <trkpt lat="44.98132" lon="5.72909">
        <ele>1211.1999511719</ele>
        <time>2025-08-31T07:36:48.000Z</time>
      </trkpt>
      <trkpt lat="44.98132" lon="5.72908">
        <ele>1211.5999755859</ele>
        <time>2025-08-31T07:36:50.000Z</time>
      </trkpt>
      <trkpt lat="44.98132" lon="5.72904">
        <ele>1212.1999511719</ele>
        <time>2025-08-31T07:36:54.000Z</time>
      </trkpt>
      <trkpt lat="44.98132" lon="5.72899">
        <ele>1213.4000244141</ele>
        <time>2025-08-31T07:36:59.000Z</time>
      </trkpt>
      <trkpt lat="44.98133" lon="5.72893">
        <ele>1214.5999755859</ele>
        <time>2025-08-31T07:37:04.000Z</time>
      </trkpt>
      <trkpt lat="44.98133" lon="5.72892">
        <ele>1215</ele>
        <time>2025-08-31T07:37:05.000Z</time>
      </trkpt>
      <trkpt lat="44.98133" lon="5.72888">
        <ele>1215.8000488281</ele>
        <time>2025-08-31T07:37:10.000Z</time>
      </trkpt>
      <trkpt lat="44.98133" lon="5.72884">
        <ele>1216.4000244141</ele>
        <time>2025-08-31T07:37:13.000Z</time>
      </trkpt>
      <trkpt lat="44.98134" lon="5.72882">
        <ele>1216.8000488281</ele>
        <time>2025-08-31T07:37:15.000Z</time>
      </trkpt>
      <trkpt lat="44.98134" lon="5.72881">
        <ele>1217</ele>
        <time>2025-08-31T07:37:16.000Z</time>
      </trkpt>
      <trkpt lat="44.98134" lon="5.72877">
        <ele>1217.8000488281</ele>
        <time>2025-08-31T07:37:20.000Z</time>
      </trkpt>
      <trkpt lat="44.98135" lon="5.72875">
        <ele>1218.5999755859</ele>
        <time>2025-08-31T07:37:23.000Z</time>
      </trkpt>
      <trkpt lat="44.98135" lon="5.72874">
        <ele>1219</ele>
        <time>2025-08-31T07:37:25.000Z</time>
      </trkpt>
      <trkpt lat="44.98136" lon="5.72867">
        <ele>1220.1999511719</ele>
        <time>2025-08-31T07:37:31.000Z</time>
      </trkpt>
      <trkpt lat="44.98136" lon="5.72865">
        <ele>1220.8000488281</ele>
        <time>2025-08-31T07:37:34.000Z</time>
      </trkpt>
      <trkpt lat="44.98136" lon="5.72864">
        <ele>1221.1999511719</ele>
        <time>2025-08-31T07:37:36.000Z</time>
      </trkpt>
      <trkpt lat="44.98136" lon="5.72861">
        <ele>1222</ele>
        <time>2025-08-31T07:37:40.000Z</time>
      </trkpt>
      <trkpt lat="44.98137" lon="5.72861">
        <ele>1222.4000244141</ele>
        <time>2025-08-31T07:37:42.000Z</time>
      </trkpt>
      <trkpt lat="44.98137" lon="5.72857">
        <ele>1223.5999755859</ele>
        <time>2025-08-31T07:37:48.000Z</time>
      </trkpt>
      <trkpt lat="44.98137" lon="5.72856">
        <ele>1223.5999755859</ele>
        <time>2025-08-31T07:37:49.000Z</time>
      </trkpt>
      <trkpt lat="44.98137" lon="5.72852">
        <ele>1224.5999755859</ele>
        <time>2025-08-31T07:37:55.000Z</time>
      </trkpt>
      <trkpt lat="44.98138" lon="5.7285">
        <ele>1224.8000488281</ele>
        <time>2025-08-31T07:37:58.000Z</time>
      </trkpt>
      <trkpt lat="44.98138" lon="5.72845">
        <ele>1225.5999755859</ele>
        <time>2025-08-31T07:38:03.000Z</time>
      </trkpt>
      <trkpt lat="44.98138" lon="5.72843">
        <ele>1226</ele>
        <time>2025-08-31T07:38:06.000Z</time>
      </trkpt>
      <trkpt lat="44.98138" lon="5.72841">
        <ele>1226.5999755859</ele>
        <time>2025-08-31T07:38:09.000Z</time>
      </trkpt>
      <trkpt lat="44.98138" lon="5.7284">
        <ele>1226.8000488281</ele>
        <time>2025-08-31T07:38:10.000Z</time>
      </trkpt>
      <trkpt lat="44.98139" lon="5.72838">
        <ele>1227.5999755859</ele>
        <time>2025-08-31T07:38:14.000Z</time>
      </trkpt>
      <trkpt lat="44.98139" lon="5.72838">
        <ele>1227.5999755859</ele>
        <time>2025-08-31T07:38:15.000Z</time>
      </trkpt>
      <trkpt lat="44.98139" lon="5.72837">
        <ele>1228</ele>
        <time>2025-08-31T07:38:17.000Z</time>
      </trkpt>
      <trkpt lat="44.98139" lon="5.72833">
        <ele>1228.8000488281</ele>
        <time>2025-08-31T07:38:21.000Z</time>
      </trkpt>
      <trkpt lat="44.9814" lon="5.72831">
        <ele>1229.5999755859</ele>
        <time>2025-08-31T07:38:26.000Z</time>
      </trkpt>
      <trkpt lat="44.9814" lon="5.7283">
        <ele>1229.8000488281</ele>
        <time>2025-08-31T07:38:27.000Z</time>
      </trkpt>
      <trkpt lat="44.98141" lon="5.72827">
        <ele>1230.8000488281</ele>
        <time>2025-08-31T07:38:32.000Z</time>
      </trkpt>
      <trkpt lat="44.98142" lon="5.72825">
        <ele>1231.5999755859</ele>
        <time>2025-08-31T07:38:35.000Z</time>
      </trkpt>
      <trkpt lat="44.98142" lon="5.72825">
        <ele>1231.8000488281</ele>
        <time>2025-08-31T07:38:36.000Z</time>
      </trkpt>
      <trkpt lat="44.98142" lon="5.72824">
        <ele>1232.5999755859</ele>
        <time>2025-08-31T07:38:40.000Z</time>
      </trkpt>
      <trkpt lat="44.98143" lon="5.72823">
        <ele>1233</ele>
        <time>2025-08-31T07:38:42.000Z</time>
      </trkpt>
      <trkpt lat="44.98145" lon="5.72823">
        <ele>1233.5999755859</ele>
        <time>2025-08-31T07:38:45.000Z</time>
      </trkpt>
      <trkpt lat="44.98146" lon="5.72822">
        <ele>1234.1999511719</ele>
        <time>2025-08-31T07:38:48.000Z</time>
      </trkpt>
      <trkpt lat="44.98146" lon="5.72822">
        <ele>1234.1999511719</ele>
        <time>2025-08-31T07:38:49.000Z</time>
      </trkpt>
      <trkpt lat="44.98148" lon="5.72821">
        <ele>1235.1999511719</ele>
        <time>2025-08-31T07:38:54.000Z</time>
      </trkpt>
      <trkpt lat="44.98149" lon="5.72821">
        <ele>1235.8000488281</ele>
        <time>2025-08-31T07:38:57.000Z</time>
      </trkpt>
      <trkpt lat="44.98149" lon="5.72821">
        <ele>1236.1999511719</ele>
        <time>2025-08-31T07:39:01.000Z</time>
      </trkpt>
      <trkpt lat="44.98149" lon="5.72821">
        <ele>1236.8000488281</ele>
        <time>2025-08-31T07:39:08.000Z</time>
      </trkpt>
      <trkpt lat="44.98149" lon="5.72821">
        <ele>1237</ele>
        <time>2025-08-31T07:39:11.000Z</time>
      </trkpt>
      <trkpt lat="44.98149" lon="5.72821">
        <ele>1237.4000244141</ele>
        <time>2025-08-31T07:39:14.000Z</time>
      </trkpt>
      <trkpt lat="44.98149" lon="5.72821">
        <ele>1237.8000488281</ele>
        <time>2025-08-31T07:39:18.000Z</time>
      </trkpt>
      <trkpt lat="44.9815" lon="5.7282">
        <ele>1238.5999755859</ele>
        <time>2025-08-31T07:39:27.000Z</time>
      </trkpt>
      <trkpt lat="44.98151" lon="5.7282">
        <ele>1239.5999755859</ele>
        <time>2025-08-31T07:39:33.000Z</time>
      </trkpt>
      <trkpt lat="44.98151" lon="5.7282">
        <ele>1239.8000488281</ele>
        <time>2025-08-31T07:39:34.000Z</time>
      </trkpt>
      <trkpt lat="44.98152" lon="5.72819">
        <ele>1240.1999511719</ele>
        <time>2025-08-31T07:39:37.000Z</time>
      </trkpt>
      <trkpt lat="44.98153" lon="5.72818">
        <ele>1240.5999755859</ele>
        <time>2025-08-31T07:39:40.000Z</time>
      </trkpt>
      <trkpt lat="44.98155" lon="5.72816">
        <ele>1241.8000488281</ele>
        <time>2025-08-31T07:39:45.000Z</time>
      </trkpt>
      <trkpt lat="44.98158" lon="5.72814">
        <ele>1243</ele>
        <time>2025-08-31T07:39:52.000Z</time>
      </trkpt>
      <trkpt lat="44.98161" lon="5.72813">
        <ele>1244</ele>
        <time>2025-08-31T07:39:59.000Z</time>
      </trkpt>
      <trkpt lat="44.98162" lon="5.72813">
        <ele>1244.5999755859</ele>
        <time>2025-08-31T07:40:02.000Z</time>
      </trkpt>
      <trkpt lat="44.98163" lon="5.72813">
        <ele>1245.1999511719</ele>
        <time>2025-08-31T07:40:05.000Z</time>
      </trkpt>
      <trkpt lat="44.98165" lon="5.72813">
        <ele>1246.4000244141</ele>
        <time>2025-08-31T07:40:10.000Z</time>
      </trkpt>
      <trkpt lat="44.98168" lon="5.72812">
        <ele>1247.5999755859</ele>
        <time>2025-08-31T07:40:16.000Z</time>
      </trkpt>
      <trkpt lat="44.98171" lon="5.72812">
        <ele>1248.8000488281</ele>
        <time>2025-08-31T07:40:22.000Z</time>
      </trkpt>
      <trkpt lat="44.98173" lon="5.72812">
        <ele>1249.8000488281</ele>
        <time>2025-08-31T07:40:27.000Z</time>
      </trkpt>
      <trkpt lat="44.98179" lon="5.72808">
        <ele>1250.8000488281</ele>
        <time>2025-08-31T07:40:34.000Z</time>
      </trkpt>
      <trkpt lat="44.98182" lon="5.72807">
        <ele>1251.4000244141</ele>
        <time>2025-08-31T07:40:36.000Z</time>
      </trkpt>
      <trkpt lat="44.98187" lon="5.72806">
        <ele>1252</ele>
        <time>2025-08-31T07:40:39.000Z</time>
      </trkpt>
      <trkpt lat="44.98189" lon="5.72804">
        <ele>1252.5999755859</ele>
        <time>2025-08-31T07:40:43.000Z</time>
      </trkpt>
      <trkpt lat="44.9819" lon="5.72804">
        <ele>1252.5999755859</ele>
        <time>2025-08-31T07:40:44.000Z</time>
      </trkpt>
      <trkpt lat="44.98191" lon="5.72803">
        <ele>1253</ele>
        <time>2025-08-31T07:40:47.000Z</time>
      </trkpt>
      <trkpt lat="44.98193" lon="5.72804">
        <ele>1253.8000488281</ele>
        <time>2025-08-31T07:40:52.000Z</time>
      </trkpt>
      <trkpt lat="44.98193" lon="5.72803">
        <ele>1253.8000488281</ele>
        <time>2025-08-31T07:40:57.000Z</time>
      </trkpt>
      <trkpt lat="44.98193" lon="5.72803">
        <ele>1253.8000488281</ele>
        <time>2025-08-31T07:40:58.000Z</time>
      </trkpt>
      <trkpt lat="44.98194" lon="5.72802">
        <ele>1254</ele>
        <time>2025-08-31T07:41:02.000Z</time>
      </trkpt>
      <trkpt lat="44.98195" lon="5.72801">
        <ele>1254.4000244141</ele>
        <time>2025-08-31T07:41:04.000Z</time>
      </trkpt>
      <trkpt lat="44.98197" lon="5.72803">
        <ele>1255.1999511719</ele>
        <time>2025-08-31T07:41:08.000Z</time>
      </trkpt>
      <trkpt lat="44.98197" lon="5.72803">
        <ele>1255.1999511719</ele>
        <time>2025-08-31T07:41:09.000Z</time>
      </trkpt>
      <trkpt lat="44.98198" lon="5.72803">
        <ele>1255.5999755859</ele>
        <time>2025-08-31T07:41:11.000Z</time>
      </trkpt>
      <trkpt lat="44.98199" lon="5.72804">
        <ele>1256.1999511719</ele>
        <time>2025-08-31T07:41:13.000Z</time>
      </trkpt>
      <trkpt lat="44.98201" lon="5.72804">
        <ele>1257.4000244141</ele>
        <time>2025-08-31T07:41:18.000Z</time>
      </trkpt>
      <trkpt lat="44.98202" lon="5.72805">
        <ele>1258.1999511719</ele>
        <time>2025-08-31T07:41:22.000Z</time>
      </trkpt>
      <trkpt lat="44.98203" lon="5.72805">
        <ele>1258.4000244141</ele>
        <time>2025-08-31T07:41:24.000Z</time>
      </trkpt>
      <trkpt lat="44.98205" lon="5.72806">
        <ele>1259.1999511719</ele>
        <time>2025-08-31T07:41:30.000Z</time>
      </trkpt>
      <trkpt lat="44.98205" lon="5.72806">
        <ele>1259.5999755859</ele>
        <time>2025-08-31T07:41:32.000Z</time>
      </trkpt>
      <trkpt lat="44.98207" lon="5.72807">
        <ele>1260.5999755859</ele>
        <time>2025-08-31T07:41:40.000Z</time>
      </trkpt>
      <trkpt lat="44.98207" lon="5.72807">
        <ele>1260.8000488281</ele>
        <time>2025-08-31T07:41:41.000Z</time>
      </trkpt>
      <trkpt lat="44.98209" lon="5.72808">
        <ele>1261.8000488281</ele>
        <time>2025-08-31T07:41:47.000Z</time>
      </trkpt>
      <trkpt lat="44.98213" lon="5.7281">
        <ele>1262.8000488281</ele>
        <time>2025-08-31T07:41:56.000Z</time>
      </trkpt>
      <trkpt lat="44.98213" lon="5.7281">
        <ele>1263</ele>
        <time>2025-08-31T07:41:57.000Z</time>
      </trkpt>
      <trkpt lat="44.98215" lon="5.72812">
        <ele>1263.8000488281</ele>
        <time>2025-08-31T07:42:04.000Z</time>
      </trkpt>
      <trkpt lat="44.98215" lon="5.72812">
        <ele>1264</ele>
        <time>2025-08-31T07:42:05.000Z</time>
      </trkpt>
      <trkpt lat="44.98215" lon="5.72814">
        <ele>1264.8000488281</ele>
        <time>2025-08-31T07:42:12.000Z</time>
      </trkpt>
      <trkpt lat="44.98215" lon="5.72814">
        <ele>1264.8000488281</ele>
        <time>2025-08-31T07:42:18.000Z</time>
      </trkpt>
      <trkpt lat="44.98215" lon="5.72814">
        <ele>1264.8000488281</ele>
        <time>2025-08-31T07:42:23.000Z</time>
      </trkpt>
      <trkpt lat="44.98215" lon="5.72814">
        <ele>1265</ele>
        <time>2025-08-31T07:42:27.000Z</time>
      </trkpt>
      <trkpt lat="44.98215" lon="5.72814">
        <ele>1265.8000488281</ele>
        <time>2025-08-31T07:42:32.000Z</time>
      </trkpt>
      <trkpt lat="44.98215" lon="5.72814">
        <ele>1266</ele>
        <time>2025-08-31T07:42:33.000Z</time>
      </trkpt>
      <trkpt lat="44.98216" lon="5.72814">
        <ele>1266.8000488281</ele>
        <time>2025-08-31T07:42:37.000Z</time>
      </trkpt>
      <trkpt lat="44.98216" lon="5.72814">
        <ele>1267.1999511719</ele>
        <time>2025-08-31T07:42:39.000Z</time>
      </trkpt>
      <trkpt lat="44.98221" lon="5.72816">
        <ele>1268.4000244141</ele>
        <time>2025-08-31T07:42:45.000Z</time>
      </trkpt>
      <trkpt lat="44.98225" lon="5.72817">
        <ele>1269</ele>
        <time>2025-08-31T07:42:49.000Z</time>
      </trkpt>
      <trkpt lat="44.98226" lon="5.72817">
        <ele>1269.1999511719</ele>
        <time>2025-08-31T07:42:51.000Z</time>
      </trkpt>
      <trkpt lat="44.98227" lon="5.72817">
        <ele>1269.4000244141</ele>
        <time>2025-08-31T07:42:52.000Z</time>
      </trkpt>
      <trkpt lat="44.9823" lon="5.72819">
        <ele>1270.4000244141</ele>
        <time>2025-08-31T07:42:58.000Z</time>
      </trkpt>
      <trkpt lat="44.9823" lon="5.72819">
        <ele>1270.5999755859</ele>
        <time>2025-08-31T07:42:59.000Z</time>
      </trkpt>
      <trkpt lat="44.98233" lon="5.72822">
        <ele>1271.5999755859</ele>
        <time>2025-08-31T07:43:05.000Z</time>
      </trkpt>
      <trkpt lat="44.98235" lon="5.72825">
        <ele>1272.4000244141</ele>
        <time>2025-08-31T07:43:11.000Z</time>
      </trkpt>
      <trkpt lat="44.98235" lon="5.72826">
        <ele>1272.5999755859</ele>
        <time>2025-08-31T07:43:13.000Z</time>
      </trkpt>
      <trkpt lat="44.98239" lon="5.72831">
        <ele>1273.8000488281</ele>
        <time>2025-08-31T07:43:20.000Z</time>
      </trkpt>
      <trkpt lat="44.98241" lon="5.72832">
        <ele>1274.1999511719</ele>
        <time>2025-08-31T07:43:23.000Z</time>
      </trkpt>
      <trkpt lat="44.98242" lon="5.72834">
        <ele>1274.8000488281</ele>
        <time>2025-08-31T07:43:27.000Z</time>
      </trkpt>
      <trkpt lat="44.98244" lon="5.72834">
        <ele>1275.5999755859</ele>
        <time>2025-08-31T07:43:32.000Z</time>
      </trkpt>
      <trkpt lat="44.98245" lon="5.72834">
        <ele>1276</ele>
        <time>2025-08-31T07:43:34.000Z</time>
      </trkpt>
      <trkpt lat="44.98248" lon="5.72833">
        <ele>1277.1999511719</ele>
        <time>2025-08-31T07:43:40.000Z</time>
      </trkpt>
      <trkpt lat="44.9825" lon="5.72833">
        <ele>1278.1999511719</ele>
        <time>2025-08-31T07:43:45.000Z</time>
      </trkpt>
      <trkpt lat="44.98252" lon="5.72833">
        <ele>1279.1999511719</ele>
        <time>2025-08-31T07:43:51.000Z</time>
      </trkpt>
      <trkpt lat="44.98254" lon="5.72832">
        <ele>1280.4000244141</ele>
        <time>2025-08-31T07:43:56.000Z</time>
      </trkpt>
      <trkpt lat="44.98255" lon="5.72832">
        <ele>1280.5999755859</ele>
        <time>2025-08-31T07:43:58.000Z</time>
      </trkpt>
      <trkpt lat="44.98256" lon="5.72832">
        <ele>1281</ele>
        <time>2025-08-31T07:44:01.000Z</time>
      </trkpt>
      <trkpt lat="44.98257" lon="5.72832">
        <ele>1281.4000244141</ele>
        <time>2025-08-31T07:44:04.000Z</time>
      </trkpt>
      <trkpt lat="44.98259" lon="5.72831">
        <ele>1282.4000244141</ele>
        <time>2025-08-31T07:44:11.000Z</time>
      </trkpt>
      <trkpt lat="44.9826" lon="5.72831">
        <ele>1282.5999755859</ele>
        <time>2025-08-31T07:44:12.000Z</time>
      </trkpt>
      <trkpt lat="44.98262" lon="5.72831">
        <ele>1283.5999755859</ele>
        <time>2025-08-31T07:44:19.000Z</time>
      </trkpt>
      <trkpt lat="44.98263" lon="5.72829">
        <ele>1284.1999511719</ele>
        <time>2025-08-31T07:44:23.000Z</time>
      </trkpt>
      <trkpt lat="44.98264" lon="5.72828">
        <ele>1284.5999755859</ele>
        <time>2025-08-31T07:44:25.000Z</time>
      </trkpt>
      <trkpt lat="44.98266" lon="5.72827">
        <ele>1285.5999755859</ele>
        <time>2025-08-31T07:44:31.000Z</time>
      </trkpt>
      <trkpt lat="44.98268" lon="5.72826">
        <ele>1286</ele>
        <time>2025-08-31T07:44:34.000Z</time>
      </trkpt>
      <trkpt lat="44.98269" lon="5.72826">
        <ele>1286.8000488281</ele>
        <time>2025-08-31T07:44:38.000Z</time>
      </trkpt>
      <trkpt lat="44.98273" lon="5.72826">
        <ele>1288</ele>
        <time>2025-08-31T07:44:45.000Z</time>
      </trkpt>
      <trkpt lat="44.98275" lon="5.72823">
        <ele>1289</ele>
        <time>2025-08-31T07:44:51.000Z</time>
      </trkpt>
      <trkpt lat="44.98276" lon="5.72823">
        <ele>1289.4000244141</ele>
        <time>2025-08-31T07:44:53.000Z</time>
      </trkpt>
      <trkpt lat="44.98277" lon="5.72823">
        <ele>1290</ele>
        <time>2025-08-31T07:44:57.000Z</time>
      </trkpt>
      <trkpt lat="44.9828" lon="5.72824">
        <ele>1291.1999511719</ele>
        <time>2025-08-31T07:45:04.000Z</time>
      </trkpt>
      <trkpt lat="44.98282" lon="5.72825">
        <ele>1292.1999511719</ele>
        <time>2025-08-31T07:45:10.000Z</time>
      </trkpt>
      <trkpt lat="44.98284" lon="5.72826">
        <ele>1293</ele>
        <time>2025-08-31T07:45:15.000Z</time>
      </trkpt>
      <trkpt lat="44.98285" lon="5.72827">
        <ele>1293.4000244141</ele>
        <time>2025-08-31T07:45:17.000Z</time>
      </trkpt>
      <trkpt lat="44.98287" lon="5.7283">
        <ele>1294.5999755859</ele>
        <time>2025-08-31T07:45:23.000Z</time>
      </trkpt>
      <trkpt lat="44.98288" lon="5.72831">
        <ele>1295.1999511719</ele>
        <time>2025-08-31T07:45:26.000Z</time>
      </trkpt>
      <trkpt lat="44.98289" lon="5.72833">
        <ele>1295.5999755859</ele>
        <time>2025-08-31T07:45:29.000Z</time>
      </trkpt>
      <trkpt lat="44.98289" lon="5.72834">
        <ele>1296.1999511719</ele>
        <time>2025-08-31T07:45:34.000Z</time>
      </trkpt>
      <trkpt lat="44.98289" lon="5.72834">
        <ele>1296.5999755859</ele>
        <time>2025-08-31T07:45:39.000Z</time>
      </trkpt>
      <trkpt lat="44.98289" lon="5.72834">
        <ele>1296.8000488281</ele>
        <time>2025-08-31T07:45:41.000Z</time>
      </trkpt>
      <trkpt lat="44.98289" lon="5.72834">
        <ele>1296.8000488281</ele>
        <time>2025-08-31T07:45:44.000Z</time>
      </trkpt>
      <trkpt lat="44.98289" lon="5.72834">
        <ele>1296.8000488281</ele>
        <time>2025-08-31T07:45:56.000Z</time>
      </trkpt>
      <trkpt lat="44.98289" lon="5.72834">
        <ele>1297</ele>
        <time>2025-08-31T07:46:00.000Z</time>
      </trkpt>
      <trkpt lat="44.98289" lon="5.72834">
        <ele>1297.8000488281</ele>
        <time>2025-08-31T07:46:06.000Z</time>
      </trkpt>
      <trkpt lat="44.98289" lon="5.72835">
        <ele>1298.4000244141</ele>
        <time>2025-08-31T07:46:10.000Z</time>
      </trkpt>
      <trkpt lat="44.9829" lon="5.72835">
        <ele>1299</ele>
        <time>2025-08-31T07:46:14.000Z</time>
      </trkpt>
      <trkpt lat="44.9829" lon="5.72835">
        <ele>1299.4000244141</ele>
        <time>2025-08-31T07:46:17.000Z</time>
      </trkpt>
      <trkpt lat="44.98291" lon="5.72835">
        <ele>1300</ele>
        <time>2025-08-31T07:46:21.000Z</time>
      </trkpt>
      <trkpt lat="44.98293" lon="5.72836">
        <ele>1300.4000244141</ele>
        <time>2025-08-31T07:46:24.000Z</time>
      </trkpt>
      <trkpt lat="44.98294" lon="5.72837">
        <ele>1301.1999511719</ele>
        <time>2025-08-31T07:46:29.000Z</time>
      </trkpt>
      <trkpt lat="44.98296" lon="5.72838">
        <ele>1302.4000244141</ele>
        <time>2025-08-31T07:46:35.000Z</time>
      </trkpt>
      <trkpt lat="44.98299" lon="5.7284">
        <ele>1303.4000244141</ele>
        <time>2025-08-31T07:46:42.000Z</time>
      </trkpt>
      <trkpt lat="44.98302" lon="5.72841">
        <ele>1304.4000244141</ele>
        <time>2025-08-31T07:46:49.000Z</time>
      </trkpt>
      <trkpt lat="44.98304" lon="5.72842">
        <ele>1305.4000244141</ele>
        <time>2025-08-31T07:46:55.000Z</time>
      </trkpt>
      <trkpt lat="44.98306" lon="5.72842">
        <ele>1306</ele>
        <time>2025-08-31T07:47:00.000Z</time>
      </trkpt>
      <trkpt lat="44.98307" lon="5.72842">
        <ele>1306.4000244141</ele>
        <time>2025-08-31T07:47:02.000Z</time>
      </trkpt>
      <trkpt lat="44.98309" lon="5.72842">
        <ele>1307.5999755859</ele>
        <time>2025-08-31T07:47:07.000Z</time>
      </trkpt>
      <trkpt lat="44.98312" lon="5.72845">
        <ele>1308.5999755859</ele>
        <time>2025-08-31T07:47:14.000Z</time>
      </trkpt>
      <trkpt lat="44.98316" lon="5.72847">
        <ele>1309.5999755859</ele>
        <time>2025-08-31T07:47:21.000Z</time>
      </trkpt>
      <trkpt lat="44.98317" lon="5.72848">
        <ele>1309.8000488281</ele>
        <time>2025-08-31T07:47:22.000Z</time>
      </trkpt>
      <trkpt lat="44.98323" lon="5.72852">
        <ele>1310.5999755859</ele>
        <time>2025-08-31T07:47:27.000Z</time>
      </trkpt>
      <trkpt lat="44.98324" lon="5.72852">
        <ele>1310.8000488281</ele>
        <time>2025-08-31T07:47:28.000Z</time>
      </trkpt>
      <trkpt lat="44.98326" lon="5.72854">
        <ele>1311.5999755859</ele>
        <time>2025-08-31T07:47:32.000Z</time>
      </trkpt>
      <trkpt lat="44.98327" lon="5.72855">
        <ele>1312</ele>
        <time>2025-08-31T07:47:34.000Z</time>
      </trkpt>
      <trkpt lat="44.98331" lon="5.72858">
        <ele>1313.1999511719</ele>
        <time>2025-08-31T07:47:40.000Z</time>
      </trkpt>
      <trkpt lat="44.98332" lon="5.7286">
        <ele>1314</ele>
        <time>2025-08-31T07:47:44.000Z</time>
      </trkpt>
      <trkpt lat="44.98333" lon="5.7286">
        <ele>1314.1999511719</ele>
        <time>2025-08-31T07:47:45.000Z</time>
      </trkpt>
      <trkpt lat="44.98335" lon="5.72861">
        <ele>1315.1999511719</ele>
        <time>2025-08-31T07:47:51.000Z</time>
      </trkpt>
      <trkpt lat="44.98337" lon="5.72862">
        <ele>1316</ele>
        <time>2025-08-31T07:47:54.000Z</time>
      </trkpt>
      <trkpt lat="44.98339" lon="5.72863">
        <ele>1316.4000244141</ele>
        <time>2025-08-31T07:47:57.000Z</time>
      </trkpt>
      <trkpt lat="44.98341" lon="5.72865">
        <ele>1317.4000244141</ele>
        <time>2025-08-31T07:48:01.000Z</time>
      </trkpt>
      <trkpt lat="44.98342" lon="5.72865">
        <ele>1317.5999755859</ele>
        <time>2025-08-31T07:48:02.000Z</time>
      </trkpt>
      <trkpt lat="44.98344" lon="5.72867">
        <ele>1318.4000244141</ele>
        <time>2025-08-31T07:48:06.000Z</time>
      </trkpt>
      <trkpt lat="44.98345" lon="5.72868">
        <ele>1318.5999755859</ele>
        <time>2025-08-31T07:48:08.000Z</time>
      </trkpt>
      <trkpt lat="44.98345" lon="5.72868">
        <ele>1318.8000488281</ele>
        <time>2025-08-31T07:48:09.000Z</time>
      </trkpt>
      <trkpt lat="44.98349" lon="5.72869">
        <ele>1319.8000488281</ele>
        <time>2025-08-31T07:48:14.000Z</time>
      </trkpt>
      <trkpt lat="44.9835" lon="5.72873">
        <ele>1320.8000488281</ele>
        <time>2025-08-31T07:48:19.000Z</time>
      </trkpt>
      <trkpt lat="44.9835" lon="5.72873">
        <ele>1321</ele>
        <time>2025-08-31T07:48:20.000Z</time>
      </trkpt>
      <trkpt lat="44.98353" lon="5.72874">
        <ele>1322</ele>
        <time>2025-08-31T07:48:26.000Z</time>
      </trkpt>
      <trkpt lat="44.98356" lon="5.72876">
        <ele>1323.1999511719</ele>
        <time>2025-08-31T07:48:32.000Z</time>
      </trkpt>
      <trkpt lat="44.98357" lon="5.72876">
        <ele>1323.4000244141</ele>
        <time>2025-08-31T07:48:33.000Z</time>
      </trkpt>
      <trkpt lat="44.98358" lon="5.72876">
        <ele>1324.1999511719</ele>
        <time>2025-08-31T07:48:37.000Z</time>
      </trkpt>
      <trkpt lat="44.9836" lon="5.72877">
        <ele>1325.1999511719</ele>
        <time>2025-08-31T07:48:41.000Z</time>
      </trkpt>
      <trkpt lat="44.9836" lon="5.72877">
        <ele>1325.4000244141</ele>
        <time>2025-08-31T07:48:42.000Z</time>
      </trkpt>
      <trkpt lat="44.98362" lon="5.72877">
        <ele>1326.4000244141</ele>
        <time>2025-08-31T07:48:46.000Z</time>
      </trkpt>
      <trkpt lat="44.98364" lon="5.72877">
        <ele>1327.4000244141</ele>
        <time>2025-08-31T07:48:52.000Z</time>
      </trkpt>
      <trkpt lat="44.98364" lon="5.72877">
        <ele>1327.5999755859</ele>
        <time>2025-08-31T07:48:53.000Z</time>
      </trkpt>
      <trkpt lat="44.98367" lon="5.72876">
        <ele>1328.5999755859</ele>
        <time>2025-08-31T07:48:58.000Z</time>
      </trkpt>
      <trkpt lat="44.98368" lon="5.72876">
        <ele>1329</ele>
        <time>2025-08-31T07:49:00.000Z</time>
      </trkpt>
      <trkpt lat="44.98369" lon="5.72875">
        <ele>1329.5999755859</ele>
        <time>2025-08-31T07:49:04.000Z</time>
      </trkpt>
      <trkpt lat="44.9837" lon="5.72875">
        <ele>1330</ele>
        <time>2025-08-31T07:49:06.000Z</time>
      </trkpt>
      <trkpt lat="44.98372" lon="5.72878">
        <ele>1330.8000488281</ele>
        <time>2025-08-31T07:49:10.000Z</time>
      </trkpt>
      <trkpt lat="44.98375" lon="5.72879">
        <ele>1331.8000488281</ele>
        <time>2025-08-31T07:49:16.000Z</time>
      </trkpt>
      <trkpt lat="44.98376" lon="5.72879">
        <ele>1332.4000244141</ele>
        <time>2025-08-31T07:49:19.000Z</time>
      </trkpt>
      <trkpt lat="44.98378" lon="5.7288">
        <ele>1332.8000488281</ele>
        <time>2025-08-31T07:49:22.000Z</time>
      </trkpt>
      <trkpt lat="44.9838" lon="5.72882">
        <ele>1334</ele>
        <time>2025-08-31T07:49:28.000Z</time>
      </trkpt>
      <trkpt lat="44.98381" lon="5.72883">
        <ele>1334.4000244141</ele>
        <time>2025-08-31T07:49:30.000Z</time>
      </trkpt>
      <trkpt lat="44.98381" lon="5.72883">
        <ele>1335</ele>
        <time>2025-08-31T07:49:32.000Z</time>
      </trkpt>
      <trkpt lat="44.98384" lon="5.72882">
        <ele>1336</ele>
        <time>2025-08-31T07:49:39.000Z</time>
      </trkpt>
      <trkpt lat="44.98384" lon="5.72882">
        <ele>1336.4000244141</ele>
        <time>2025-08-31T07:49:41.000Z</time>
      </trkpt>
      <trkpt lat="44.98385" lon="5.72882">
        <ele>1337.1999511719</ele>
        <time>2025-08-31T07:49:45.000Z</time>
      </trkpt>
      <trkpt lat="44.98388" lon="5.72882">
        <ele>1338.1999511719</ele>
        <time>2025-08-31T07:49:51.000Z</time>
      </trkpt>
      <trkpt lat="44.98388" lon="5.72882">
        <ele>1338.4000244141</ele>
        <time>2025-08-31T07:49:52.000Z</time>
      </trkpt>
      <trkpt lat="44.9839" lon="5.72881">
        <ele>1339.1999511719</ele>
        <time>2025-08-31T07:49:56.000Z</time>
      </trkpt>
      <trkpt lat="44.9839" lon="5.72881">
        <ele>1339.5999755859</ele>
        <time>2025-08-31T07:49:58.000Z</time>
      </trkpt>
      <trkpt lat="44.98391" lon="5.7288">
        <ele>1339.8000488281</ele>
        <time>2025-08-31T07:49:59.000Z</time>
      </trkpt>
      <trkpt lat="44.98392" lon="5.7288">
        <ele>1340.1999511719</ele>
        <time>2025-08-31T07:50:01.000Z</time>
      </trkpt>
      <trkpt lat="44.98395" lon="5.72881">
        <ele>1341.4000244141</ele>
        <time>2025-08-31T07:50:06.000Z</time>
      </trkpt>
      <trkpt lat="44.98397" lon="5.72882">
        <ele>1342</ele>
        <time>2025-08-31T07:50:09.000Z</time>
      </trkpt>
      <trkpt lat="44.98398" lon="5.72883">
        <ele>1342.4000244141</ele>
        <time>2025-08-31T07:50:12.000Z</time>
      </trkpt>
      <trkpt lat="44.98401" lon="5.72886">
        <ele>1343.4000244141</ele>
        <time>2025-08-31T07:50:18.000Z</time>
      </trkpt>
      <trkpt lat="44.98403" lon="5.72889">
        <ele>1344.5999755859</ele>
        <time>2025-08-31T07:50:24.000Z</time>
      </trkpt>
      <trkpt lat="44.98406" lon="5.72893">
        <ele>1345.5999755859</ele>
        <time>2025-08-31T07:50:29.000Z</time>
      </trkpt>
      <trkpt lat="44.98406" lon="5.72895">
        <ele>1346</ele>
        <time>2025-08-31T07:50:32.000Z</time>
      </trkpt>
      <trkpt lat="44.98407" lon="5.72897">
        <ele>1346.5999755859</ele>
        <time>2025-08-31T07:50:37.000Z</time>
      </trkpt>
      <trkpt lat="44.98407" lon="5.72897">
        <ele>1346.5999755859</ele>
        <time>2025-08-31T07:50:38.000Z</time>
      </trkpt>
      <trkpt lat="44.98406" lon="5.72897">
        <ele>1346.5999755859</ele>
        <time>2025-08-31T07:50:39.000Z</time>
      </trkpt>
      <trkpt lat="44.98406" lon="5.72897">
        <ele>1346.5999755859</ele>
        <time>2025-08-31T07:50:44.000Z</time>
      </trkpt>
      <trkpt lat="44.98406" lon="5.72897">
        <ele>1347</ele>
        <time>2025-08-31T07:50:51.000Z</time>
      </trkpt>
      <trkpt lat="44.98409" lon="5.72899">
        <ele>1347.8000488281</ele>
        <time>2025-08-31T07:50:55.000Z</time>
      </trkpt>
      <trkpt lat="44.98412" lon="5.72902">
        <ele>1348.5999755859</ele>
        <time>2025-08-31T07:50:59.000Z</time>
      </trkpt>
      <trkpt lat="44.98413" lon="5.72902">
        <ele>1348.8000488281</ele>
        <time>2025-08-31T07:51:00.000Z</time>
      </trkpt>
      <trkpt lat="44.98415" lon="5.72903">
        <ele>1350</ele>
        <time>2025-08-31T07:51:05.000Z</time>
      </trkpt>
      <trkpt lat="44.98415" lon="5.72903">
        <ele>1350.1999511719</ele>
        <time>2025-08-31T07:51:06.000Z</time>
      </trkpt>
      <trkpt lat="44.98417" lon="5.72902">
        <ele>1351</ele>
        <time>2025-08-31T07:51:10.000Z</time>
      </trkpt>
      <trkpt lat="44.9842" lon="5.72903">
        <ele>1352</ele>
        <time>2025-08-31T07:51:15.000Z</time>
      </trkpt>
      <trkpt lat="44.98423" lon="5.72905">
        <ele>1353.4000244141</ele>
        <time>2025-08-31T07:51:21.000Z</time>
      </trkpt>
      <trkpt lat="44.98424" lon="5.72906">
        <ele>1353.5999755859</ele>
        <time>2025-08-31T07:51:22.000Z</time>
      </trkpt>
      <trkpt lat="44.98426" lon="5.72907">
        <ele>1354.5999755859</ele>
        <time>2025-08-31T07:51:27.000Z</time>
      </trkpt>
      <trkpt lat="44.98428" lon="5.72909">
        <ele>1355.8000488281</ele>
        <time>2025-08-31T07:51:33.000Z</time>
      </trkpt>
      <trkpt lat="44.98431" lon="5.72909">
        <ele>1356.8000488281</ele>
        <time>2025-08-31T07:51:38.000Z</time>
      </trkpt>
      <trkpt lat="44.98433" lon="5.72911">
        <ele>1357.5999755859</ele>
        <time>2025-08-31T07:51:43.000Z</time>
      </trkpt>
      <trkpt lat="44.98434" lon="5.72911">
        <ele>1358</ele>
        <time>2025-08-31T07:51:45.000Z</time>
      </trkpt>
      <trkpt lat="44.98437" lon="5.72912">
        <ele>1359</ele>
        <time>2025-08-31T07:51:51.000Z</time>
      </trkpt>
      <trkpt lat="44.98437" lon="5.72913">
        <ele>1359.1999511719</ele>
        <time>2025-08-31T07:51:52.000Z</time>
      </trkpt>
      <trkpt lat="44.9844" lon="5.72917">
        <ele>1360.1999511719</ele>
        <time>2025-08-31T07:51:58.000Z</time>
      </trkpt>
      <trkpt lat="44.9844" lon="5.72916">
        <ele>1360.4000244141</ele>
        <time>2025-08-31T07:52:08.000Z</time>
      </trkpt>
      <trkpt lat="44.9844" lon="5.72917">
        <ele>1360.5999755859</ele>
        <time>2025-08-31T07:52:18.000Z</time>
      </trkpt>
      <trkpt lat="44.98441" lon="5.72918">
        <ele>1360.4000244141</ele>
        <time>2025-08-31T07:52:30.000Z</time>
      </trkpt>
      <trkpt lat="44.98441" lon="5.72918">
        <ele>1360.4000244141</ele>
        <time>2025-08-31T07:52:34.000Z</time>
      </trkpt>
      <trkpt lat="44.98441" lon="5.72918">
        <ele>1360.1999511719</ele>
        <time>2025-08-31T07:52:36.000Z</time>
      </trkpt>
      <trkpt lat="44.98441" lon="5.72918">
        <ele>1360.1999511719</ele>
        <time>2025-08-31T07:52:41.000Z</time>
      </trkpt>
      <trkpt lat="44.98441" lon="5.72918">
        <ele>1360.1999511719</ele>
        <time>2025-08-31T07:52:43.000Z</time>
      </trkpt>
      <trkpt lat="44.98441" lon="5.72918">
        <ele>1360.1999511719</ele>
        <time>2025-08-31T07:52:44.000Z</time>
      </trkpt>
      <trkpt lat="44.98441" lon="5.72918">
        <ele>1360.1999511719</ele>
        <time>2025-08-31T07:52:46.000Z</time>
      </trkpt>
      <trkpt lat="44.98441" lon="5.72918">
        <ele>1360</ele>
        <time>2025-08-31T07:52:49.000Z</time>
      </trkpt>
      <trkpt lat="44.98442" lon="5.72918">
        <ele>1360.4000244141</ele>
        <time>2025-08-31T07:53:05.000Z</time>
      </trkpt>
      <trkpt lat="44.98442" lon="5.72918">
        <ele>1360.4000244141</ele>
        <time>2025-08-31T07:53:06.000Z</time>
      </trkpt>
      <trkpt lat="44.98442" lon="5.72918">
        <ele>1360.5999755859</ele>
        <time>2025-08-31T07:53:09.000Z</time>
      </trkpt>
      <trkpt lat="44.98442" lon="5.72918">
        <ele>1361</ele>
        <time>2025-08-31T07:53:15.000Z</time>
      </trkpt>
      <trkpt lat="44.98442" lon="5.72918">
        <ele>1361</ele>
        <time>2025-08-31T07:53:29.000Z</time>
      </trkpt>
      <trkpt lat="44.98442" lon="5.72918">
        <ele>1361</ele>
        <time>2025-08-31T07:53:35.000Z</time>
      </trkpt>
      <trkpt lat="44.98442" lon="5.72918">
        <ele>1361.1999511719</ele>
        <time>2025-08-31T07:53:37.000Z</time>
      </trkpt>
      <trkpt lat="44.98442" lon="5.72918">
        <ele>1361.1999511719</ele>
        <time>2025-08-31T07:53:41.000Z</time>
      </trkpt>
      <trkpt lat="44.98442" lon="5.72917">
        <ele>1361.8000488281</ele>
        <time>2025-08-31T07:54:09.000Z</time>
      </trkpt>
      <trkpt lat="44.98442" lon="5.72917">
        <ele>1361.5999755859</ele>
        <time>2025-08-31T07:54:19.000Z</time>
      </trkpt>
      <trkpt lat="44.98442" lon="5.72917">
        <ele>1361.4000244141</ele>
        <time>2025-08-31T07:54:29.000Z</time>
      </trkpt>
      <trkpt lat="44.98442" lon="5.72917">
        <ele>1361.4000244141</ele>
        <time>2025-08-31T07:54:41.000Z</time>
      </trkpt>
      <trkpt lat="44.98442" lon="5.72917">
        <ele>1361.4000244141</ele>
        <time>2025-08-31T07:54:43.000Z</time>
      </trkpt>
      <trkpt lat="44.98443" lon="5.72917">
        <ele>1361.4000244141</ele>
        <time>2025-08-31T07:54:46.000Z</time>
      </trkpt>
      <trkpt lat="44.98443" lon="5.72917">
        <ele>1361.5999755859</ele>
        <time>2025-08-31T07:55:00.000Z</time>
      </trkpt>
      <trkpt lat="44.98443" lon="5.72917">
        <ele>1361.5999755859</ele>
        <time>2025-08-31T07:55:02.000Z</time>
      </trkpt>
      <trkpt lat="44.98443" lon="5.72917">
        <ele>1361.8000488281</ele>
        <time>2025-08-31T07:55:03.000Z</time>
      </trkpt>
      <trkpt lat="44.98443" lon="5.72917">
        <ele>1362</ele>
        <time>2025-08-31T07:55:05.000Z</time>
      </trkpt>
      <trkpt lat="44.98443" lon="5.72918">
        <ele>1362.1999511719</ele>
        <time>2025-08-31T07:55:15.000Z</time>
      </trkpt>
      <trkpt lat="44.98443" lon="5.72918">
        <ele>1362.4000244141</ele>
        <time>2025-08-31T07:55:16.000Z</time>
      </trkpt>
      <trkpt lat="44.98443" lon="5.72918">
        <ele>1362.4000244141</ele>
        <time>2025-08-31T07:55:29.000Z</time>
      </trkpt>
      <trkpt lat="44.98443" lon="5.72918">
        <ele>1362.8000488281</ele>
        <time>2025-08-31T07:55:34.000Z</time>
      </trkpt>
      <trkpt lat="44.98443" lon="5.72918">
        <ele>1363.4000244141</ele>
        <time>2025-08-31T07:55:39.000Z</time>
      </trkpt>
      <trkpt lat="44.98443" lon="5.72918">
        <ele>1364</ele>
        <time>2025-08-31T07:55:42.000Z</time>
      </trkpt>
      <trkpt lat="44.98443" lon="5.72918">
        <ele>1364.4000244141</ele>
        <time>2025-08-31T07:55:43.000Z</time>
      </trkpt>
      <trkpt lat="44.98447" lon="5.72918">
        <ele>1365.4000244141</ele>
        <time>2025-08-31T07:55:46.000Z</time>
      </trkpt>
      <trkpt lat="44.9845" lon="5.72918">
        <ele>1366</ele>
        <time>2025-08-31T07:55:48.000Z</time>
      </trkpt>
      <trkpt lat="44.98451" lon="5.72919">
        <ele>1366.4000244141</ele>
        <time>2025-08-31T07:55:49.000Z</time>
      </trkpt>
      <trkpt lat="44.98452" lon="5.72919">
        <ele>1366.5999755859</ele>
        <time>2025-08-31T07:55:50.000Z</time>
      </trkpt>
      <trkpt lat="44.98457" lon="5.7292">
        <ele>1367.5999755859</ele>
        <time>2025-08-31T07:55:53.000Z</time>
      </trkpt>
      <trkpt lat="44.98457" lon="5.72921">
        <ele>1367.8000488281</ele>
        <time>2025-08-31T07:55:54.000Z</time>
      </trkpt>
      <trkpt lat="44.98459" lon="5.72921">
        <ele>1369</ele>
        <time>2025-08-31T07:55:58.000Z</time>
      </trkpt>
      <trkpt lat="44.9846" lon="5.72922">
        <ele>1369.5999755859</ele>
        <time>2025-08-31T07:56:00.000Z</time>
      </trkpt>
      <trkpt lat="44.98462" lon="5.72923">
        <ele>1370.4000244141</ele>
        <time>2025-08-31T07:56:03.000Z</time>
      </trkpt>
      <trkpt lat="44.98465" lon="5.72924">
        <ele>1371.5999755859</ele>
        <time>2025-08-31T07:56:08.000Z</time>
      </trkpt>
      <trkpt lat="44.98466" lon="5.72924">
        <ele>1371.5999755859</ele>
        <time>2025-08-31T07:56:09.000Z</time>
      </trkpt>
      <trkpt lat="44.98469" lon="5.72924">
        <ele>1372.4000244141</ele>
        <time>2025-08-31T07:56:15.000Z</time>
      </trkpt>
      <trkpt lat="44.9847" lon="5.72924">
        <ele>1372.5999755859</ele>
        <time>2025-08-31T07:56:16.000Z</time>
      </trkpt>
      <trkpt lat="44.9847" lon="5.72923">
        <ele>1372.8000488281</ele>
        <time>2025-08-31T07:56:17.000Z</time>
      </trkpt>
      <trkpt lat="44.98474" lon="5.72922">
        <ele>1373.5999755859</ele>
        <time>2025-08-31T07:56:26.000Z</time>
      </trkpt>
      <trkpt lat="44.98477" lon="5.72923">
        <ele>1374.1999511719</ele>
        <time>2025-08-31T07:56:31.000Z</time>
      </trkpt>
      <trkpt lat="44.98478" lon="5.72923">
        <ele>1374.1999511719</ele>
        <time>2025-08-31T07:56:33.000Z</time>
      </trkpt>
      <trkpt lat="44.9848" lon="5.72923">
        <ele>1374.5999755859</ele>
        <time>2025-08-31T07:56:37.000Z</time>
      </trkpt>
      <trkpt lat="44.98481" lon="5.7292">
        <ele>1375.1999511719</ele>
        <time>2025-08-31T07:56:41.000Z</time>
      </trkpt>
      <trkpt lat="44.98482" lon="5.72917">
        <ele>1375.5999755859</ele>
        <time>2025-08-31T07:56:45.000Z</time>
      </trkpt>
      <trkpt lat="44.98483" lon="5.72917">
        <ele>1375.8000488281</ele>
        <time>2025-08-31T07:56:46.000Z</time>
      </trkpt>
      <trkpt lat="44.98483" lon="5.72916">
        <ele>1376</ele>
        <time>2025-08-31T07:56:48.000Z</time>
      </trkpt>
      <trkpt lat="44.98485" lon="5.72916">
        <ele>1376.8000488281</ele>
        <time>2025-08-31T07:56:55.000Z</time>
      </trkpt>
      <trkpt lat="44.98487" lon="5.72916">
        <ele>1377.4000244141</ele>
        <time>2025-08-31T07:57:00.000Z</time>
      </trkpt>
      <trkpt lat="44.98488" lon="5.72915">
        <ele>1377.8000488281</ele>
        <time>2025-08-31T07:57:04.000Z</time>
      </trkpt>
      <trkpt lat="44.98492" lon="5.72913">
        <ele>1379</ele>
        <time>2025-08-31T07:57:12.000Z</time>
      </trkpt>
      <trkpt lat="44.98492" lon="5.72912">
        <ele>1379.1999511719</ele>
        <time>2025-08-31T07:57:13.000Z</time>
      </trkpt>
      <trkpt lat="44.98494" lon="5.72907">
        <ele>1380</ele>
        <time>2025-08-31T07:57:19.000Z</time>
      </trkpt>
      <trkpt lat="44.98495" lon="5.72905">
        <ele>1380.4000244141</ele>
        <time>2025-08-31T07:57:23.000Z</time>
      </trkpt>
      <trkpt lat="44.98496" lon="5.72901">
        <ele>1381</ele>
        <time>2025-08-31T07:57:27.000Z</time>
      </trkpt>
      <trkpt lat="44.98496" lon="5.72896">
        <ele>1381.4000244141</ele>
        <time>2025-08-31T07:57:30.000Z</time>
      </trkpt>
      <trkpt lat="44.98499" lon="5.72893">
        <ele>1381.8000488281</ele>
        <time>2025-08-31T07:57:36.000Z</time>
      </trkpt>
      <trkpt lat="44.98499" lon="5.72893">
        <ele>1382</ele>
        <time>2025-08-31T07:57:37.000Z</time>
      </trkpt>
      <trkpt lat="44.98501" lon="5.72894">
        <ele>1383.1999511719</ele>
        <time>2025-08-31T07:57:43.000Z</time>
      </trkpt>
      <trkpt lat="44.98502" lon="5.72894">
        <ele>1383.4000244141</ele>
        <time>2025-08-31T07:57:44.000Z</time>
      </trkpt>
      <trkpt lat="44.98505" lon="5.72895">
        <ele>1384.4000244141</ele>
        <time>2025-08-31T07:57:49.000Z</time>
      </trkpt>
      <trkpt lat="44.98507" lon="5.72895">
        <ele>1385.1999511719</ele>
        <time>2025-08-31T07:57:52.000Z</time>
      </trkpt>
      <trkpt lat="44.98509" lon="5.72895">
        <ele>1385.5999755859</ele>
        <time>2025-08-31T07:57:54.000Z</time>
      </trkpt>
      <trkpt lat="44.9851" lon="5.72895">
        <ele>1386.4000244141</ele>
        <time>2025-08-31T07:57:58.000Z</time>
      </trkpt>
      <trkpt lat="44.98511" lon="5.72895">
        <ele>1386.5999755859</ele>
        <time>2025-08-31T07:57:59.000Z</time>
      </trkpt>
      <trkpt lat="44.98511" lon="5.72895">
        <ele>1386.8000488281</ele>
        <time>2025-08-31T07:58:00.000Z</time>
      </trkpt>
      <trkpt lat="44.98513" lon="5.72894">
        <ele>1387.5999755859</ele>
        <time>2025-08-31T07:58:05.000Z</time>
      </trkpt>
      <trkpt lat="44.98515" lon="5.72894">
        <ele>1388.4000244141</ele>
        <time>2025-08-31T07:58:09.000Z</time>
      </trkpt>
      <trkpt lat="44.98515" lon="5.72894">
        <ele>1388.8000488281</ele>
        <time>2025-08-31T07:58:11.000Z</time>
      </trkpt>
      <trkpt lat="44.98517" lon="5.72893">
        <ele>1389.8000488281</ele>
        <time>2025-08-31T07:58:16.000Z</time>
      </trkpt>
      <trkpt lat="44.98521" lon="5.72893">
        <ele>1391</ele>
        <time>2025-08-31T07:58:21.000Z</time>
      </trkpt>
      <trkpt lat="44.98523" lon="5.72893">
        <ele>1392.1999511719</ele>
        <time>2025-08-31T07:58:26.000Z</time>
      </trkpt>
      <trkpt lat="44.98527" lon="5.72893">
        <ele>1393.1999511719</ele>
        <time>2025-08-31T07:58:32.000Z</time>
      </trkpt>
      <trkpt lat="44.98529" lon="5.72893">
        <ele>1394.4000244141</ele>
        <time>2025-08-31T07:58:38.000Z</time>
      </trkpt>
      <trkpt lat="44.98532" lon="5.72893">
        <ele>1394.8000488281</ele>
        <time>2025-08-31T07:58:41.000Z</time>
      </trkpt>
      <trkpt lat="44.98535" lon="5.72893">
        <ele>1395.4000244141</ele>
        <time>2025-08-31T07:58:45.000Z</time>
      </trkpt>
      <trkpt lat="44.98536" lon="5.72891">
        <ele>1396.1999511719</ele>
        <time>2025-08-31T07:58:49.000Z</time>
      </trkpt>
      <trkpt lat="44.98537" lon="5.72891">
        <ele>1396.5999755859</ele>
        <time>2025-08-31T07:58:52.000Z</time>
      </trkpt>
      <trkpt lat="44.9854" lon="5.72889">
        <ele>1397.5999755859</ele>
        <time>2025-08-31T07:58:57.000Z</time>
      </trkpt>
      <trkpt lat="44.9854" lon="5.72889">
        <ele>1397.5999755859</ele>
        <time>2025-08-31T07:58:58.000Z</time>
      </trkpt>
      <trkpt lat="44.98542" lon="5.72887">
        <ele>1398.8000488281</ele>
        <time>2025-08-31T07:59:04.000Z</time>
      </trkpt>
      <trkpt lat="44.98545" lon="5.72886">
        <ele>1399.8000488281</ele>
        <time>2025-08-31T07:59:09.000Z</time>
      </trkpt>
      <trkpt lat="44.98547" lon="5.72883">
        <ele>1401</ele>
        <time>2025-08-31T07:59:15.000Z</time>
      </trkpt>
      <trkpt lat="44.98548" lon="5.72882">
        <ele>1401.8000488281</ele>
        <time>2025-08-31T07:59:20.000Z</time>
      </trkpt>
      <trkpt lat="44.98548" lon="5.72882">
        <ele>1402</ele>
        <time>2025-08-31T07:59:21.000Z</time>
      </trkpt>
      <trkpt lat="44.9855" lon="5.72881">
        <ele>1403.1999511719</ele>
        <time>2025-08-31T07:59:27.000Z</time>
      </trkpt>
      <trkpt lat="44.98553" lon="5.72878">
        <ele>1404.1999511719</ele>
        <time>2025-08-31T07:59:33.000Z</time>
      </trkpt>
      <trkpt lat="44.98554" lon="5.72878">
        <ele>1404.4000244141</ele>
        <time>2025-08-31T07:59:34.000Z</time>
      </trkpt>
      <trkpt lat="44.98557" lon="5.72879">
        <ele>1405.1999511719</ele>
        <time>2025-08-31T07:59:38.000Z</time>
      </trkpt>
      <trkpt lat="44.98557" lon="5.72879">
        <ele>1405.4000244141</ele>
        <time>2025-08-31T07:59:39.000Z</time>
      </trkpt>
      <trkpt lat="44.98559" lon="5.72878">
        <ele>1406.4000244141</ele>
        <time>2025-08-31T07:59:42.000Z</time>
      </trkpt>
      <trkpt lat="44.9856" lon="5.72875">
        <ele>1407.4000244141</ele>
        <time>2025-08-31T07:59:46.000Z</time>
      </trkpt>
      <trkpt lat="44.98561" lon="5.72874">
        <ele>1407.8000488281</ele>
        <time>2025-08-31T07:59:48.000Z</time>
      </trkpt>
      <trkpt lat="44.98564" lon="5.72875">
        <ele>1408.4000244141</ele>
        <time>2025-08-31T07:59:52.000Z</time>
      </trkpt>
      <trkpt lat="44.98567" lon="5.72874">
        <ele>1409.5999755859</ele>
        <time>2025-08-31T07:59:58.000Z</time>
      </trkpt>
      <trkpt lat="44.9857" lon="5.72871">
        <ele>1410.5999755859</ele>
        <time>2025-08-31T08:00:05.000Z</time>
      </trkpt>
      <trkpt lat="44.98571" lon="5.7287">
        <ele>1411.5999755859</ele>
        <time>2025-08-31T08:00:10.000Z</time>
      </trkpt>
      <trkpt lat="44.98572" lon="5.7287">
        <ele>1411.8000488281</ele>
        <time>2025-08-31T08:00:11.000Z</time>
      </trkpt>
      <trkpt lat="44.98574" lon="5.72869">
        <ele>1413</ele>
        <time>2025-08-31T08:00:17.000Z</time>
      </trkpt>
      <trkpt lat="44.98574" lon="5.72869">
        <ele>1413.1999511719</ele>
        <time>2025-08-31T08:00:18.000Z</time>
      </trkpt>
      <trkpt lat="44.98575" lon="5.72868">
        <ele>1414</ele>
        <time>2025-08-31T08:00:21.000Z</time>
      </trkpt>
      <trkpt lat="44.98577" lon="5.72867">
        <ele>1414.5999755859</ele>
        <time>2025-08-31T08:00:24.000Z</time>
      </trkpt>
      <trkpt lat="44.98578" lon="5.72866">
        <ele>1415.1999511719</ele>
        <time>2025-08-31T08:00:27.000Z</time>
      </trkpt>
      <trkpt lat="44.98581" lon="5.72866">
        <ele>1416.1999511719</ele>
        <time>2025-08-31T08:00:33.000Z</time>
      </trkpt>
      <trkpt lat="44.98584" lon="5.72865">
        <ele>1417.1999511719</ele>
        <time>2025-08-31T08:00:39.000Z</time>
      </trkpt>
      <trkpt lat="44.98584" lon="5.72864">
        <ele>1417.4000244141</ele>
        <time>2025-08-31T08:00:40.000Z</time>
      </trkpt>
      <trkpt lat="44.98585" lon="5.72864">
        <ele>1417.5999755859</ele>
        <time>2025-08-31T08:00:42.000Z</time>
      </trkpt>
      <trkpt lat="44.98587" lon="5.72862">
        <ele>1418.4000244141</ele>
        <time>2025-08-31T08:00:47.000Z</time>
      </trkpt>
      <trkpt lat="44.98591" lon="5.72861">
        <ele>1419.4000244141</ele>
        <time>2025-08-31T08:00:54.000Z</time>
      </trkpt>
      <trkpt lat="44.98593" lon="5.72861">
        <ele>1419.8000488281</ele>
        <time>2025-08-31T08:00:58.000Z</time>
      </trkpt>
      <trkpt lat="44.98594" lon="5.72861">
        <ele>1420.4000244141</ele>
        <time>2025-08-31T08:01:01.000Z</time>
      </trkpt>
      <trkpt lat="44.98595" lon="5.7286">
        <ele>1421</ele>
        <time>2025-08-31T08:01:04.000Z</time>
      </trkpt>
      <trkpt lat="44.98596" lon="5.7286">
        <ele>1421.5999755859</ele>
        <time>2025-08-31T08:01:07.000Z</time>
      </trkpt>
      <trkpt lat="44.98598" lon="5.7286">
        <ele>1422.5999755859</ele>
        <time>2025-08-31T08:01:14.000Z</time>
      </trkpt>
      <trkpt lat="44.98599" lon="5.72859">
        <ele>1422.8000488281</ele>
        <time>2025-08-31T08:01:15.000Z</time>
      </trkpt>
      <trkpt lat="44.98602" lon="5.72858">
        <ele>1423.8000488281</ele>
        <time>2025-08-31T08:01:22.000Z</time>
      </trkpt>
      <trkpt lat="44.98603" lon="5.72858">
        <ele>1424.1999511719</ele>
        <time>2025-08-31T08:01:25.000Z</time>
      </trkpt>
      <trkpt lat="44.98603" lon="5.72857">
        <ele>1424.8000488281</ele>
        <time>2025-08-31T08:01:27.000Z</time>
      </trkpt>
      <trkpt lat="44.98604" lon="5.72857">
        <ele>1425.8000488281</ele>
        <time>2025-08-31T08:01:30.000Z</time>
      </trkpt>
      <trkpt lat="44.98606" lon="5.72855">
        <ele>1427</ele>
        <time>2025-08-31T08:01:35.000Z</time>
      </trkpt>
      <trkpt lat="44.98608" lon="5.72855">
        <ele>1428</ele>
        <time>2025-08-31T08:01:41.000Z</time>
      </trkpt>
      <trkpt lat="44.98608" lon="5.72855">
        <ele>1428.1999511719</ele>
        <time>2025-08-31T08:01:42.000Z</time>
      </trkpt>
      <trkpt lat="44.98612" lon="5.72853">
        <ele>1429</ele>
        <time>2025-08-31T08:01:49.000Z</time>
      </trkpt>
      <trkpt lat="44.98613" lon="5.72853">
        <ele>1429.1999511719</ele>
        <time>2025-08-31T08:01:51.000Z</time>
      </trkpt>
      <trkpt lat="44.98615" lon="5.72853">
        <ele>1429.8000488281</ele>
        <time>2025-08-31T08:01:55.000Z</time>
      </trkpt>
      <trkpt lat="44.98617" lon="5.72853">
        <ele>1430.4000244141</ele>
        <time>2025-08-31T08:01:58.000Z</time>
      </trkpt>
      <trkpt lat="44.98617" lon="5.72854">
        <ele>1430.4000244141</ele>
        <time>2025-08-31T08:01:59.000Z</time>
      </trkpt>
      <trkpt lat="44.9862" lon="5.72857">
        <ele>1431</ele>
        <time>2025-08-31T08:02:04.000Z</time>
      </trkpt>
      <trkpt lat="44.98623" lon="5.72859">
        <ele>1431.4000244141</ele>
        <time>2025-08-31T08:02:09.000Z</time>
      </trkpt>
      <trkpt lat="44.98627" lon="5.72863">
        <ele>1431.8000488281</ele>
        <time>2025-08-31T08:02:15.000Z</time>
      </trkpt>
      <trkpt lat="44.98629" lon="5.72865">
        <ele>1432.4000244141</ele>
        <time>2025-08-31T08:02:19.000Z</time>
      </trkpt>
      <trkpt lat="44.98633" lon="5.72868">
        <ele>1433.1999511719</ele>
        <time>2025-08-31T08:02:25.000Z</time>
      </trkpt>
      <trkpt lat="44.98633" lon="5.72868">
        <ele>1433.4000244141</ele>
        <time>2025-08-31T08:02:26.000Z</time>
      </trkpt>
      <trkpt lat="44.98638" lon="5.72872">
        <ele>1434.4000244141</ele>
        <time>2025-08-31T08:02:33.000Z</time>
      </trkpt>
      <trkpt lat="44.98638" lon="5.72872">
        <ele>1434.5999755859</ele>
        <time>2025-08-31T08:02:34.000Z</time>
      </trkpt>
      <trkpt lat="44.98642" lon="5.72874">
        <ele>1435.5999755859</ele>
        <time>2025-08-31T08:02:41.000Z</time>
      </trkpt>
      <trkpt lat="44.98643" lon="5.72874">
        <ele>1436</ele>
        <time>2025-08-31T08:02:44.000Z</time>
      </trkpt>
      <trkpt lat="44.98643" lon="5.72874">
        <ele>1435.8000488281</ele>
        <time>2025-08-31T08:02:57.000Z</time>
      </trkpt>
      <trkpt lat="44.98647" lon="5.72876">
        <ele>1436.1999511719</ele>
        <time>2025-08-31T08:03:08.000Z</time>
      </trkpt>
      <trkpt lat="44.98648" lon="5.72877">
        <ele>1436.4000244141</ele>
        <time>2025-08-31T08:03:09.000Z</time>
      </trkpt>
      <trkpt lat="44.98651" lon="5.72878">
        <ele>1436.8000488281</ele>
        <time>2025-08-31T08:03:12.000Z</time>
      </trkpt>
      <trkpt lat="44.98653" lon="5.72876">
        <ele>1437.8000488281</ele>
        <time>2025-08-31T08:03:18.000Z</time>
      </trkpt>
      <trkpt lat="44.98653" lon="5.72872">
        <ele>1439</ele>
        <time>2025-08-31T08:03:23.000Z</time>
      </trkpt>
      <trkpt lat="44.98654" lon="5.72868">
        <ele>1440</ele>
        <time>2025-08-31T08:03:28.000Z</time>
      </trkpt>
      <trkpt lat="44.98654" lon="5.72864">
        <ele>1441.1999511719</ele>
        <time>2025-08-31T08:03:32.000Z</time>
      </trkpt>
      <trkpt lat="44.98654" lon="5.7286">
        <ele>1442.1999511719</ele>
        <time>2025-08-31T08:03:37.000Z</time>
      </trkpt>
      <trkpt lat="44.98654" lon="5.72857">
        <ele>1443</ele>
        <time>2025-08-31T08:03:40.000Z</time>
      </trkpt>
      <trkpt lat="44.98654" lon="5.72855">
        <ele>1443.4000244141</ele>
        <time>2025-08-31T08:03:42.000Z</time>
      </trkpt>
      <trkpt lat="44.98654" lon="5.72849">
        <ele>1444.4000244141</ele>
        <time>2025-08-31T08:03:48.000Z</time>
      </trkpt>
      <trkpt lat="44.98654" lon="5.72848">
        <ele>1444.8000488281</ele>
        <time>2025-08-31T08:03:50.000Z</time>
      </trkpt>
      <trkpt lat="44.98654" lon="5.72843">
        <ele>1445.5999755859</ele>
        <time>2025-08-31T08:03:55.000Z</time>
      </trkpt>
      <trkpt lat="44.98656" lon="5.72844">
        <ele>1446.1999511719</ele>
        <time>2025-08-31T08:03:58.000Z</time>
      </trkpt>
      <trkpt lat="44.98658" lon="5.72844">
        <ele>1446.8000488281</ele>
        <time>2025-08-31T08:04:00.000Z</time>
      </trkpt>
      <trkpt lat="44.98662" lon="5.72847">
        <ele>1447.8000488281</ele>
        <time>2025-08-31T08:04:06.000Z</time>
      </trkpt>
      <trkpt lat="44.98663" lon="5.72847">
        <ele>1448.1999511719</ele>
        <time>2025-08-31T08:04:08.000Z</time>
      </trkpt>
      <trkpt lat="44.98664" lon="5.72848">
        <ele>1448.8000488281</ele>
        <time>2025-08-31T08:04:13.000Z</time>
      </trkpt>
      <trkpt lat="44.98664" lon="5.72848">
        <ele>1448.8000488281</ele>
        <time>2025-08-31T08:04:15.000Z</time>
      </trkpt>
      <trkpt lat="44.98664" lon="5.72848">
        <ele>1449</ele>
        <time>2025-08-31T08:04:36.000Z</time>
      </trkpt>
      <trkpt lat="44.98664" lon="5.72848">
        <ele>1449.4000244141</ele>
        <time>2025-08-31T08:04:39.000Z</time>
      </trkpt>
      <trkpt lat="44.98664" lon="5.72848">
        <ele>1450</ele>
        <time>2025-08-31T08:04:42.000Z</time>
      </trkpt>
      <trkpt lat="44.98665" lon="5.72848">
        <ele>1450.5999755859</ele>
        <time>2025-08-31T08:04:45.000Z</time>
      </trkpt>
      <trkpt lat="44.98666" lon="5.72848">
        <ele>1451</ele>
        <time>2025-08-31T08:04:48.000Z</time>
      </trkpt>
      <trkpt lat="44.98669" lon="5.72849">
        <ele>1452.1999511719</ele>
        <time>2025-08-31T08:04:54.000Z</time>
      </trkpt>
      <trkpt lat="44.98672" lon="5.72849">
        <ele>1453.1999511719</ele>
        <time>2025-08-31T08:05:00.000Z</time>
      </trkpt>
      <trkpt lat="44.98675" lon="5.72849">
        <ele>1454.1999511719</ele>
        <time>2025-08-31T08:05:06.000Z</time>
      </trkpt>
      <trkpt lat="44.98677" lon="5.72849">
        <ele>1455.4000244141</ele>
        <time>2025-08-31T08:05:12.000Z</time>
      </trkpt>
      <trkpt lat="44.98677" lon="5.72845">
        <ele>1456.4000244141</ele>
        <time>2025-08-31T08:05:17.000Z</time>
      </trkpt>
      <trkpt lat="44.98677" lon="5.72839">
        <ele>1457.5999755859</ele>
        <time>2025-08-31T08:05:25.000Z</time>
      </trkpt>
      <trkpt lat="44.98677" lon="5.72838">
        <ele>1457.5999755859</ele>
        <time>2025-08-31T08:05:26.000Z</time>
      </trkpt>
      <trkpt lat="44.98677" lon="5.72834">
        <ele>1458.5999755859</ele>
        <time>2025-08-31T08:05:31.000Z</time>
      </trkpt>
      <trkpt lat="44.98677" lon="5.72827">
        <ele>1459.5999755859</ele>
        <time>2025-08-31T08:05:40.000Z</time>
      </trkpt>
      <trkpt lat="44.98679" lon="5.72826">
        <ele>1460.8000488281</ele>
        <time>2025-08-31T08:05:46.000Z</time>
      </trkpt>
      <trkpt lat="44.98682" lon="5.72826">
        <ele>1461.8000488281</ele>
        <time>2025-08-31T08:05:52.000Z</time>
      </trkpt>
      <trkpt lat="44.98686" lon="5.72828">
        <ele>1462.8000488281</ele>
        <time>2025-08-31T08:05:59.000Z</time>
      </trkpt>
      <trkpt lat="44.98687" lon="5.72828">
        <ele>1463.1999511719</ele>
        <time>2025-08-31T08:06:02.000Z</time>
      </trkpt>
      <trkpt lat="44.98688" lon="5.72828">
        <ele>1463.5999755859</ele>
        <time>2025-08-31T08:06:04.000Z</time>
      </trkpt>
      <trkpt lat="44.98689" lon="5.72829">
        <ele>1464</ele>
        <time>2025-08-31T08:06:06.000Z</time>
      </trkpt>
      <trkpt lat="44.98691" lon="5.72829">
        <ele>1464.5999755859</ele>
        <time>2025-08-31T08:06:10.000Z</time>
      </trkpt>
      <trkpt lat="44.98693" lon="5.72829">
        <ele>1465.1999511719</ele>
        <time>2025-08-31T08:06:13.000Z</time>
      </trkpt>
      <trkpt lat="44.98694" lon="5.72829">
        <ele>1466</ele>
        <time>2025-08-31T08:06:17.000Z</time>
      </trkpt>
      <trkpt lat="44.98694" lon="5.72829">
        <ele>1466.1999511719</ele>
        <time>2025-08-31T08:06:18.000Z</time>
      </trkpt>
      <trkpt lat="44.98694" lon="5.72826">
        <ele>1467.1999511719</ele>
        <time>2025-08-31T08:06:24.000Z</time>
      </trkpt>
      <trkpt lat="44.98695" lon="5.72821">
        <ele>1468.1999511719</ele>
        <time>2025-08-31T08:06:31.000Z</time>
      </trkpt>
      <trkpt lat="44.98695" lon="5.7282">
        <ele>1468.4000244141</ele>
        <time>2025-08-31T08:06:32.000Z</time>
      </trkpt>
      <trkpt lat="44.98695" lon="5.72816">
        <ele>1469.4000244141</ele>
        <time>2025-08-31T08:06:38.000Z</time>
      </trkpt>
      <trkpt lat="44.98696" lon="5.72812">
        <ele>1470.4000244141</ele>
        <time>2025-08-31T08:06:46.000Z</time>
      </trkpt>
      <trkpt lat="44.98698" lon="5.72811">
        <ele>1471.5999755859</ele>
        <time>2025-08-31T08:06:53.000Z</time>
      </trkpt>
      <trkpt lat="44.987" lon="5.7281">
        <ele>1472.5999755859</ele>
        <time>2025-08-31T08:06:59.000Z</time>
      </trkpt>
      <trkpt lat="44.98702" lon="5.72809">
        <ele>1473.5999755859</ele>
        <time>2025-08-31T08:07:05.000Z</time>
      </trkpt>
      <trkpt lat="44.98702" lon="5.72808">
        <ele>1474.5999755859</ele>
        <time>2025-08-31T08:07:11.000Z</time>
      </trkpt>
      <trkpt lat="44.98703" lon="5.72804">
        <ele>1475.8000488281</ele>
        <time>2025-08-31T08:07:17.000Z</time>
      </trkpt>
      <trkpt lat="44.98704" lon="5.72803">
        <ele>1476.8000488281</ele>
        <time>2025-08-31T08:07:23.000Z</time>
      </trkpt>
      <trkpt lat="44.98704" lon="5.72802">
        <ele>1476.8000488281</ele>
        <time>2025-08-31T08:07:24.000Z</time>
      </trkpt>
      <trkpt lat="44.98706" lon="5.72801">
        <ele>1478</ele>
        <time>2025-08-31T08:07:33.000Z</time>
      </trkpt>
      <trkpt lat="44.98707" lon="5.72801">
        <ele>1479</ele>
        <time>2025-08-31T08:07:41.000Z</time>
      </trkpt>
      <trkpt lat="44.98707" lon="5.72801">
        <ele>1479.1999511719</ele>
        <time>2025-08-31T08:07:43.000Z</time>
      </trkpt>
      <trkpt lat="44.98707" lon="5.728">
        <ele>1480.1999511719</ele>
        <time>2025-08-31T08:07:49.000Z</time>
      </trkpt>
      <trkpt lat="44.98707" lon="5.728">
        <ele>1481.1999511719</ele>
        <time>2025-08-31T08:07:55.000Z</time>
      </trkpt>
      <trkpt lat="44.98707" lon="5.728">
        <ele>1482.1999511719</ele>
        <time>2025-08-31T08:08:03.000Z</time>
      </trkpt>
      <trkpt lat="44.98707" lon="5.728">
        <ele>1483.1999511719</ele>
        <time>2025-08-31T08:08:10.000Z</time>
      </trkpt>
      <trkpt lat="44.98708" lon="5.728">
        <ele>1484.4000244141</ele>
        <time>2025-08-31T08:08:17.000Z</time>
      </trkpt>
      <trkpt lat="44.98708" lon="5.728">
        <ele>1485.4000244141</ele>
        <time>2025-08-31T08:08:23.000Z</time>
      </trkpt>
      <trkpt lat="44.98708" lon="5.72799">
        <ele>1486.5999755859</ele>
        <time>2025-08-31T08:08:30.000Z</time>
      </trkpt>
      <trkpt lat="44.98708" lon="5.72799">
        <ele>1487.5999755859</ele>
        <time>2025-08-31T08:08:37.000Z</time>
      </trkpt>
      <trkpt lat="44.98709" lon="5.72799">
        <ele>1488.5999755859</ele>
        <time>2025-08-31T08:08:44.000Z</time>
      </trkpt>
      <trkpt lat="44.98709" lon="5.72799">
        <ele>1489.8000488281</ele>
        <time>2025-08-31T08:08:53.000Z</time>
      </trkpt>
      <trkpt lat="44.9871" lon="5.72798">
        <ele>1490.8000488281</ele>
        <time>2025-08-31T08:09:02.000Z</time>
      </trkpt>
      <trkpt lat="44.9871" lon="5.72798">
        <ele>1491.4000244141</ele>
        <time>2025-08-31T08:09:15.000Z</time>
      </trkpt>
      <trkpt lat="44.98711" lon="5.72798">
        <ele>1491.5999755859</ele>
        <time>2025-08-31T08:09:22.000Z</time>
      </trkpt>
      <trkpt lat="44.98711" lon="5.72797">
        <ele>1491.5999755859</ele>
        <time>2025-08-31T08:09:24.000Z</time>
      </trkpt>
      <trkpt lat="44.98723" lon="5.72791">
        <ele>1491.8000488281</ele>
        <time>2025-08-31T08:09:28.000Z</time>
      </trkpt>
      <trkpt lat="44.98727" lon="5.72789">
        <ele>1492</ele>
        <time>2025-08-31T08:09:30.000Z</time>
      </trkpt>
      <trkpt lat="44.98736" lon="5.72783">
        <ele>1492</ele>
        <time>2025-08-31T08:09:34.000Z</time>
      </trkpt>
      <trkpt lat="44.98739" lon="5.72782">
        <ele>1491.8000488281</ele>
        <time>2025-08-31T08:09:36.000Z</time>
      </trkpt>
      <trkpt lat="44.98746" lon="5.72777">
        <ele>1491.5999755859</ele>
        <time>2025-08-31T08:09:42.000Z</time>
      </trkpt>
      <trkpt lat="44.98751" lon="5.72774">
        <ele>1491.8000488281</ele>
        <time>2025-08-31T08:09:48.000Z</time>
      </trkpt>
      <trkpt lat="44.98751" lon="5.72774">
        <ele>1491.8000488281</ele>
        <time>2025-08-31T08:09:50.000Z</time>
      </trkpt>
      <trkpt lat="44.98751" lon="5.72774">
        <ele>1491.8000488281</ele>
        <time>2025-08-31T08:09:53.000Z</time>
      </trkpt>
      <trkpt lat="44.98751" lon="5.72774">
        <ele>1491.1999511719</ele>
        <time>2025-08-31T08:10:08.000Z</time>
      </trkpt>
      <trkpt lat="44.98751" lon="5.72774">
        <ele>1491.1999511719</ele>
        <time>2025-08-31T08:10:11.000Z</time>
      </trkpt>
      <trkpt lat="44.98751" lon="5.72774">
        <ele>1491</ele>
        <time>2025-08-31T08:10:15.000Z</time>
      </trkpt>
      <trkpt lat="44.98751" lon="5.72774">
        <ele>1491</ele>
        <time>2025-08-31T08:10:19.000Z</time>
      </trkpt>
      <trkpt lat="44.98752" lon="5.72774">
        <ele>1490.8000488281</ele>
        <time>2025-08-31T08:10:33.000Z</time>
      </trkpt>
      <trkpt lat="44.98752" lon="5.72774">
        <ele>1490.5999755859</ele>
        <time>2025-08-31T08:10:36.000Z</time>
      </trkpt>
      <trkpt lat="44.98752" lon="5.72774">
        <ele>1490.1999511719</ele>
        <time>2025-08-31T08:10:49.000Z</time>
      </trkpt>
      <trkpt lat="44.98752" lon="5.72774">
        <ele>1490.1999511719</ele>
        <time>2025-08-31T08:10:51.000Z</time>
      </trkpt>
      <trkpt lat="44.98752" lon="5.72774">
        <ele>1490.1999511719</ele>
        <time>2025-08-31T08:10:57.000Z</time>
      </trkpt>
      <trkpt lat="44.98752" lon="5.72775">
        <ele>1490.8000488281</ele>
        <time>2025-08-31T08:11:12.000Z</time>
      </trkpt>
      <trkpt lat="44.98752" lon="5.72775">
        <ele>1491.5999755859</ele>
        <time>2025-08-31T08:11:19.000Z</time>
      </trkpt>
      <trkpt lat="44.98752" lon="5.72775">
        <ele>1491.8000488281</ele>
        <time>2025-08-31T08:11:21.000Z</time>
      </trkpt>
      <trkpt lat="44.98752" lon="5.72774">
        <ele>1492.4000244141</ele>
        <time>2025-08-31T08:11:32.000Z</time>
      </trkpt>
      <trkpt lat="44.98752" lon="5.72774">
        <ele>1492.8000488281</ele>
        <time>2025-08-31T08:11:41.000Z</time>
      </trkpt>
      <trkpt lat="44.98752" lon="5.72774">
        <ele>1493.4000244141</ele>
        <time>2025-08-31T08:11:54.000Z</time>
      </trkpt>
      <trkpt lat="44.98752" lon="5.72774">
        <ele>1493.8000488281</ele>
        <time>2025-08-31T08:12:06.000Z</time>
      </trkpt>
      <trkpt lat="44.98752" lon="5.72774">
        <ele>1493.8000488281</ele>
        <time>2025-08-31T08:12:08.000Z</time>
      </trkpt>
      <trkpt lat="44.98752" lon="5.72774">
        <ele>1493.8000488281</ele>
        <time>2025-08-31T08:12:11.000Z</time>
      </trkpt>
      <trkpt lat="44.98752" lon="5.72774">
        <ele>1493.8000488281</ele>
        <time>2025-08-31T08:12:14.000Z</time>
      </trkpt>
      <trkpt lat="44.98752" lon="5.72774">
        <ele>1493.5999755859</ele>
        <time>2025-08-31T08:12:18.000Z</time>
      </trkpt>
      <trkpt lat="44.98752" lon="5.72774">
        <ele>1493.5999755859</ele>
        <time>2025-08-31T08:12:19.000Z</time>
      </trkpt>
      <trkpt lat="44.98752" lon="5.72774">
        <ele>1493.4000244141</ele>
        <time>2025-08-31T08:12:20.000Z</time>
      </trkpt>
      <trkpt lat="44.98752" lon="5.72774">
        <ele>1493.4000244141</ele>
        <time>2025-08-31T08:12:21.000Z</time>
      </trkpt>
      <trkpt lat="44.98873" lon="5.72749">
        <ele>1544.1999511719</ele>
        <time>2025-08-31T08:25:10.000Z</time>
      </trkpt>
      <trkpt lat="44.98874" lon="5.72749">
        <ele>1544.4000244141</ele>
        <time>2025-08-31T08:25:11.000Z</time>
      </trkpt>
      <trkpt lat="44.98874" lon="5.72749">
        <ele>1544.8000488281</ele>
        <time>2025-08-31T08:25:14.000Z</time>
      </trkpt>
      <trkpt lat="44.98875" lon="5.72746">
        <ele>1545.1999511719</ele>
        <time>2025-08-31T08:25:20.000Z</time>
      </trkpt>
      <trkpt lat="44.98875" lon="5.72746">
        <ele>1545.4000244141</ele>
        <time>2025-08-31T08:25:21.000Z</time>
      </trkpt>
      <trkpt lat="44.98877" lon="5.72743">
        <ele>1546.4000244141</ele>
        <time>2025-08-31T08:25:27.000Z</time>
      </trkpt>
      <trkpt lat="44.98877" lon="5.72743">
        <ele>1546.8000488281</ele>
        <time>2025-08-31T08:25:29.000Z</time>
      </trkpt>
      <trkpt lat="44.98878" lon="5.72742">
        <ele>1547.1999511719</ele>
        <time>2025-08-31T08:25:31.000Z</time>
      </trkpt>
      <trkpt lat="44.98878" lon="5.7274">
        <ele>1547.5999755859</ele>
        <time>2025-08-31T08:25:33.000Z</time>
      </trkpt>
      <trkpt lat="44.9888" lon="5.7274">
        <ele>1548.1999511719</ele>
        <time>2025-08-31T08:25:36.000Z</time>
      </trkpt>
      <trkpt lat="44.9888" lon="5.72741">
        <ele>1548.5999755859</ele>
        <time>2025-08-31T08:25:38.000Z</time>
      </trkpt>
      <trkpt lat="44.98881" lon="5.72741">
        <ele>1548.8000488281</ele>
        <time>2025-08-31T08:25:39.000Z</time>
      </trkpt>
      <trkpt lat="44.98882" lon="5.7274">
        <ele>1549.4000244141</ele>
        <time>2025-08-31T08:25:43.000Z</time>
      </trkpt>
      <trkpt lat="44.98882" lon="5.72739">
        <ele>1549.5999755859</ele>
        <time>2025-08-31T08:25:44.000Z</time>
      </trkpt>
      <trkpt lat="44.98883" lon="5.72738">
        <ele>1550.4000244141</ele>
        <time>2025-08-31T08:25:47.000Z</time>
      </trkpt>
      <trkpt lat="44.98884" lon="5.72738">
        <ele>1550.8000488281</ele>
        <time>2025-08-31T08:25:50.000Z</time>
      </trkpt>
      <trkpt lat="44.98886" lon="5.72738">
        <ele>1551.8000488281</ele>
        <time>2025-08-31T08:25:54.000Z</time>
      </trkpt>
      <trkpt lat="44.98887" lon="5.72738">
        <ele>1552</ele>
        <time>2025-08-31T08:25:55.000Z</time>
      </trkpt>
      <trkpt lat="44.98887" lon="5.72739">
        <ele>1552</ele>
        <time>2025-08-31T08:25:56.000Z</time>
      </trkpt>
      <trkpt lat="44.98888" lon="5.72739">
        <ele>1552.4000244141</ele>
        <time>2025-08-31T08:25:59.000Z</time>
      </trkpt>
      <trkpt lat="44.98888" lon="5.72737">
        <ele>1553</ele>
        <time>2025-08-31T08:26:02.000Z</time>
      </trkpt>
      <trkpt lat="44.98889" lon="5.72736">
        <ele>1553.1999511719</ele>
        <time>2025-08-31T08:26:03.000Z</time>
      </trkpt>
      <trkpt lat="44.9889" lon="5.72734">
        <ele>1554</ele>
        <time>2025-08-31T08:26:08.000Z</time>
      </trkpt>
      <trkpt lat="44.98891" lon="5.72734">
        <ele>1554.5999755859</ele>
        <time>2025-08-31T08:26:10.000Z</time>
      </trkpt>
      <trkpt lat="44.98893" lon="5.72733">
        <ele>1555.1999511719</ele>
        <time>2025-08-31T08:26:14.000Z</time>
      </trkpt>
      <trkpt lat="44.98897" lon="5.72739">
        <ele>1556.1999511719</ele>
        <time>2025-08-31T08:26:22.000Z</time>
      </trkpt>
      <trkpt lat="44.98901" lon="5.72741">
        <ele>1557.4000244141</ele>
        <time>2025-08-31T08:26:29.000Z</time>
      </trkpt>
      <trkpt lat="44.98901" lon="5.7274">
        <ele>1558</ele>
        <time>2025-08-31T08:26:32.000Z</time>
      </trkpt>
      <trkpt lat="44.98902" lon="5.72738">
        <ele>1558.5999755859</ele>
        <time>2025-08-31T08:26:34.000Z</time>
      </trkpt>
      <trkpt lat="44.98902" lon="5.72737">
        <ele>1559</ele>
        <time>2025-08-31T08:26:37.000Z</time>
      </trkpt>
      <trkpt lat="44.98904" lon="5.72737">
        <ele>1559.5999755859</ele>
        <time>2025-08-31T08:26:40.000Z</time>
      </trkpt>
      <trkpt lat="44.98905" lon="5.72738">
        <ele>1560.4000244141</ele>
        <time>2025-08-31T08:26:44.000Z</time>
      </trkpt>
      <trkpt lat="44.98906" lon="5.72738">
        <ele>1560.5999755859</ele>
        <time>2025-08-31T08:26:46.000Z</time>
      </trkpt>
      <trkpt lat="44.98908" lon="5.72738">
        <ele>1561.4000244141</ele>
        <time>2025-08-31T08:26:51.000Z</time>
      </trkpt>
      <trkpt lat="44.98909" lon="5.72738">
        <ele>1561.8000488281</ele>
        <time>2025-08-31T08:26:53.000Z</time>
      </trkpt>
      <trkpt lat="44.98912" lon="5.72738">
        <ele>1562.8000488281</ele>
        <time>2025-08-31T08:26:59.000Z</time>
      </trkpt>
      <trkpt lat="44.98913" lon="5.72738">
        <ele>1563.4000244141</ele>
        <time>2025-08-31T08:27:03.000Z</time>
      </trkpt>
      <trkpt lat="44.98914" lon="5.72737">
        <ele>1564</ele>
        <time>2025-08-31T08:27:07.000Z</time>
      </trkpt>
      <trkpt lat="44.98914" lon="5.72733">
        <ele>1564.5999755859</ele>
        <time>2025-08-31T08:27:12.000Z</time>
      </trkpt>
      <trkpt lat="44.98914" lon="5.72732">
        <ele>1565</ele>
        <time>2025-08-31T08:27:14.000Z</time>
      </trkpt>
      <trkpt lat="44.98916" lon="5.7273">
        <ele>1566</ele>
        <time>2025-08-31T08:27:19.000Z</time>
      </trkpt>
      <trkpt lat="44.98916" lon="5.7273">
        <ele>1566.1999511719</ele>
        <time>2025-08-31T08:27:20.000Z</time>
      </trkpt>
      <trkpt lat="44.98919" lon="5.72732">
        <ele>1567.1999511719</ele>
        <time>2025-08-31T08:27:26.000Z</time>
      </trkpt>
      <trkpt lat="44.9892" lon="5.72733">
        <ele>1568</ele>
        <time>2025-08-31T08:27:30.000Z</time>
      </trkpt>
      <trkpt lat="44.9892" lon="5.72732">
        <ele>1568.4000244141</ele>
        <time>2025-08-31T08:27:31.000Z</time>
      </trkpt>
      <trkpt lat="44.9892" lon="5.72728">
        <ele>1569.1999511719</ele>
        <time>2025-08-31T08:27:36.000Z</time>
      </trkpt>
      <trkpt lat="44.9892" lon="5.72727">
        <ele>1569.4000244141</ele>
        <time>2025-08-31T08:27:37.000Z</time>
      </trkpt>
      <trkpt lat="44.98921" lon="5.72723">
        <ele>1570.5999755859</ele>
        <time>2025-08-31T08:27:43.000Z</time>
      </trkpt>
      <trkpt lat="44.98922" lon="5.72722">
        <ele>1570.8000488281</ele>
        <time>2025-08-31T08:27:45.000Z</time>
      </trkpt>
      <trkpt lat="44.98922" lon="5.72722">
        <ele>1571.1999511719</ele>
        <time>2025-08-31T08:27:52.000Z</time>
      </trkpt>
      <trkpt lat="44.98922" lon="5.72722">
        <ele>1571.5999755859</ele>
        <time>2025-08-31T08:27:58.000Z</time>
      </trkpt>
      <trkpt lat="44.98922" lon="5.72722">
        <ele>1572.5999755859</ele>
        <time>2025-08-31T08:28:05.000Z</time>
      </trkpt>
      <trkpt lat="44.98922" lon="5.72722">
        <ele>1573</ele>
        <time>2025-08-31T08:28:07.000Z</time>
      </trkpt>
      <trkpt lat="44.98923" lon="5.72722">
        <ele>1573.4000244141</ele>
        <time>2025-08-31T08:28:10.000Z</time>
      </trkpt>
      <trkpt lat="44.98924" lon="5.72723">
        <ele>1573.8000488281</ele>
        <time>2025-08-31T08:28:12.000Z</time>
      </trkpt>
      <trkpt lat="44.98925" lon="5.72723">
        <ele>1575</ele>
        <time>2025-08-31T08:28:17.000Z</time>
      </trkpt>
      <trkpt lat="44.98926" lon="5.72723">
        <ele>1575.1999511719</ele>
        <time>2025-08-31T08:28:18.000Z</time>
      </trkpt>
      <trkpt lat="44.98927" lon="5.72723">
        <ele>1575.5999755859</ele>
        <time>2025-08-31T08:28:20.000Z</time>
      </trkpt>
      <trkpt lat="44.98929" lon="5.72724">
        <ele>1576</ele>
        <time>2025-08-31T08:28:23.000Z</time>
      </trkpt>
      <trkpt lat="44.98931" lon="5.72724">
        <ele>1577.1999511719</ele>
        <time>2025-08-31T08:28:29.000Z</time>
      </trkpt>
      <trkpt lat="44.98932" lon="5.72724">
        <ele>1577.4000244141</ele>
        <time>2025-08-31T08:28:30.000Z</time>
      </trkpt>
      <trkpt lat="44.98934" lon="5.72724">
        <ele>1578.4000244141</ele>
        <time>2025-08-31T08:28:36.000Z</time>
      </trkpt>
      <trkpt lat="44.98935" lon="5.72721">
        <ele>1579.4000244141</ele>
        <time>2025-08-31T08:28:43.000Z</time>
      </trkpt>
      <trkpt lat="44.98936" lon="5.72719">
        <ele>1580.5999755859</ele>
        <time>2025-08-31T08:28:50.000Z</time>
      </trkpt>
      <trkpt lat="44.9894" lon="5.72718">
        <ele>1581.5999755859</ele>
        <time>2025-08-31T08:28:58.000Z</time>
      </trkpt>
      <trkpt lat="44.98941" lon="5.72715">
        <ele>1582.8000488281</ele>
        <time>2025-08-31T08:29:03.000Z</time>
      </trkpt>
      <trkpt lat="44.98942" lon="5.72712">
        <ele>1583.1999511719</ele>
        <time>2025-08-31T08:29:05.000Z</time>
      </trkpt>
      <trkpt lat="44.98942" lon="5.72706">
        <ele>1583.8000488281</ele>
        <time>2025-08-31T08:29:08.000Z</time>
      </trkpt>
      <trkpt lat="44.98944" lon="5.72701">
        <ele>1584.5999755859</ele>
        <time>2025-08-31T08:29:14.000Z</time>
      </trkpt>
      <trkpt lat="44.98943" lon="5.72699">
        <ele>1584.8000488281</ele>
        <time>2025-08-31T08:29:16.000Z</time>
      </trkpt>
      <trkpt lat="44.98943" lon="5.72694">
        <ele>1585.4000244141</ele>
        <time>2025-08-31T08:29:22.000Z</time>
      </trkpt>
      <trkpt lat="44.98944" lon="5.72693">
        <ele>1585.8000488281</ele>
        <time>2025-08-31T08:29:24.000Z</time>
      </trkpt>
      <trkpt lat="44.98944" lon="5.72691">
        <ele>1586.5999755859</ele>
        <time>2025-08-31T08:29:29.000Z</time>
      </trkpt>
      <trkpt lat="44.98946" lon="5.72692">
        <ele>1587</ele>
        <time>2025-08-31T08:29:34.000Z</time>
      </trkpt>
      <trkpt lat="44.98947" lon="5.72691">
        <ele>1587.4000244141</ele>
        <time>2025-08-31T08:29:37.000Z</time>
      </trkpt>
      <trkpt lat="44.98948" lon="5.72688">
        <ele>1588</ele>
        <time>2025-08-31T08:29:43.000Z</time>
      </trkpt>
      <trkpt lat="44.98949" lon="5.72685">
        <ele>1589.1999511719</ele>
        <time>2025-08-31T08:29:48.000Z</time>
      </trkpt>
      <trkpt lat="44.98952" lon="5.72685">
        <ele>1590.1999511719</ele>
        <time>2025-08-31T08:29:55.000Z</time>
      </trkpt>
      <trkpt lat="44.98952" lon="5.72685">
        <ele>1590.4000244141</ele>
        <time>2025-08-31T08:29:56.000Z</time>
      </trkpt>
      <trkpt lat="44.98954" lon="5.72686">
        <ele>1591.1999511719</ele>
        <time>2025-08-31T08:30:01.000Z</time>
      </trkpt>
      <trkpt lat="44.98955" lon="5.72686">
        <ele>1591.4000244141</ele>
        <time>2025-08-31T08:30:03.000Z</time>
      </trkpt>
      <trkpt lat="44.98956" lon="5.72688">
        <ele>1592.1999511719</ele>
        <time>2025-08-31T08:30:07.000Z</time>
      </trkpt>
      <trkpt lat="44.98959" lon="5.72691">
        <ele>1593.4000244141</ele>
        <time>2025-08-31T08:30:16.000Z</time>
      </trkpt>
      <trkpt lat="44.9896" lon="5.72693">
        <ele>1593.5999755859</ele>
        <time>2025-08-31T08:30:18.000Z</time>
      </trkpt>
      <trkpt lat="44.98963" lon="5.72695">
        <ele>1594.4000244141</ele>
        <time>2025-08-31T08:30:23.000Z</time>
      </trkpt>
      <trkpt lat="44.98965" lon="5.72696">
        <ele>1595.1999511719</ele>
        <time>2025-08-31T08:30:28.000Z</time>
      </trkpt>
      <trkpt lat="44.98965" lon="5.72697">
        <ele>1595.4000244141</ele>
        <time>2025-08-31T08:30:29.000Z</time>
      </trkpt>
      <trkpt lat="44.98966" lon="5.72697">
        <ele>1595.5999755859</ele>
        <time>2025-08-31T08:30:30.000Z</time>
      </trkpt>
      <trkpt lat="44.98968" lon="5.72696">
        <ele>1596.4000244141</ele>
        <time>2025-08-31T08:30:37.000Z</time>
      </trkpt>
      <trkpt lat="44.98968" lon="5.72695">
        <ele>1596.5999755859</ele>
        <time>2025-08-31T08:30:38.000Z</time>
      </trkpt>
      <trkpt lat="44.9897" lon="5.72689">
        <ele>1597.8000488281</ele>
        <time>2025-08-31T08:30:44.000Z</time>
      </trkpt>
      <trkpt lat="44.9897" lon="5.72685">
        <ele>1598.1999511719</ele>
        <time>2025-08-31T08:30:48.000Z</time>
      </trkpt>
      <trkpt lat="44.9897" lon="5.72682">
        <ele>1598.8000488281</ele>
        <time>2025-08-31T08:30:51.000Z</time>
      </trkpt>
      <trkpt lat="44.98972" lon="5.72681">
        <ele>1599.5999755859</ele>
        <time>2025-08-31T08:30:56.000Z</time>
      </trkpt>
      <trkpt lat="44.98973" lon="5.72683">
        <ele>1599.8000488281</ele>
        <time>2025-08-31T08:30:58.000Z</time>
      </trkpt>
      <trkpt lat="44.98976" lon="5.72685">
        <ele>1600.8000488281</ele>
        <time>2025-08-31T08:31:04.000Z</time>
      </trkpt>
      <trkpt lat="44.98976" lon="5.72686">
        <ele>1601</ele>
        <time>2025-08-31T08:31:05.000Z</time>
      </trkpt>
      <trkpt lat="44.98978" lon="5.72688">
        <ele>1602</ele>
        <time>2025-08-31T08:31:11.000Z</time>
      </trkpt>
      <trkpt lat="44.9898" lon="5.72689">
        <ele>1602.4000244141</ele>
        <time>2025-08-31T08:31:14.000Z</time>
      </trkpt>
      <trkpt lat="44.98982" lon="5.72687">
        <ele>1603</ele>
        <time>2025-08-31T08:31:18.000Z</time>
      </trkpt>
      <trkpt lat="44.98983" lon="5.72686">
        <ele>1603.1999511719</ele>
        <time>2025-08-31T08:31:20.000Z</time>
      </trkpt>
      <trkpt lat="44.98983" lon="5.72685">
        <ele>1603.4000244141</ele>
        <time>2025-08-31T08:31:21.000Z</time>
      </trkpt>
      <trkpt lat="44.98985" lon="5.72683">
        <ele>1604.4000244141</ele>
        <time>2025-08-31T08:31:25.000Z</time>
      </trkpt>
      <trkpt lat="44.98987" lon="5.72685">
        <ele>1605</ele>
        <time>2025-08-31T08:31:29.000Z</time>
      </trkpt>
      <trkpt lat="44.98988" lon="5.72685">
        <ele>1605.4000244141</ele>
        <time>2025-08-31T08:31:32.000Z</time>
      </trkpt>
      <trkpt lat="44.98989" lon="5.72687">
        <ele>1606</ele>
        <time>2025-08-31T08:31:36.000Z</time>
      </trkpt>
      <trkpt lat="44.98989" lon="5.72687">
        <ele>1606.5999755859</ele>
        <time>2025-08-31T08:31:41.000Z</time>
      </trkpt>
      <trkpt lat="44.98989" lon="5.72687">
        <ele>1606.8000488281</ele>
        <time>2025-08-31T08:31:46.000Z</time>
      </trkpt>
      <trkpt lat="44.98989" lon="5.72687">
        <ele>1607.8000488281</ele>
        <time>2025-08-31T08:31:52.000Z</time>
      </trkpt>
      <trkpt lat="44.98989" lon="5.72687">
        <ele>1608.5999755859</ele>
        <time>2025-08-31T08:32:00.000Z</time>
      </trkpt>
      <trkpt lat="44.98989" lon="5.72687">
        <ele>1608.8000488281</ele>
        <time>2025-08-31T08:32:01.000Z</time>
      </trkpt>
      <trkpt lat="44.98991" lon="5.72688">
        <ele>1610</ele>
        <time>2025-08-31T08:32:08.000Z</time>
      </trkpt>
      <trkpt lat="44.98992" lon="5.72688">
        <ele>1610.4000244141</ele>
        <time>2025-08-31T08:32:11.000Z</time>
      </trkpt>
      <trkpt lat="44.98993" lon="5.72688">
        <ele>1610.8000488281</ele>
        <time>2025-08-31T08:32:14.000Z</time>
      </trkpt>
      <trkpt lat="44.98994" lon="5.72688">
        <ele>1611</ele>
        <time>2025-08-31T08:32:16.000Z</time>
      </trkpt>
      <trkpt lat="44.98998" lon="5.72687">
        <ele>1612.1999511719</ele>
        <time>2025-08-31T08:32:24.000Z</time>
      </trkpt>
      <trkpt lat="44.99001" lon="5.72686">
        <ele>1613.1999511719</ele>
        <time>2025-08-31T08:32:32.000Z</time>
      </trkpt>
      <trkpt lat="44.99004" lon="5.72685">
        <ele>1613.8000488281</ele>
        <time>2025-08-31T08:32:40.000Z</time>
      </trkpt>
      <trkpt lat="44.99008" lon="5.72683">
        <ele>1614.4000244141</ele>
        <time>2025-08-31T08:32:58.000Z</time>
      </trkpt>
      <trkpt lat="44.99009" lon="5.72683">
        <ele>1615.1999511719</ele>
        <time>2025-08-31T08:33:06.000Z</time>
      </trkpt>
      <trkpt lat="44.99009" lon="5.72683">
        <ele>1615.1999511719</ele>
        <time>2025-08-31T08:33:07.000Z</time>
      </trkpt>
      <trkpt lat="44.99009" lon="5.72683">
        <ele>1615.4000244141</ele>
        <time>2025-08-31T08:33:08.000Z</time>
      </trkpt>
      <trkpt lat="44.99012" lon="5.72683">
        <ele>1616.4000244141</ele>
        <time>2025-08-31T08:33:16.000Z</time>
      </trkpt>
      <trkpt lat="44.99015" lon="5.72682">
        <ele>1617.4000244141</ele>
        <time>2025-08-31T08:33:25.000Z</time>
      </trkpt>
      <trkpt lat="44.99017" lon="5.72682">
        <ele>1618.4000244141</ele>
        <time>2025-08-31T08:33:31.000Z</time>
      </trkpt>
      <trkpt lat="44.99017" lon="5.72682">
        <ele>1618.5999755859</ele>
        <time>2025-08-31T08:33:32.000Z</time>
      </trkpt>
      <trkpt lat="44.9902" lon="5.72681">
        <ele>1619.5999755859</ele>
        <time>2025-08-31T08:33:38.000Z</time>
      </trkpt>
      <trkpt lat="44.99022" lon="5.72681">
        <ele>1620</ele>
        <time>2025-08-31T08:33:41.000Z</time>
      </trkpt>
      <trkpt lat="44.99022" lon="5.72681">
        <ele>1620.1999511719</ele>
        <time>2025-08-31T08:33:42.000Z</time>
      </trkpt>
      <trkpt lat="44.99023" lon="5.72681">
        <ele>1620.5999755859</ele>
        <time>2025-08-31T08:33:44.000Z</time>
      </trkpt>
      <trkpt lat="44.99026" lon="5.72681">
        <ele>1621.8000488281</ele>
        <time>2025-08-31T08:33:49.000Z</time>
      </trkpt>
      <trkpt lat="44.99029" lon="5.72679">
        <ele>1622.8000488281</ele>
        <time>2025-08-31T08:33:58.000Z</time>
      </trkpt>
      <trkpt lat="44.9903" lon="5.72679">
        <ele>1623</ele>
        <time>2025-08-31T08:33:59.000Z</time>
      </trkpt>
      <trkpt lat="44.99031" lon="5.72676">
        <ele>1624</ele>
        <time>2025-08-31T08:34:04.000Z</time>
      </trkpt>
      <trkpt lat="44.99033" lon="5.72673">
        <ele>1625.1999511719</ele>
        <time>2025-08-31T08:34:11.000Z</time>
      </trkpt>
      <trkpt lat="44.99037" lon="5.72671">
        <ele>1626.4000244141</ele>
        <time>2025-08-31T08:34:19.000Z</time>
      </trkpt>
      <trkpt lat="44.9904" lon="5.72669">
        <ele>1627.5999755859</ele>
        <time>2025-08-31T08:34:27.000Z</time>
      </trkpt>
      <trkpt lat="44.99043" lon="5.72666">
        <ele>1628.5999755859</ele>
        <time>2025-08-31T08:34:35.000Z</time>
      </trkpt>
      <trkpt lat="44.99045" lon="5.72664">
        <ele>1629.5999755859</ele>
        <time>2025-08-31T08:34:42.000Z</time>
      </trkpt>
      <trkpt lat="44.99047" lon="5.72662">
        <ele>1630.8000488281</ele>
        <time>2025-08-31T08:34:48.000Z</time>
      </trkpt>
      <trkpt lat="44.99048" lon="5.7266">
        <ele>1632</ele>
        <time>2025-08-31T08:34:54.000Z</time>
      </trkpt>
      <trkpt lat="44.99048" lon="5.7266">
        <ele>1633</ele>
        <time>2025-08-31T08:34:58.000Z</time>
      </trkpt>
      <trkpt lat="44.99049" lon="5.72659">
        <ele>1634</ele>
        <time>2025-08-31T08:35:03.000Z</time>
      </trkpt>
      <trkpt lat="44.99049" lon="5.72659">
        <ele>1635.1999511719</ele>
        <time>2025-08-31T08:35:10.000Z</time>
      </trkpt>
      <trkpt lat="44.99049" lon="5.72659">
        <ele>1636.1999511719</ele>
        <time>2025-08-31T08:35:16.000Z</time>
      </trkpt>
      <trkpt lat="44.99049" lon="5.72659">
        <ele>1637.1999511719</ele>
        <time>2025-08-31T08:35:22.000Z</time>
      </trkpt>
      <trkpt lat="44.99049" lon="5.72659">
        <ele>1638.1999511719</ele>
        <time>2025-08-31T08:35:28.000Z</time>
      </trkpt>
      <trkpt lat="44.99049" lon="5.72659">
        <ele>1638.8000488281</ele>
        <time>2025-08-31T08:35:33.000Z</time>
      </trkpt>
      <trkpt lat="44.99049" lon="5.72658">
        <ele>1639.4000244141</ele>
        <time>2025-08-31T08:35:37.000Z</time>
      </trkpt>
      <trkpt lat="44.9905" lon="5.72658">
        <ele>1640</ele>
        <time>2025-08-31T08:35:41.000Z</time>
      </trkpt>
      <trkpt lat="44.9905" lon="5.72658">
        <ele>1640.4000244141</ele>
        <time>2025-08-31T08:35:44.000Z</time>
      </trkpt>
      <trkpt lat="44.9905" lon="5.72658">
        <ele>1641.5999755859</ele>
        <time>2025-08-31T08:35:51.000Z</time>
      </trkpt>
      <trkpt lat="44.9905" lon="5.72657">
        <ele>1642.5999755859</ele>
        <time>2025-08-31T08:35:59.000Z</time>
      </trkpt>
      <trkpt lat="44.99051" lon="5.72657">
        <ele>1643.8000488281</ele>
        <time>2025-08-31T08:36:09.000Z</time>
      </trkpt>
      <trkpt lat="44.99052" lon="5.72656">
        <ele>1644</ele>
        <time>2025-08-31T08:36:22.000Z</time>
      </trkpt>
      <trkpt lat="44.99052" lon="5.72656">
        <ele>1644.1999511719</ele>
        <time>2025-08-31T08:36:26.000Z</time>
      </trkpt>
      <trkpt lat="44.99052" lon="5.72655">
        <ele>1644.4000244141</ele>
        <time>2025-08-31T08:36:34.000Z</time>
      </trkpt>
      <trkpt lat="44.99052" lon="5.72655">
        <ele>1644.5999755859</ele>
        <time>2025-08-31T08:36:37.000Z</time>
      </trkpt>
      <trkpt lat="44.99052" lon="5.72655">
        <ele>1644.5999755859</ele>
        <time>2025-08-31T08:36:39.000Z</time>
      </trkpt>
      <trkpt lat="44.99053" lon="5.72655">
        <ele>1644.4000244141</ele>
        <time>2025-08-31T08:36:41.000Z</time>
      </trkpt>
      <trkpt lat="44.99053" lon="5.72655">
        <ele>1644.4000244141</ele>
        <time>2025-08-31T08:36:43.000Z</time>
      </trkpt>
      <trkpt lat="44.99053" lon="5.72654">
        <ele>1644.8000488281</ele>
        <time>2025-08-31T08:36:50.000Z</time>
      </trkpt>
      <trkpt lat="44.99053" lon="5.72654">
        <ele>1644.8000488281</ele>
        <time>2025-08-31T08:36:51.000Z</time>
      </trkpt>
      <trkpt lat="44.99053" lon="5.72654">
        <ele>1644.8000488281</ele>
        <time>2025-08-31T08:36:54.000Z</time>
      </trkpt>
      <trkpt lat="44.99053" lon="5.72654">
        <ele>1645.1999511719</ele>
        <time>2025-08-31T08:37:00.000Z</time>
      </trkpt>
      <trkpt lat="44.99054" lon="5.72653">
        <ele>1645.8000488281</ele>
        <time>2025-08-31T08:37:09.000Z</time>
      </trkpt>
      <trkpt lat="44.99054" lon="5.72653">
        <ele>1645.8000488281</ele>
        <time>2025-08-31T08:37:15.000Z</time>
      </trkpt>
      <trkpt lat="44.99054" lon="5.72653">
        <ele>1645.5999755859</ele>
        <time>2025-08-31T08:37:18.000Z</time>
      </trkpt>
      <trkpt lat="44.99055" lon="5.72653">
        <ele>1645.4000244141</ele>
        <time>2025-08-31T08:37:23.000Z</time>
      </trkpt>
      <trkpt lat="44.99055" lon="5.72653">
        <ele>1646</ele>
        <time>2025-08-31T08:37:26.000Z</time>
      </trkpt>
      <trkpt lat="44.99055" lon="5.72652">
        <ele>1646</ele>
        <time>2025-08-31T08:37:27.000Z</time>
      </trkpt>
      <trkpt lat="44.99055" lon="5.72652">
        <ele>1647</ele>
        <time>2025-08-31T08:37:37.000Z</time>
      </trkpt>
      <trkpt lat="44.99055" lon="5.72652">
        <ele>1647</ele>
        <time>2025-08-31T08:37:38.000Z</time>
      </trkpt>
      <trkpt lat="44.99056" lon="5.72651">
        <ele>1647.5999755859</ele>
        <time>2025-08-31T08:37:45.000Z</time>
      </trkpt>
      <trkpt lat="44.99056" lon="5.72651">
        <ele>1648</ele>
        <time>2025-08-31T08:37:53.000Z</time>
      </trkpt>
      <trkpt lat="44.99057" lon="5.7265">
        <ele>1648.1999511719</ele>
        <time>2025-08-31T08:37:59.000Z</time>
      </trkpt>
      <trkpt lat="44.99057" lon="5.7265">
        <ele>1648.5999755859</ele>
        <time>2025-08-31T08:38:05.000Z</time>
      </trkpt>
      <trkpt lat="44.99057" lon="5.7265">
        <ele>1648.8000488281</ele>
        <time>2025-08-31T08:38:08.000Z</time>
      </trkpt>
      <trkpt lat="44.99058" lon="5.72649">
        <ele>1649</ele>
        <time>2025-08-31T08:38:13.000Z</time>
      </trkpt>
      <trkpt lat="44.99058" lon="5.72649">
        <ele>1649.5999755859</ele>
        <time>2025-08-31T08:38:17.000Z</time>
      </trkpt>
      <trkpt lat="44.99058" lon="5.72649">
        <ele>1649.8000488281</ele>
        <time>2025-08-31T08:38:20.000Z</time>
      </trkpt>
      <trkpt lat="44.99059" lon="5.72648">
        <ele>1650.1999511719</ele>
        <time>2025-08-31T08:38:27.000Z</time>
      </trkpt>
      <trkpt lat="44.99059" lon="5.72648">
        <ele>1651.1999511719</ele>
        <time>2025-08-31T08:38:32.000Z</time>
      </trkpt>
      <trkpt lat="44.99059" lon="5.72648">
        <ele>1652.4000244141</ele>
        <time>2025-08-31T08:38:39.000Z</time>
      </trkpt>
      <trkpt lat="44.9906" lon="5.72647">
        <ele>1653.5999755859</ele>
        <time>2025-08-31T08:38:49.000Z</time>
      </trkpt>
      <trkpt lat="44.99061" lon="5.72646">
        <ele>1654.8000488281</ele>
        <time>2025-08-31T08:38:55.000Z</time>
      </trkpt>
      <trkpt lat="44.99061" lon="5.72646">
        <ele>1656</ele>
        <time>2025-08-31T08:39:00.000Z</time>
      </trkpt>
      <trkpt lat="44.99062" lon="5.72645">
        <ele>1657</ele>
        <time>2025-08-31T08:39:10.000Z</time>
      </trkpt>
      <trkpt lat="44.99063" lon="5.72644">
        <ele>1658.1999511719</ele>
        <time>2025-08-31T08:39:23.000Z</time>
      </trkpt>
      <trkpt lat="44.99064" lon="5.72643">
        <ele>1659.4000244141</ele>
        <time>2025-08-31T08:39:32.000Z</time>
      </trkpt>
      <trkpt lat="44.99064" lon="5.72643">
        <ele>1660.1999511719</ele>
        <time>2025-08-31T08:39:38.000Z</time>
      </trkpt>
      <trkpt lat="44.99064" lon="5.72642">
        <ele>1660.4000244141</ele>
        <time>2025-08-31T08:39:39.000Z</time>
      </trkpt>
      <trkpt lat="44.99065" lon="5.72642">
        <ele>1661.5999755859</ele>
        <time>2025-08-31T08:39:48.000Z</time>
      </trkpt>
      <trkpt lat="44.99065" lon="5.72641">
        <ele>1662.1999511719</ele>
        <time>2025-08-31T08:39:55.000Z</time>
      </trkpt>
      <trkpt lat="44.99066" lon="5.72641">
        <ele>1662.5999755859</ele>
        <time>2025-08-31T08:39:57.000Z</time>
      </trkpt>
      <trkpt lat="44.99066" lon="5.7264">
        <ele>1663.8000488281</ele>
        <time>2025-08-31T08:40:04.000Z</time>
      </trkpt>
      <trkpt lat="44.99067" lon="5.72639">
        <ele>1664.8000488281</ele>
        <time>2025-08-31T08:40:13.000Z</time>
      </trkpt>
      <trkpt lat="44.99067" lon="5.72639">
        <ele>1665.1999511719</ele>
        <time>2025-08-31T08:40:14.000Z</time>
      </trkpt>
      <trkpt lat="44.99068" lon="5.72638">
        <ele>1666.1999511719</ele>
        <time>2025-08-31T08:40:21.000Z</time>
      </trkpt>
      <trkpt lat="44.99068" lon="5.72637">
        <ele>1667.1999511719</ele>
        <time>2025-08-31T08:40:26.000Z</time>
      </trkpt>
      <trkpt lat="44.99069" lon="5.72637">
        <ele>1668.1999511719</ele>
        <time>2025-08-31T08:40:32.000Z</time>
      </trkpt>
      <trkpt lat="44.9907" lon="5.72635">
        <ele>1669.4000244141</ele>
        <time>2025-08-31T08:40:48.000Z</time>
      </trkpt>
      <trkpt lat="44.9907" lon="5.72634">
        <ele>1670.4000244141</ele>
        <time>2025-08-31T08:40:51.000Z</time>
      </trkpt>
      <trkpt lat="44.99071" lon="5.72633">
        <ele>1671.5999755859</ele>
        <time>2025-08-31T08:40:59.000Z</time>
      </trkpt>
      <trkpt lat="44.99071" lon="5.72633">
        <ele>1672.4000244141</ele>
        <time>2025-08-31T08:41:03.000Z</time>
      </trkpt>
      <trkpt lat="44.99071" lon="5.72633">
        <ele>1672.4000244141</ele>
        <time>2025-08-31T08:41:06.000Z</time>
      </trkpt>
      <trkpt lat="44.99072" lon="5.72632">
        <ele>1672.5999755859</ele>
        <time>2025-08-31T08:41:08.000Z</time>
      </trkpt>
      <trkpt lat="44.99072" lon="5.72632">
        <ele>1674</ele>
        <time>2025-08-31T08:41:12.000Z</time>
      </trkpt>
      <trkpt lat="44.99072" lon="5.72631">
        <ele>1674.5999755859</ele>
        <time>2025-08-31T08:41:17.000Z</time>
      </trkpt>
      <trkpt lat="44.99072" lon="5.72631">
        <ele>1674.8000488281</ele>
        <time>2025-08-31T08:41:18.000Z</time>
      </trkpt>
      <trkpt lat="44.99073" lon="5.72631">
        <ele>1674.8000488281</ele>
        <time>2025-08-31T08:41:19.000Z</time>
      </trkpt>
      <trkpt lat="44.99073" lon="5.72631">
        <ele>1675.1999511719</ele>
        <time>2025-08-31T08:41:21.000Z</time>
      </trkpt>
      <trkpt lat="44.99073" lon="5.7263">
        <ele>1676.1999511719</ele>
        <time>2025-08-31T08:41:25.000Z</time>
      </trkpt>
      <trkpt lat="44.99073" lon="5.72629">
        <ele>1677.4000244141</ele>
        <time>2025-08-31T08:41:30.000Z</time>
      </trkpt>
      <trkpt lat="44.99074" lon="5.72629">
        <ele>1678.5999755859</ele>
        <time>2025-08-31T08:41:33.000Z</time>
      </trkpt>
      <trkpt lat="44.99074" lon="5.72628">
        <ele>1679.5999755859</ele>
        <time>2025-08-31T08:41:39.000Z</time>
      </trkpt>
      <trkpt lat="44.99075" lon="5.72627">
        <ele>1680.8000488281</ele>
        <time>2025-08-31T08:41:44.000Z</time>
      </trkpt>
      <trkpt lat="44.99076" lon="5.72626">
        <ele>1681.8000488281</ele>
        <time>2025-08-31T08:41:56.000Z</time>
      </trkpt>
      <trkpt lat="44.99076" lon="5.72626">
        <ele>1682</ele>
        <time>2025-08-31T08:41:57.000Z</time>
      </trkpt>
      <trkpt lat="44.99076" lon="5.72625">
        <ele>1682.8000488281</ele>
        <time>2025-08-31T08:42:00.000Z</time>
      </trkpt>
      <trkpt lat="44.99076" lon="5.72625">
        <ele>1683.1999511719</ele>
        <time>2025-08-31T08:42:01.000Z</time>
      </trkpt>
      <trkpt lat="44.99076" lon="5.72624">
        <ele>1684.1999511719</ele>
        <time>2025-08-31T08:42:05.000Z</time>
      </trkpt>
      <trkpt lat="44.99077" lon="5.72623">
        <ele>1684.8000488281</ele>
        <time>2025-08-31T08:42:16.000Z</time>
      </trkpt>
      <trkpt lat="44.99078" lon="5.72621">
        <ele>1685</ele>
        <time>2025-08-31T08:42:26.000Z</time>
      </trkpt>
      <trkpt lat="44.99079" lon="5.72621">
        <ele>1685.4000244141</ele>
        <time>2025-08-31T08:42:31.000Z</time>
      </trkpt>
      <trkpt lat="44.99079" lon="5.7262">
        <ele>1685.4000244141</ele>
        <time>2025-08-31T08:42:38.000Z</time>
      </trkpt>
      <trkpt lat="44.99079" lon="5.7262">
        <ele>1685</ele>
        <time>2025-08-31T08:42:39.000Z</time>
      </trkpt>
      <trkpt lat="44.9908" lon="5.72619">
        <ele>1684.4000244141</ele>
        <time>2025-08-31T08:42:45.000Z</time>
      </trkpt>
      <trkpt lat="44.99089" lon="5.72604">
        <ele>1685.8000488281</ele>
        <time>2025-08-31T08:42:51.000Z</time>
      </trkpt>
      <trkpt lat="44.99108" lon="5.72574">
        <ele>1686.4000244141</ele>
        <time>2025-08-31T08:42:53.000Z</time>
      </trkpt>
      <trkpt lat="44.99126" lon="5.72544">
        <ele>1687</ele>
        <time>2025-08-31T08:42:55.000Z</time>
      </trkpt>
      <trkpt lat="44.99145" lon="5.72514">
        <ele>1687.5999755859</ele>
        <time>2025-08-31T08:42:57.000Z</time>
      </trkpt>
      <trkpt lat="44.99163" lon="5.72483">
        <ele>1688</ele>
        <time>2025-08-31T08:42:59.000Z</time>
      </trkpt>
      <trkpt lat="44.99173" lon="5.72465">
        <ele>1688.4000244141</ele>
        <time>2025-08-31T08:43:01.000Z</time>
      </trkpt>
      <trkpt lat="44.99174" lon="5.72463">
        <ele>1688.5999755859</ele>
        <time>2025-08-31T08:43:03.000Z</time>
      </trkpt>
      <trkpt lat="44.99175" lon="5.72461">
        <ele>1689.4000244141</ele>
        <time>2025-08-31T08:43:05.000Z</time>
      </trkpt>
      <trkpt lat="44.99176" lon="5.7246">
        <ele>1689.8000488281</ele>
        <time>2025-08-31T08:43:07.000Z</time>
      </trkpt>
      <trkpt lat="44.99179" lon="5.72455">
        <ele>1690.1999511719</ele>
        <time>2025-08-31T08:43:11.000Z</time>
      </trkpt>
      <trkpt lat="44.99181" lon="5.72454">
        <ele>1690.4000244141</ele>
        <time>2025-08-31T08:43:13.000Z</time>
      </trkpt>
      <trkpt lat="44.99183" lon="5.72454">
        <ele>1690.4000244141</ele>
        <time>2025-08-31T08:43:15.000Z</time>
      </trkpt>
      <trkpt lat="44.99187" lon="5.72455">
        <ele>1690.1999511719</ele>
        <time>2025-08-31T08:43:23.000Z</time>
      </trkpt>
      <trkpt lat="44.99187" lon="5.72455">
        <ele>1690</ele>
        <time>2025-08-31T08:43:31.000Z</time>
      </trkpt>
      <trkpt lat="44.99188" lon="5.72456">
        <ele>1688.4000244141</ele>
        <time>2025-08-31T08:43:43.000Z</time>
      </trkpt>
      <trkpt lat="44.99187" lon="5.72451">
        <ele>1688.5999755859</ele>
        <time>2025-08-31T08:43:46.000Z</time>
      </trkpt>
      <trkpt lat="44.99187" lon="5.72447">
        <ele>1689.5999755859</ele>
        <time>2025-08-31T08:43:49.000Z</time>
      </trkpt>
      <trkpt lat="44.99187" lon="5.72444">
        <ele>1690.4000244141</ele>
        <time>2025-08-31T08:43:53.000Z</time>
      </trkpt>
      <trkpt lat="44.99187" lon="5.7244">
        <ele>1690.5999755859</ele>
        <time>2025-08-31T08:43:57.000Z</time>
      </trkpt>
      <trkpt lat="44.99187" lon="5.7244">
        <ele>1690.5999755859</ele>
        <time>2025-08-31T08:43:58.000Z</time>
      </trkpt>
      <trkpt lat="44.99187" lon="5.7244">
        <ele>1690.5999755859</ele>
        <time>2025-08-31T08:44:00.000Z</time>
      </trkpt>
      <trkpt lat="44.99188" lon="5.72439">
        <ele>1690</ele>
        <time>2025-08-31T08:44:09.000Z</time>
      </trkpt>
      <trkpt lat="44.99188" lon="5.72439">
        <ele>1690.5999755859</ele>
        <time>2025-08-31T08:44:14.000Z</time>
      </trkpt>
      <trkpt lat="44.99187" lon="5.72438">
        <ele>1690.1999511719</ele>
        <time>2025-08-31T08:44:26.000Z</time>
      </trkpt>
      <trkpt lat="44.99185" lon="5.72438">
        <ele>1691</ele>
        <time>2025-08-31T08:44:40.000Z</time>
      </trkpt>
      <trkpt lat="44.99185" lon="5.72438">
        <ele>1691.4000244141</ele>
        <time>2025-08-31T08:44:43.000Z</time>
      </trkpt>
      <trkpt lat="44.99185" lon="5.72438">
        <ele>1691.5999755859</ele>
        <time>2025-08-31T08:44:44.000Z</time>
      </trkpt>
      <trkpt lat="44.99184" lon="5.72446">
        <ele>1692.1999511719</ele>
        <time>2025-08-31T08:44:48.000Z</time>
      </trkpt>
      <trkpt lat="44.99179" lon="5.72461">
        <ele>1692.1999511719</ele>
        <time>2025-08-31T08:44:54.000Z</time>
      </trkpt>
      <trkpt lat="44.99178" lon="5.72462">
        <ele>1692.1999511719</ele>
        <time>2025-08-31T08:44:55.000Z</time>
      </trkpt>
      <trkpt lat="44.99175" lon="5.72462">
        <ele>1693.1999511719</ele>
        <time>2025-08-31T08:44:57.000Z</time>
      </trkpt>
      <trkpt lat="44.9917" lon="5.72464">
        <ele>1693</ele>
        <time>2025-08-31T08:45:01.000Z</time>
      </trkpt>
      <trkpt lat="44.99167" lon="5.72466">
        <ele>1690.4000244141</ele>
        <time>2025-08-31T08:45:04.000Z</time>
      </trkpt>
      <trkpt lat="44.99167" lon="5.72466">
        <ele>1688.8000488281</ele>
        <time>2025-08-31T08:45:05.000Z</time>
      </trkpt>
      <trkpt lat="44.99167" lon="5.72466">
        <ele>1688.8000488281</ele>
        <time>2025-08-31T08:45:08.000Z</time>
      </trkpt>
      <trkpt lat="44.99167" lon="5.72465">
        <ele>1688</ele>
        <time>2025-08-31T08:45:24.000Z</time>
      </trkpt>
      <trkpt lat="44.99167" lon="5.72465">
        <ele>1689</ele>
        <time>2025-08-31T08:45:42.000Z</time>
      </trkpt>
      <trkpt lat="44.99167" lon="5.72466">
        <ele>1690</ele>
        <time>2025-08-31T08:46:05.000Z</time>
      </trkpt>
      <trkpt lat="44.99163" lon="5.72471">
        <ele>1690.4000244141</ele>
        <time>2025-08-31T08:46:13.000Z</time>
      </trkpt>
      <trkpt lat="44.99162" lon="5.72473">
        <ele>1689.8000488281</ele>
        <time>2025-08-31T08:46:15.000Z</time>
      </trkpt>
      <trkpt lat="44.99162" lon="5.72473">
        <ele>1689.1999511719</ele>
        <time>2025-08-31T08:46:16.000Z</time>
      </trkpt>
      <trkpt lat="44.99162" lon="5.72474">
        <ele>1688.5999755859</ele>
        <time>2025-08-31T08:46:17.000Z</time>
      </trkpt>
      <trkpt lat="44.99161" lon="5.72475">
        <ele>1688</ele>
        <time>2025-08-31T08:46:19.000Z</time>
      </trkpt>
      <trkpt lat="44.99161" lon="5.72475">
        <ele>1688.1999511719</ele>
        <time>2025-08-31T08:46:29.000Z</time>
      </trkpt>
      <trkpt lat="44.99161" lon="5.72475">
        <ele>1688.1999511719</ele>
        <time>2025-08-31T08:46:32.000Z</time>
      </trkpt>
      <trkpt lat="44.99161" lon="5.72475">
        <ele>1687.5999755859</ele>
        <time>2025-08-31T08:46:33.000Z</time>
      </trkpt>
      <trkpt lat="44.99161" lon="5.72475">
        <ele>1687.1999511719</ele>
        <time>2025-08-31T08:46:36.000Z</time>
      </trkpt>
      <trkpt lat="44.99159" lon="5.72478">
        <ele>1686.4000244141</ele>
        <time>2025-08-31T08:46:40.000Z</time>
      </trkpt>
      <trkpt lat="44.99157" lon="5.72482">
        <ele>1685.4000244141</ele>
        <time>2025-08-31T08:46:43.000Z</time>
      </trkpt>
      <trkpt lat="44.99155" lon="5.72484">
        <ele>1684.1999511719</ele>
        <time>2025-08-31T08:46:46.000Z</time>
      </trkpt>
      <trkpt lat="44.99154" lon="5.72487">
        <ele>1683.8000488281</ele>
        <time>2025-08-31T08:46:50.000Z</time>
      </trkpt>
      <trkpt lat="44.99152" lon="5.72492">
        <ele>1683</ele>
        <time>2025-08-31T08:46:55.000Z</time>
      </trkpt>
      <trkpt lat="44.9915" lon="5.72495">
        <ele>1681.8000488281</ele>
        <time>2025-08-31T08:46:58.000Z</time>
      </trkpt>
      <trkpt lat="44.99149" lon="5.72498">
        <ele>1680.5999755859</ele>
        <time>2025-08-31T08:47:00.000Z</time>
      </trkpt>
      <trkpt lat="44.99147" lon="5.72502">
        <ele>1679.4000244141</ele>
        <time>2025-08-31T08:47:03.000Z</time>
      </trkpt>
      <trkpt lat="44.99146" lon="5.72506">
        <ele>1678.1999511719</ele>
        <time>2025-08-31T08:47:06.000Z</time>
      </trkpt>
      <trkpt lat="44.99145" lon="5.72507">
        <ele>1678</ele>
        <time>2025-08-31T08:47:07.000Z</time>
      </trkpt>
      <trkpt lat="44.99145" lon="5.72508">
        <ele>1677.1999511719</ele>
        <time>2025-08-31T08:47:08.000Z</time>
      </trkpt>
      <trkpt lat="44.99143" lon="5.72514">
        <ele>1676.1999511719</ele>
        <time>2025-08-31T08:47:12.000Z</time>
      </trkpt>
      <trkpt lat="44.99143" lon="5.72514">
        <ele>1676</ele>
        <time>2025-08-31T08:47:13.000Z</time>
      </trkpt>
      <trkpt lat="44.99142" lon="5.72516">
        <ele>1674.8000488281</ele>
        <time>2025-08-31T08:47:15.000Z</time>
      </trkpt>
      <trkpt lat="44.99141" lon="5.7252">
        <ele>1673.5999755859</ele>
        <time>2025-08-31T08:47:18.000Z</time>
      </trkpt>
      <trkpt lat="44.99138" lon="5.72524">
        <ele>1672.4000244141</ele>
        <time>2025-08-31T08:47:22.000Z</time>
      </trkpt>
      <trkpt lat="44.99137" lon="5.72526">
        <ele>1671.1999511719</ele>
        <time>2025-08-31T08:47:24.000Z</time>
      </trkpt>
      <trkpt lat="44.99136" lon="5.72529">
        <ele>1670.1999511719</ele>
        <time>2025-08-31T08:47:26.000Z</time>
      </trkpt>
      <trkpt lat="44.99134" lon="5.72532">
        <ele>1669</ele>
        <time>2025-08-31T08:47:29.000Z</time>
      </trkpt>
      <trkpt lat="44.99132" lon="5.72535">
        <ele>1668</ele>
        <time>2025-08-31T08:47:31.000Z</time>
      </trkpt>
      <trkpt lat="44.99131" lon="5.72537">
        <ele>1667.8000488281</ele>
        <time>2025-08-31T08:47:33.000Z</time>
      </trkpt>
      <trkpt lat="44.99129" lon="5.7254">
        <ele>1666.8000488281</ele>
        <time>2025-08-31T08:47:36.000Z</time>
      </trkpt>
      <trkpt lat="44.99126" lon="5.72542">
        <ele>1665.5999755859</ele>
        <time>2025-08-31T08:47:39.000Z</time>
      </trkpt>
      <trkpt lat="44.99125" lon="5.72545">
        <ele>1664.1999511719</ele>
        <time>2025-08-31T08:47:41.000Z</time>
      </trkpt>
      <trkpt lat="44.99124" lon="5.72546">
        <ele>1663.4000244141</ele>
        <time>2025-08-31T08:47:43.000Z</time>
      </trkpt>
      <trkpt lat="44.99123" lon="5.72547">
        <ele>1663.1999511719</ele>
        <time>2025-08-31T08:47:44.000Z</time>
      </trkpt>
      <trkpt lat="44.9912" lon="5.72551">
        <ele>1661.8000488281</ele>
        <time>2025-08-31T08:47:48.000Z</time>
      </trkpt>
      <trkpt lat="44.99118" lon="5.72555">
        <ele>1660.8000488281</ele>
        <time>2025-08-31T08:47:52.000Z</time>
      </trkpt>
      <trkpt lat="44.99117" lon="5.72556">
        <ele>1660.4000244141</ele>
        <time>2025-08-31T08:47:53.000Z</time>
      </trkpt>
      <trkpt lat="44.99117" lon="5.72558">
        <ele>1659.8000488281</ele>
        <time>2025-08-31T08:47:55.000Z</time>
      </trkpt>
      <trkpt lat="44.99115" lon="5.72562">
        <ele>1658.4000244141</ele>
        <time>2025-08-31T08:47:58.000Z</time>
      </trkpt>
      <trkpt lat="44.99113" lon="5.72565">
        <ele>1657.8000488281</ele>
        <time>2025-08-31T08:48:01.000Z</time>
      </trkpt>
      <trkpt lat="44.99112" lon="5.72566">
        <ele>1657.4000244141</ele>
        <time>2025-08-31T08:48:03.000Z</time>
      </trkpt>
      <trkpt lat="44.9911" lon="5.72568">
        <ele>1656.1999511719</ele>
        <time>2025-08-31T08:48:06.000Z</time>
      </trkpt>
      <trkpt lat="44.99107" lon="5.72572">
        <ele>1655</ele>
        <time>2025-08-31T08:48:10.000Z</time>
      </trkpt>
      <trkpt lat="44.99105" lon="5.72575">
        <ele>1653.8000488281</ele>
        <time>2025-08-31T08:48:13.000Z</time>
      </trkpt>
      <trkpt lat="44.99103" lon="5.72578">
        <ele>1652.8000488281</ele>
        <time>2025-08-31T08:48:16.000Z</time>
      </trkpt>
      <trkpt lat="44.99101" lon="5.72581">
        <ele>1651.5999755859</ele>
        <time>2025-08-31T08:48:19.000Z</time>
      </trkpt>
      <trkpt lat="44.99101" lon="5.72583">
        <ele>1651</ele>
        <time>2025-08-31T08:48:20.000Z</time>
      </trkpt>
      <trkpt lat="44.99101" lon="5.72585">
        <ele>1650.4000244141</ele>
        <time>2025-08-31T08:48:21.000Z</time>
      </trkpt>
      <trkpt lat="44.991" lon="5.72587">
        <ele>1649.8000488281</ele>
        <time>2025-08-31T08:48:22.000Z</time>
      </trkpt>
      <trkpt lat="44.99098" lon="5.72588">
        <ele>1649.1999511719</ele>
        <time>2025-08-31T08:48:24.000Z</time>
      </trkpt>
      <trkpt lat="44.99096" lon="5.72591">
        <ele>1648</ele>
        <time>2025-08-31T08:48:26.000Z</time>
      </trkpt>
      <trkpt lat="44.99094" lon="5.72594">
        <ele>1646.5999755859</ele>
        <time>2025-08-31T08:48:29.000Z</time>
      </trkpt>
      <trkpt lat="44.99094" lon="5.72597">
        <ele>1645.5999755859</ele>
        <time>2025-08-31T08:48:31.000Z</time>
      </trkpt>
      <trkpt lat="44.99093" lon="5.726">
        <ele>1645</ele>
        <time>2025-08-31T08:48:33.000Z</time>
      </trkpt>
      <trkpt lat="44.99092" lon="5.72602">
        <ele>1644.4000244141</ele>
        <time>2025-08-31T08:48:35.000Z</time>
      </trkpt>
      <trkpt lat="44.9909" lon="5.72605">
        <ele>1643.4000244141</ele>
        <time>2025-08-31T08:48:39.000Z</time>
      </trkpt>
      <trkpt lat="44.99089" lon="5.72606">
        <ele>1642.8000488281</ele>
        <time>2025-08-31T08:48:41.000Z</time>
      </trkpt>
      <trkpt lat="44.99088" lon="5.72606">
        <ele>1642.4000244141</ele>
        <time>2025-08-31T08:48:46.000Z</time>
      </trkpt>
      <trkpt lat="44.99088" lon="5.72606">
        <ele>1642.1999511719</ele>
        <time>2025-08-31T08:48:48.000Z</time>
      </trkpt>
      <trkpt lat="44.99088" lon="5.72606">
        <ele>1642.1999511719</ele>
        <time>2025-08-31T08:48:49.000Z</time>
      </trkpt>
      <trkpt lat="44.99088" lon="5.72606">
        <ele>1642.1999511719</ele>
        <time>2025-08-31T08:49:05.000Z</time>
      </trkpt>
    </trkseg>
  </trk>
</gpx>